<?xml version="1.0" encoding="UTF-8" standalone="no" ?>
<gpx xmlns="http://www.topografix.com/GPX/1/1" xmlns:xsi="http://www.w3.org/2001/XMLSchema-instance" xsi:schemaLocation="http://www.topografix.com/GPX/1/1 http://www.topografix.com/GPX/1/1/gpx.xsd" version="1.1" creator="VisuGPX - https://www.visugpx.com">
  <metadata>
    <name>pichaderes</name>
    <desc><![CDATA[depuis la piste de germ]]></desc>
  </metadata>
  <trk>
    <name><![CDATA[19 MARS 2014 pichaderes]]></name>
    <trkseg>
      <trkpt lat="42.77261" lon="0.42139">
        <ele>1143.63</ele>
        <time>2014-03-19T06:05:13Z</time>
      </trkpt>
      <trkpt lat="42.77277" lon="0.42148">
        <ele>1144.11</ele>
        <time>2014-03-19T06:05:29Z</time>
      </trkpt>
      <trkpt lat="42.77278" lon="0.42152">
        <ele>1144.11</ele>
        <time>2014-03-19T06:05:41Z</time>
      </trkpt>
      <trkpt lat="42.77283" lon="0.4216">
        <ele>1144.11</ele>
        <time>2014-03-19T06:05:52Z</time>
      </trkpt>
      <trkpt lat="42.77287" lon="0.42147">
        <ele>1144.11</ele>
        <time>2014-03-19T06:06:03Z</time>
      </trkpt>
      <trkpt lat="42.77294" lon="0.42133">
        <ele>1144.11</ele>
        <time>2014-03-19T06:06:18Z</time>
      </trkpt>
      <trkpt lat="42.77291" lon="0.42124">
        <ele>1144.11</ele>
        <time>2014-03-19T06:06:22Z</time>
      </trkpt>
      <trkpt lat="42.77285" lon="0.42117">
        <ele>1148.43</ele>
        <time>2014-03-19T06:06:29Z</time>
      </trkpt>
      <trkpt lat="42.77281" lon="0.42119">
        <ele>1153.72</ele>
        <time>2014-03-19T06:06:35Z</time>
      </trkpt>
      <trkpt lat="42.7728" lon="0.4212">
        <ele>1153.72</ele>
        <time>2014-03-19T06:06:36Z</time>
      </trkpt>
      <trkpt lat="42.77281" lon="0.4212">
        <ele>1158.53</ele>
        <time>2014-03-19T06:06:40Z</time>
      </trkpt>
      <trkpt lat="42.77281" lon="0.4212">
        <ele>1162.85</ele>
        <time>2014-03-19T06:06:41Z</time>
      </trkpt>
      <trkpt lat="42.77281" lon="0.4212">
        <ele>1166.7</ele>
        <time>2014-03-19T06:06:42Z</time>
      </trkpt>
      <trkpt lat="42.77281" lon="0.4212">
        <ele>1171.02</ele>
        <time>2014-03-19T06:06:43Z</time>
      </trkpt>
      <trkpt lat="42.77281" lon="0.4212">
        <ele>1174.87</ele>
        <time>2014-03-19T06:06:44Z</time>
      </trkpt>
      <trkpt lat="42.77281" lon="0.4212">
        <ele>1178.71</ele>
        <time>2014-03-19T06:06:45Z</time>
      </trkpt>
      <trkpt lat="42.77281" lon="0.4212">
        <ele>1182.08</ele>
        <time>2014-03-19T06:06:46Z</time>
      </trkpt>
      <trkpt lat="42.77281" lon="0.4212">
        <ele>1185.92</ele>
        <time>2014-03-19T06:06:47Z</time>
      </trkpt>
      <trkpt lat="42.77281" lon="0.4212">
        <ele>1189.29</ele>
        <time>2014-03-19T06:06:48Z</time>
      </trkpt>
      <trkpt lat="42.77281" lon="0.4212">
        <ele>1192.65</ele>
        <time>2014-03-19T06:06:49Z</time>
      </trkpt>
      <trkpt lat="42.77281" lon="0.4212">
        <ele>1196.02</ele>
        <time>2014-03-19T06:06:50Z</time>
      </trkpt>
      <trkpt lat="42.77281" lon="0.4212">
        <ele>1198.9</ele>
        <time>2014-03-19T06:06:51Z</time>
      </trkpt>
      <trkpt lat="42.7728" lon="0.4212">
        <ele>1201.79</ele>
        <time>2014-03-19T06:06:54Z</time>
      </trkpt>
      <trkpt lat="42.7728" lon="0.4212">
        <ele>1207.55</ele>
        <time>2014-03-19T06:06:56Z</time>
      </trkpt>
      <trkpt lat="42.77281" lon="0.4212">
        <ele>1212.84</ele>
        <time>2014-03-19T06:07:00Z</time>
      </trkpt>
      <trkpt lat="42.77281" lon="0.4212">
        <ele>1217.65</ele>
        <time>2014-03-19T06:07:02Z</time>
      </trkpt>
      <trkpt lat="42.77281" lon="0.42119">
        <ele>1222.93</ele>
        <time>2014-03-19T06:07:04Z</time>
      </trkpt>
      <trkpt lat="42.7728" lon="0.42119">
        <ele>1226.78</ele>
        <time>2014-03-19T06:07:06Z</time>
      </trkpt>
      <trkpt lat="42.77281" lon="0.42119">
        <ele>1231.11</ele>
        <time>2014-03-19T06:07:08Z</time>
      </trkpt>
      <trkpt lat="42.77281" lon="0.42119">
        <ele>1234.47</ele>
        <time>2014-03-19T06:07:10Z</time>
      </trkpt>
      <trkpt lat="42.77281" lon="0.42118">
        <ele>1237.83</ele>
        <time>2014-03-19T06:07:12Z</time>
      </trkpt>
      <trkpt lat="42.77281" lon="0.42118">
        <ele>1241.2</ele>
        <time>2014-03-19T06:07:14Z</time>
      </trkpt>
      <trkpt lat="42.77282" lon="0.42119">
        <ele>1245.53</ele>
        <time>2014-03-19T06:07:18Z</time>
      </trkpt>
      <trkpt lat="42.77282" lon="0.42119">
        <ele>1246.97</ele>
        <time>2014-03-19T06:07:19Z</time>
      </trkpt>
      <trkpt lat="42.77278" lon="0.42117">
        <ele>1246.97</ele>
        <time>2014-03-19T06:07:34Z</time>
      </trkpt>
      <trkpt lat="42.77277" lon="0.42117">
        <ele>1248.41</ele>
        <time>2014-03-19T06:07:37Z</time>
      </trkpt>
      <trkpt lat="42.77279" lon="0.42118">
        <ele>1252.74</ele>
        <time>2014-03-19T06:07:42Z</time>
      </trkpt>
      <trkpt lat="42.77279" lon="0.42118">
        <ele>1254.66</ele>
        <time>2014-03-19T06:07:44Z</time>
      </trkpt>
      <trkpt lat="42.77279" lon="0.4212">
        <ele>1254.66</ele>
        <time>2014-03-19T06:08:06Z</time>
      </trkpt>
      <trkpt lat="42.77279" lon="0.42121">
        <ele>1258.98</ele>
        <time>2014-03-19T06:08:10Z</time>
      </trkpt>
      <trkpt lat="42.77279" lon="0.42121">
        <ele>1258.98</ele>
        <time>2014-03-19T06:08:11Z</time>
      </trkpt>
      <trkpt lat="42.77275" lon="0.42126">
        <ele>1261.39</ele>
        <time>2014-03-19T06:08:22Z</time>
      </trkpt>
      <trkpt lat="42.77274" lon="0.42131">
        <ele>1263.79</ele>
        <time>2014-03-19T06:08:26Z</time>
      </trkpt>
      <trkpt lat="42.77274" lon="0.42132">
        <ele>1264.75</ele>
        <time>2014-03-19T06:08:27Z</time>
      </trkpt>
      <trkpt lat="42.77272" lon="0.42139">
        <ele>1267.64</ele>
        <time>2014-03-19T06:08:40Z</time>
      </trkpt>
      <trkpt lat="42.77272" lon="0.4214">
        <ele>1267.64</ele>
        <time>2014-03-19T06:08:41Z</time>
      </trkpt>
      <trkpt lat="42.7727" lon="0.42149">
        <ele>1270.52</ele>
        <time>2014-03-19T06:08:48Z</time>
      </trkpt>
      <trkpt lat="42.77268" lon="0.42153">
        <ele>1272.92</ele>
        <time>2014-03-19T06:08:52Z</time>
      </trkpt>
      <trkpt lat="42.77265" lon="0.42161">
        <ele>1276.77</ele>
        <time>2014-03-19T06:08:59Z</time>
      </trkpt>
      <trkpt lat="42.77265" lon="0.42163">
        <ele>1277.73</ele>
        <time>2014-03-19T06:09:01Z</time>
      </trkpt>
      <trkpt lat="42.77263" lon="0.42168">
        <ele>1280.13</ele>
        <time>2014-03-19T06:09:06Z</time>
      </trkpt>
      <trkpt lat="42.77261" lon="0.42177">
        <ele>1283.98</ele>
        <time>2014-03-19T06:09:15Z</time>
      </trkpt>
      <trkpt lat="42.77258" lon="0.42188">
        <ele>1286.38</ele>
        <time>2014-03-19T06:09:26Z</time>
      </trkpt>
      <trkpt lat="42.77253" lon="0.422">
        <ele>1289.27</ele>
        <time>2014-03-19T06:09:39Z</time>
      </trkpt>
      <trkpt lat="42.77251" lon="0.42213">
        <ele>1291.67</ele>
        <time>2014-03-19T06:09:51Z</time>
      </trkpt>
      <trkpt lat="42.7725" lon="0.42217">
        <ele>1292.63</ele>
        <time>2014-03-19T06:09:56Z</time>
      </trkpt>
      <trkpt lat="42.77248" lon="0.42224">
        <ele>1293.59</ele>
        <time>2014-03-19T06:10:02Z</time>
      </trkpt>
      <trkpt lat="42.77247" lon="0.42231">
        <ele>1293.11</ele>
        <time>2014-03-19T06:10:06Z</time>
      </trkpt>
      <trkpt lat="42.77247" lon="0.42233">
        <ele>1293.11</ele>
        <time>2014-03-19T06:10:07Z</time>
      </trkpt>
      <trkpt lat="42.77246" lon="0.42238">
        <ele>1293.59</ele>
        <time>2014-03-19T06:10:11Z</time>
      </trkpt>
      <trkpt lat="42.77245" lon="0.42243">
        <ele>1294.07</ele>
        <time>2014-03-19T06:10:15Z</time>
      </trkpt>
      <trkpt lat="42.77239" lon="0.42259">
        <ele>1295.51</ele>
        <time>2014-03-19T06:10:29Z</time>
      </trkpt>
      <trkpt lat="42.77237" lon="0.42266">
        <ele>1296.48</ele>
        <time>2014-03-19T06:10:35Z</time>
      </trkpt>
      <trkpt lat="42.77236" lon="0.42271">
        <ele>1296.96</ele>
        <time>2014-03-19T06:10:39Z</time>
      </trkpt>
      <trkpt lat="42.77234" lon="0.42286">
        <ele>1297.92</ele>
        <time>2014-03-19T06:10:50Z</time>
      </trkpt>
      <trkpt lat="42.77231" lon="0.42297">
        <ele>1298.88</ele>
        <time>2014-03-19T06:10:59Z</time>
      </trkpt>
      <trkpt lat="42.77229" lon="0.4232">
        <ele>1299.36</ele>
        <time>2014-03-19T06:11:15Z</time>
      </trkpt>
      <trkpt lat="42.77229" lon="0.42322">
        <ele>1299.36</ele>
        <time>2014-03-19T06:11:16Z</time>
      </trkpt>
      <trkpt lat="42.77227" lon="0.42326">
        <ele>1299.84</ele>
        <time>2014-03-19T06:11:19Z</time>
      </trkpt>
      <trkpt lat="42.7722" lon="0.42343">
        <ele>1299.84</ele>
        <time>2014-03-19T06:11:35Z</time>
      </trkpt>
      <trkpt lat="42.77218" lon="0.42348">
        <ele>1300.32</ele>
        <time>2014-03-19T06:11:39Z</time>
      </trkpt>
      <trkpt lat="42.77216" lon="0.42352">
        <ele>1300.8</ele>
        <time>2014-03-19T06:11:43Z</time>
      </trkpt>
      <trkpt lat="42.7721" lon="0.42365">
        <ele>1302.24</ele>
        <time>2014-03-19T06:11:56Z</time>
      </trkpt>
      <trkpt lat="42.77202" lon="0.42376">
        <ele>1303.69</ele>
        <time>2014-03-19T06:12:09Z</time>
      </trkpt>
      <trkpt lat="42.77195" lon="0.42385">
        <ele>1306.09</ele>
        <time>2014-03-19T06:12:21Z</time>
      </trkpt>
      <trkpt lat="42.77192" lon="0.4239">
        <ele>1307.05</ele>
        <time>2014-03-19T06:12:28Z</time>
      </trkpt>
      <trkpt lat="42.77182" lon="0.42401">
        <ele>1309.93</ele>
        <time>2014-03-19T06:12:42Z</time>
      </trkpt>
      <trkpt lat="42.77172" lon="0.42407">
        <ele>1312.34</ele>
        <time>2014-03-19T06:12:58Z</time>
      </trkpt>
      <trkpt lat="42.77168" lon="0.42411">
        <ele>1314.26</ele>
        <time>2014-03-19T06:13:05Z</time>
      </trkpt>
      <trkpt lat="42.77159" lon="0.4242">
        <ele>1316.66</ele>
        <time>2014-03-19T06:13:19Z</time>
      </trkpt>
      <trkpt lat="42.77157" lon="0.42427">
        <ele>1319.07</ele>
        <time>2014-03-19T06:13:31Z</time>
      </trkpt>
      <trkpt lat="42.77154" lon="0.4244">
        <ele>1321.95</ele>
        <time>2014-03-19T06:13:46Z</time>
      </trkpt>
      <trkpt lat="42.77148" lon="0.42449">
        <ele>1323.87</ele>
        <time>2014-03-19T06:13:58Z</time>
      </trkpt>
      <trkpt lat="42.7714" lon="0.42466">
        <ele>1326.76</ele>
        <time>2014-03-19T06:14:18Z</time>
      </trkpt>
      <trkpt lat="42.77136" lon="0.42475">
        <ele>1328.68</ele>
        <time>2014-03-19T06:14:30Z</time>
      </trkpt>
      <trkpt lat="42.77135" lon="0.42481">
        <ele>1329.16</ele>
        <time>2014-03-19T06:14:36Z</time>
      </trkpt>
      <trkpt lat="42.7714" lon="0.42489">
        <ele>1332.04</ele>
        <time>2014-03-19T06:14:49Z</time>
      </trkpt>
      <trkpt lat="42.7714" lon="0.42495">
        <ele>1334.45</ele>
        <time>2014-03-19T06:14:59Z</time>
      </trkpt>
      <trkpt lat="42.77138" lon="0.42496">
        <ele>1334.45</ele>
        <time>2014-03-19T06:15:24Z</time>
      </trkpt>
      <trkpt lat="42.77139" lon="0.42502">
        <ele>1335.41</ele>
        <time>2014-03-19T06:15:33Z</time>
      </trkpt>
      <trkpt lat="42.77137" lon="0.42513">
        <ele>1337.33</ele>
        <time>2014-03-19T06:15:46Z</time>
      </trkpt>
      <trkpt lat="42.77135" lon="0.42528">
        <ele>1339.73</ele>
        <time>2014-03-19T06:16:00Z</time>
      </trkpt>
      <trkpt lat="42.77133" lon="0.42542">
        <ele>1342.14</ele>
        <time>2014-03-19T06:16:14Z</time>
      </trkpt>
      <trkpt lat="42.77131" lon="0.42553">
        <ele>1345.02</ele>
        <time>2014-03-19T06:16:27Z</time>
      </trkpt>
      <trkpt lat="42.77131" lon="0.42554">
        <ele>1345.02</ele>
        <time>2014-03-19T06:16:28Z</time>
      </trkpt>
      <trkpt lat="42.77128" lon="0.4256">
        <ele>1345.98</ele>
        <time>2014-03-19T06:16:41Z</time>
      </trkpt>
      <trkpt lat="42.77129" lon="0.4256">
        <ele>1346.46</ele>
        <time>2014-03-19T06:16:56Z</time>
      </trkpt>
      <trkpt lat="42.77124" lon="0.42565">
        <ele>1348.87</ele>
        <time>2014-03-19T06:17:07Z</time>
      </trkpt>
      <trkpt lat="42.7712" lon="0.42573">
        <ele>1351.75</ele>
        <time>2014-03-19T06:17:19Z</time>
      </trkpt>
      <trkpt lat="42.7712" lon="0.42582">
        <ele>1354.63</ele>
        <time>2014-03-19T06:17:31Z</time>
      </trkpt>
      <trkpt lat="42.77116" lon="0.42589">
        <ele>1357.52</ele>
        <time>2014-03-19T06:17:43Z</time>
      </trkpt>
      <trkpt lat="42.77108" lon="0.42595">
        <ele>1360.88</ele>
        <time>2014-03-19T06:17:56Z</time>
      </trkpt>
      <trkpt lat="42.77102" lon="0.42601">
        <ele>1363.77</ele>
        <time>2014-03-19T06:18:10Z</time>
      </trkpt>
      <trkpt lat="42.77096" lon="0.42611">
        <ele>1366.65</ele>
        <time>2014-03-19T06:18:27Z</time>
      </trkpt>
      <trkpt lat="42.77089" lon="0.42617">
        <ele>1369.54</ele>
        <time>2014-03-19T06:18:38Z</time>
      </trkpt>
      <trkpt lat="42.77085" lon="0.42619">
        <ele>1370.02</ele>
        <time>2014-03-19T06:18:53Z</time>
      </trkpt>
      <trkpt lat="42.77081" lon="0.42621">
        <ele>1370.02</ele>
        <time>2014-03-19T06:19:14Z</time>
      </trkpt>
      <trkpt lat="42.77084" lon="0.42617">
        <ele>1370.02</ele>
        <time>2014-03-19T06:19:26Z</time>
      </trkpt>
      <trkpt lat="42.77083" lon="0.42618">
        <ele>1369.05</ele>
        <time>2014-03-19T06:19:40Z</time>
      </trkpt>
      <trkpt lat="42.77085" lon="0.42622">
        <ele>1369.54</ele>
        <time>2014-03-19T06:20:11Z</time>
      </trkpt>
      <trkpt lat="42.77086" lon="0.42621">
        <ele>1370.02</ele>
        <time>2014-03-19T06:20:23Z</time>
      </trkpt>
      <trkpt lat="42.77085" lon="0.42621">
        <ele>1370.5</ele>
        <time>2014-03-19T06:20:45Z</time>
      </trkpt>
      <trkpt lat="42.77084" lon="0.42624">
        <ele>1370.98</ele>
        <time>2014-03-19T06:20:51Z</time>
      </trkpt>
      <trkpt lat="42.77082" lon="0.42634">
        <ele>1372.42</ele>
        <time>2014-03-19T06:20:59Z</time>
      </trkpt>
      <trkpt lat="42.7708" lon="0.42651">
        <ele>1373.86</ele>
        <time>2014-03-19T06:21:12Z</time>
      </trkpt>
      <trkpt lat="42.77076" lon="0.42666">
        <ele>1373.86</ele>
        <time>2014-03-19T06:21:25Z</time>
      </trkpt>
      <trkpt lat="42.77074" lon="0.42677">
        <ele>1373.86</ele>
        <time>2014-03-19T06:21:33Z</time>
      </trkpt>
      <trkpt lat="42.77074" lon="0.42683">
        <ele>1374.34</ele>
        <time>2014-03-19T06:21:37Z</time>
      </trkpt>
      <trkpt lat="42.77073" lon="0.42687">
        <ele>1374.82</ele>
        <time>2014-03-19T06:21:41Z</time>
      </trkpt>
      <trkpt lat="42.7707" lon="0.42698">
        <ele>1376.26</ele>
        <time>2014-03-19T06:21:50Z</time>
      </trkpt>
      <trkpt lat="42.7707" lon="0.427">
        <ele>1376.75</ele>
        <time>2014-03-19T06:21:52Z</time>
      </trkpt>
      <trkpt lat="42.7707" lon="0.42706">
        <ele>1376.75</ele>
        <time>2014-03-19T06:21:56Z</time>
      </trkpt>
      <trkpt lat="42.77068" lon="0.42715">
        <ele>1377.71</ele>
        <time>2014-03-19T06:22:02Z</time>
      </trkpt>
      <trkpt lat="42.77065" lon="0.42731">
        <ele>1379.63</ele>
        <time>2014-03-19T06:22:15Z</time>
      </trkpt>
      <trkpt lat="42.77065" lon="0.42732">
        <ele>1379.63</ele>
        <time>2014-03-19T06:22:16Z</time>
      </trkpt>
      <trkpt lat="42.77065" lon="0.42736">
        <ele>1379.63</ele>
        <time>2014-03-19T06:22:19Z</time>
      </trkpt>
      <trkpt lat="42.77065" lon="0.42755">
        <ele>1380.59</ele>
        <time>2014-03-19T06:22:34Z</time>
      </trkpt>
      <trkpt lat="42.77063" lon="0.42775">
        <ele>1380.59</ele>
        <time>2014-03-19T06:22:49Z</time>
      </trkpt>
      <trkpt lat="42.77064" lon="0.42783">
        <ele>1381.07</ele>
        <time>2014-03-19T06:22:54Z</time>
      </trkpt>
      <trkpt lat="42.77066" lon="0.428">
        <ele>1382.51</ele>
        <time>2014-03-19T06:23:06Z</time>
      </trkpt>
      <trkpt lat="42.77068" lon="0.42808">
        <ele>1382.51</ele>
        <time>2014-03-19T06:23:12Z</time>
      </trkpt>
      <trkpt lat="42.7707" lon="0.42828">
        <ele>1382.51</ele>
        <time>2014-03-19T06:23:25Z</time>
      </trkpt>
      <trkpt lat="42.77069" lon="0.42853">
        <ele>1382.03</ele>
        <time>2014-03-19T06:23:41Z</time>
      </trkpt>
      <trkpt lat="42.77068" lon="0.42856">
        <ele>1382.03</ele>
        <time>2014-03-19T06:23:46Z</time>
      </trkpt>
      <trkpt lat="42.77067" lon="0.42862">
        <ele>1382.03</ele>
        <time>2014-03-19T06:23:56Z</time>
      </trkpt>
      <trkpt lat="42.77066" lon="0.4287">
        <ele>1381.55</ele>
        <time>2014-03-19T06:24:01Z</time>
      </trkpt>
      <trkpt lat="42.77063" lon="0.42879">
        <ele>1380.11</ele>
        <time>2014-03-19T06:24:06Z</time>
      </trkpt>
      <trkpt lat="42.77061" lon="0.42883">
        <ele>1379.63</ele>
        <time>2014-03-19T06:24:10Z</time>
      </trkpt>
      <trkpt lat="42.77059" lon="0.42887">
        <ele>1379.15</ele>
        <time>2014-03-19T06:24:14Z</time>
      </trkpt>
      <trkpt lat="42.77058" lon="0.42895">
        <ele>1378.19</ele>
        <time>2014-03-19T06:24:28Z</time>
      </trkpt>
      <trkpt lat="42.77056" lon="0.42903">
        <ele>1377.71</ele>
        <time>2014-03-19T06:24:35Z</time>
      </trkpt>
      <trkpt lat="42.77056" lon="0.42909">
        <ele>1378.19</ele>
        <time>2014-03-19T06:24:48Z</time>
      </trkpt>
      <trkpt lat="42.77056" lon="0.42914">
        <ele>1378.67</ele>
        <time>2014-03-19T06:25:00Z</time>
      </trkpt>
      <trkpt lat="42.77056" lon="0.42916">
        <ele>1378.67</ele>
        <time>2014-03-19T06:25:02Z</time>
      </trkpt>
      <trkpt lat="42.77056" lon="0.4293">
        <ele>1380.59</ele>
        <time>2014-03-19T06:25:14Z</time>
      </trkpt>
      <trkpt lat="42.77058" lon="0.42935">
        <ele>1380.59</ele>
        <time>2014-03-19T06:25:26Z</time>
      </trkpt>
      <trkpt lat="42.77057" lon="0.42938">
        <ele>1380.59</ele>
        <time>2014-03-19T06:25:40Z</time>
      </trkpt>
      <trkpt lat="42.77065" lon="0.4296">
        <ele>1380.59</ele>
        <time>2014-03-19T06:25:56Z</time>
      </trkpt>
      <trkpt lat="42.77069" lon="0.42976">
        <ele>1381.07</ele>
        <time>2014-03-19T06:26:08Z</time>
      </trkpt>
      <trkpt lat="42.77072" lon="0.42988">
        <ele>1382.03</ele>
        <time>2014-03-19T06:26:21Z</time>
      </trkpt>
      <trkpt lat="42.77073" lon="0.42991">
        <ele>1382.03</ele>
        <time>2014-03-19T06:26:24Z</time>
      </trkpt>
      <trkpt lat="42.77073" lon="0.42998">
        <ele>1382.99</ele>
        <time>2014-03-19T06:26:30Z</time>
      </trkpt>
      <trkpt lat="42.77074" lon="0.42999">
        <ele>1382.99</ele>
        <time>2014-03-19T06:26:31Z</time>
      </trkpt>
      <trkpt lat="42.77074" lon="0.43002">
        <ele>1383.47</ele>
        <time>2014-03-19T06:26:32Z</time>
      </trkpt>
      <trkpt lat="42.77074" lon="0.43009">
        <ele>1384.44</ele>
        <time>2014-03-19T06:26:39Z</time>
      </trkpt>
      <trkpt lat="42.77073" lon="0.43017">
        <ele>1384.92</ele>
        <time>2014-03-19T06:26:44Z</time>
      </trkpt>
      <trkpt lat="42.77072" lon="0.43026">
        <ele>1385.4</ele>
        <time>2014-03-19T06:26:51Z</time>
      </trkpt>
      <trkpt lat="42.77073" lon="0.43043">
        <ele>1385.4</ele>
        <time>2014-03-19T06:27:02Z</time>
      </trkpt>
      <trkpt lat="42.77076" lon="0.43047">
        <ele>1384.92</ele>
        <time>2014-03-19T06:27:05Z</time>
      </trkpt>
      <trkpt lat="42.7708" lon="0.43059">
        <ele>1383.47</ele>
        <time>2014-03-19T06:27:13Z</time>
      </trkpt>
      <trkpt lat="42.77081" lon="0.43063">
        <ele>1383.47</ele>
        <time>2014-03-19T06:27:15Z</time>
      </trkpt>
      <trkpt lat="42.77083" lon="0.43086">
        <ele>1383.96</ele>
        <time>2014-03-19T06:27:29Z</time>
      </trkpt>
      <trkpt lat="42.77084" lon="0.43102">
        <ele>1385.88</ele>
        <time>2014-03-19T06:27:43Z</time>
      </trkpt>
      <trkpt lat="42.77085" lon="0.43113">
        <ele>1387.32</ele>
        <time>2014-03-19T06:27:51Z</time>
      </trkpt>
      <trkpt lat="42.77087" lon="0.43129">
        <ele>1389.24</ele>
        <time>2014-03-19T06:28:06Z</time>
      </trkpt>
      <trkpt lat="42.77089" lon="0.43134">
        <ele>1390.2</ele>
        <time>2014-03-19T06:28:11Z</time>
      </trkpt>
      <trkpt lat="42.7709" lon="0.43148">
        <ele>1392.61</ele>
        <time>2014-03-19T06:28:24Z</time>
      </trkpt>
      <trkpt lat="42.77087" lon="0.43158">
        <ele>1395.97</ele>
        <time>2014-03-19T06:28:38Z</time>
      </trkpt>
      <trkpt lat="42.7709" lon="0.43166">
        <ele>1397.89</ele>
        <time>2014-03-19T06:28:48Z</time>
      </trkpt>
      <trkpt lat="42.77088" lon="0.4318">
        <ele>1400.3</ele>
        <time>2014-03-19T06:29:02Z</time>
      </trkpt>
      <trkpt lat="42.77096" lon="0.4319">
        <ele>1402.7</ele>
        <time>2014-03-19T06:29:14Z</time>
      </trkpt>
      <trkpt lat="42.77101" lon="0.43204">
        <ele>1405.58</ele>
        <time>2014-03-19T06:29:28Z</time>
      </trkpt>
      <trkpt lat="42.77103" lon="0.43212">
        <ele>1407.99</ele>
        <time>2014-03-19T06:29:40Z</time>
      </trkpt>
      <trkpt lat="42.771" lon="0.43229">
        <ele>1410.87</ele>
        <time>2014-03-19T06:29:55Z</time>
      </trkpt>
      <trkpt lat="42.77096" lon="0.43243">
        <ele>1411.83</ele>
        <time>2014-03-19T06:30:07Z</time>
      </trkpt>
      <trkpt lat="42.77091" lon="0.43252">
        <ele>1414.24</ele>
        <time>2014-03-19T06:30:21Z</time>
      </trkpt>
      <trkpt lat="42.77082" lon="0.4326">
        <ele>1417.12</ele>
        <time>2014-03-19T06:30:37Z</time>
      </trkpt>
      <trkpt lat="42.77074" lon="0.43268">
        <ele>1419.52</ele>
        <time>2014-03-19T06:30:51Z</time>
      </trkpt>
      <trkpt lat="42.77062" lon="0.43277">
        <ele>1422.41</ele>
        <time>2014-03-19T06:31:06Z</time>
      </trkpt>
      <trkpt lat="42.77057" lon="0.43288">
        <ele>1422.89</ele>
        <time>2014-03-19T06:31:18Z</time>
      </trkpt>
      <trkpt lat="42.77054" lon="0.43288">
        <ele>1422.89</ele>
        <time>2014-03-19T06:31:29Z</time>
      </trkpt>
      <trkpt lat="42.77053" lon="0.43291">
        <ele>1422.89</ele>
        <time>2014-03-19T06:31:43Z</time>
      </trkpt>
      <trkpt lat="42.77052" lon="0.43295">
        <ele>1423.37</ele>
        <time>2014-03-19T06:31:49Z</time>
      </trkpt>
      <trkpt lat="42.7705" lon="0.433">
        <ele>1424.33</ele>
        <time>2014-03-19T06:31:54Z</time>
      </trkpt>
      <trkpt lat="42.77049" lon="0.43316">
        <ele>1425.77</ele>
        <time>2014-03-19T06:32:06Z</time>
      </trkpt>
      <trkpt lat="42.77047" lon="0.4332">
        <ele>1426.73</ele>
        <time>2014-03-19T06:32:10Z</time>
      </trkpt>
      <trkpt lat="42.77044" lon="0.43326">
        <ele>1427.7</ele>
        <time>2014-03-19T06:32:17Z</time>
      </trkpt>
      <trkpt lat="42.77043" lon="0.43342">
        <ele>1429.62</ele>
        <time>2014-03-19T06:32:29Z</time>
      </trkpt>
      <trkpt lat="42.77041" lon="0.43357">
        <ele>1431.54</ele>
        <time>2014-03-19T06:32:43Z</time>
      </trkpt>
      <trkpt lat="42.77039" lon="0.43368">
        <ele>1433.46</ele>
        <time>2014-03-19T06:32:53Z</time>
      </trkpt>
      <trkpt lat="42.77036" lon="0.43375">
        <ele>1433.46</ele>
        <time>2014-03-19T06:33:08Z</time>
      </trkpt>
      <trkpt lat="42.77032" lon="0.43389">
        <ele>1435.39</ele>
        <time>2014-03-19T06:33:21Z</time>
      </trkpt>
      <trkpt lat="42.77027" lon="0.43404">
        <ele>1437.31</ele>
        <time>2014-03-19T06:33:36Z</time>
      </trkpt>
      <trkpt lat="42.77025" lon="0.4341">
        <ele>1438.75</ele>
        <time>2014-03-19T06:33:43Z</time>
      </trkpt>
      <trkpt lat="42.7702" lon="0.43426">
        <ele>1440.67</ele>
        <time>2014-03-19T06:33:58Z</time>
      </trkpt>
      <trkpt lat="42.77019" lon="0.43438">
        <ele>1441.15</ele>
        <time>2014-03-19T06:34:07Z</time>
      </trkpt>
      <trkpt lat="42.77014" lon="0.43455">
        <ele>1441.15</ele>
        <time>2014-03-19T06:34:22Z</time>
      </trkpt>
      <trkpt lat="42.77012" lon="0.4346">
        <ele>1441.63</ele>
        <time>2014-03-19T06:34:34Z</time>
      </trkpt>
      <trkpt lat="42.77013" lon="0.43461">
        <ele>1441.15</ele>
        <time>2014-03-19T06:34:49Z</time>
      </trkpt>
      <trkpt lat="42.77013" lon="0.43464">
        <ele>1440.67</ele>
        <time>2014-03-19T06:34:58Z</time>
      </trkpt>
      <trkpt lat="42.77011" lon="0.43467">
        <ele>1440.67</ele>
        <time>2014-03-19T06:35:01Z</time>
      </trkpt>
      <trkpt lat="42.77009" lon="0.43468">
        <ele>1440.67</ele>
        <time>2014-03-19T06:35:13Z</time>
      </trkpt>
      <trkpt lat="42.77008" lon="0.43471">
        <ele>1441.15</ele>
        <time>2014-03-19T06:35:24Z</time>
      </trkpt>
      <trkpt lat="42.77005" lon="0.43475">
        <ele>1441.63</ele>
        <time>2014-03-19T06:35:31Z</time>
      </trkpt>
      <trkpt lat="42.76996" lon="0.43487">
        <ele>1442.11</ele>
        <time>2014-03-19T06:35:43Z</time>
      </trkpt>
      <trkpt lat="42.76983" lon="0.43505">
        <ele>1442.11</ele>
        <time>2014-03-19T06:35:58Z</time>
      </trkpt>
      <trkpt lat="42.76981" lon="0.43507">
        <ele>1442.6</ele>
        <time>2014-03-19T06:36:00Z</time>
      </trkpt>
      <trkpt lat="42.76973" lon="0.43517">
        <ele>1445</ele>
        <time>2014-03-19T06:36:13Z</time>
      </trkpt>
      <trkpt lat="42.76969" lon="0.43529">
        <ele>1445.48</ele>
        <time>2014-03-19T06:36:22Z</time>
      </trkpt>
      <trkpt lat="42.76967" lon="0.43532">
        <ele>1445.96</ele>
        <time>2014-03-19T06:36:25Z</time>
      </trkpt>
      <trkpt lat="42.76967" lon="0.43541">
        <ele>1445.96</ele>
        <time>2014-03-19T06:36:31Z</time>
      </trkpt>
      <trkpt lat="42.76965" lon="0.4356">
        <ele>1447.4</ele>
        <time>2014-03-19T06:36:45Z</time>
      </trkpt>
      <trkpt lat="42.76961" lon="0.43572">
        <ele>1448.36</ele>
        <time>2014-03-19T06:36:56Z</time>
      </trkpt>
      <trkpt lat="42.76956" lon="0.43589">
        <ele>1448.84</ele>
        <time>2014-03-19T06:37:10Z</time>
      </trkpt>
      <trkpt lat="42.76956" lon="0.43592">
        <ele>1448.84</ele>
        <time>2014-03-19T06:37:13Z</time>
      </trkpt>
      <trkpt lat="42.76959" lon="0.4361">
        <ele>1449.32</ele>
        <time>2014-03-19T06:37:28Z</time>
      </trkpt>
      <trkpt lat="42.76961" lon="0.43619">
        <ele>1450.29</ele>
        <time>2014-03-19T06:37:36Z</time>
      </trkpt>
      <trkpt lat="42.76961" lon="0.43629">
        <ele>1452.69</ele>
        <time>2014-03-19T06:37:48Z</time>
      </trkpt>
      <trkpt lat="42.76959" lon="0.43634">
        <ele>1453.65</ele>
        <time>2014-03-19T06:37:58Z</time>
      </trkpt>
      <trkpt lat="42.7696" lon="0.43636">
        <ele>1454.13</ele>
        <time>2014-03-19T06:38:12Z</time>
      </trkpt>
      <trkpt lat="42.76959" lon="0.43636">
        <ele>1454.13</ele>
        <time>2014-03-19T06:38:25Z</time>
      </trkpt>
      <trkpt lat="42.7696" lon="0.43644">
        <ele>1455.09</ele>
        <time>2014-03-19T06:38:39Z</time>
      </trkpt>
      <trkpt lat="42.7696" lon="0.43651">
        <ele>1457.98</ele>
        <time>2014-03-19T06:38:53Z</time>
      </trkpt>
      <trkpt lat="42.76956" lon="0.43657">
        <ele>1460.86</ele>
        <time>2014-03-19T06:39:05Z</time>
      </trkpt>
      <trkpt lat="42.76957" lon="0.43658">
        <ele>1461.82</ele>
        <time>2014-03-19T06:39:08Z</time>
      </trkpt>
      <trkpt lat="42.7696" lon="0.43674">
        <ele>1463.74</ele>
        <time>2014-03-19T06:39:22Z</time>
      </trkpt>
      <trkpt lat="42.76952" lon="0.43679">
        <ele>1466.63</ele>
        <time>2014-03-19T06:39:35Z</time>
      </trkpt>
      <trkpt lat="42.76947" lon="0.43684">
        <ele>1468.55</ele>
        <time>2014-03-19T06:39:47Z</time>
      </trkpt>
      <trkpt lat="42.76944" lon="0.43698">
        <ele>1470.47</ele>
        <time>2014-03-19T06:39:59Z</time>
      </trkpt>
      <trkpt lat="42.76943" lon="0.43709">
        <ele>1472.88</ele>
        <time>2014-03-19T06:40:12Z</time>
      </trkpt>
      <trkpt lat="42.76945" lon="0.43714">
        <ele>1474.8</ele>
        <time>2014-03-19T06:40:24Z</time>
      </trkpt>
      <trkpt lat="42.76945" lon="0.43721">
        <ele>1477.2</ele>
        <time>2014-03-19T06:40:39Z</time>
      </trkpt>
      <trkpt lat="42.76947" lon="0.43723">
        <ele>1479.13</ele>
        <time>2014-03-19T06:40:52Z</time>
      </trkpt>
      <trkpt lat="42.76945" lon="0.43729">
        <ele>1481.05</ele>
        <time>2014-03-19T06:41:07Z</time>
      </trkpt>
      <trkpt lat="42.76941" lon="0.43738">
        <ele>1483.93</ele>
        <time>2014-03-19T06:41:21Z</time>
      </trkpt>
      <trkpt lat="42.76941" lon="0.43743">
        <ele>1485.85</ele>
        <time>2014-03-19T06:41:33Z</time>
      </trkpt>
      <trkpt lat="42.76942" lon="0.4375">
        <ele>1488.26</ele>
        <time>2014-03-19T06:41:44Z</time>
      </trkpt>
      <trkpt lat="42.76942" lon="0.43755">
        <ele>1489.7</ele>
        <time>2014-03-19T06:41:57Z</time>
      </trkpt>
      <trkpt lat="42.76945" lon="0.4376">
        <ele>1492.58</ele>
        <time>2014-03-19T06:42:13Z</time>
      </trkpt>
      <trkpt lat="42.76947" lon="0.43764">
        <ele>1493.55</ele>
        <time>2014-03-19T06:42:26Z</time>
      </trkpt>
      <trkpt lat="42.76944" lon="0.43771">
        <ele>1496.43</ele>
        <time>2014-03-19T06:42:41Z</time>
      </trkpt>
      <trkpt lat="42.76941" lon="0.43776">
        <ele>1497.87</ele>
        <time>2014-03-19T06:42:56Z</time>
      </trkpt>
      <trkpt lat="42.76939" lon="0.43784">
        <ele>1499.31</ele>
        <time>2014-03-19T06:43:13Z</time>
      </trkpt>
      <trkpt lat="42.76939" lon="0.43789">
        <ele>1500.76</ele>
        <time>2014-03-19T06:43:28Z</time>
      </trkpt>
      <trkpt lat="42.76943" lon="0.438">
        <ele>1502.2</ele>
        <time>2014-03-19T06:43:41Z</time>
      </trkpt>
      <trkpt lat="42.76945" lon="0.43812">
        <ele>1503.64</ele>
        <time>2014-03-19T06:43:53Z</time>
      </trkpt>
      <trkpt lat="42.76945" lon="0.43816">
        <ele>1504.6</ele>
        <time>2014-03-19T06:43:58Z</time>
      </trkpt>
      <trkpt lat="42.76941" lon="0.43837">
        <ele>1504.12</ele>
        <time>2014-03-19T06:44:13Z</time>
      </trkpt>
      <trkpt lat="42.76939" lon="0.43848">
        <ele>1504.12</ele>
        <time>2014-03-19T06:44:24Z</time>
      </trkpt>
      <trkpt lat="42.76928" lon="0.4386">
        <ele>1500.76</ele>
        <time>2014-03-19T06:44:36Z</time>
      </trkpt>
      <trkpt lat="42.76927" lon="0.43861">
        <ele>1500.76</ele>
        <time>2014-03-19T06:44:37Z</time>
      </trkpt>
      <trkpt lat="42.76917" lon="0.43868">
        <ele>1500.27</ele>
        <time>2014-03-19T06:44:50Z</time>
      </trkpt>
      <trkpt lat="42.76915" lon="0.43872">
        <ele>1500.76</ele>
        <time>2014-03-19T06:45:07Z</time>
      </trkpt>
      <trkpt lat="42.76913" lon="0.4387">
        <ele>1498.83</ele>
        <time>2014-03-19T06:45:21Z</time>
      </trkpt>
      <trkpt lat="42.7691" lon="0.43867">
        <ele>1498.83</ele>
        <time>2014-03-19T06:45:54Z</time>
      </trkpt>
      <trkpt lat="42.76908" lon="0.43871">
        <ele>1498.83</ele>
        <time>2014-03-19T06:46:17Z</time>
      </trkpt>
      <trkpt lat="42.76907" lon="0.43872">
        <ele>1498.83</ele>
        <time>2014-03-19T06:46:34Z</time>
      </trkpt>
      <trkpt lat="42.76909" lon="0.43875">
        <ele>1499.31</ele>
        <time>2014-03-19T06:47:00Z</time>
      </trkpt>
      <trkpt lat="42.76913" lon="0.43875">
        <ele>1500.27</ele>
        <time>2014-03-19T06:47:12Z</time>
      </trkpt>
      <trkpt lat="42.76913" lon="0.43872">
        <ele>1500.76</ele>
        <time>2014-03-19T06:47:26Z</time>
      </trkpt>
      <trkpt lat="42.76913" lon="0.43871">
        <ele>1500.76</ele>
        <time>2014-03-19T06:47:41Z</time>
      </trkpt>
      <trkpt lat="42.76909" lon="0.4387">
        <ele>1501.72</ele>
        <time>2014-03-19T06:47:51Z</time>
      </trkpt>
      <trkpt lat="42.76906" lon="0.4387">
        <ele>1502.68</ele>
        <time>2014-03-19T06:48:01Z</time>
      </trkpt>
      <trkpt lat="42.76905" lon="0.4387">
        <ele>1503.16</ele>
        <time>2014-03-19T06:48:05Z</time>
      </trkpt>
      <trkpt lat="42.76899" lon="0.43872">
        <ele>1504.6</ele>
        <time>2014-03-19T06:48:13Z</time>
      </trkpt>
      <trkpt lat="42.76889" lon="0.43879">
        <ele>1506.52</ele>
        <time>2014-03-19T06:48:25Z</time>
      </trkpt>
      <trkpt lat="42.76877" lon="0.43887">
        <ele>1507</ele>
        <time>2014-03-19T06:48:37Z</time>
      </trkpt>
      <trkpt lat="42.76874" lon="0.43892">
        <ele>1507</ele>
        <time>2014-03-19T06:48:41Z</time>
      </trkpt>
      <trkpt lat="42.76864" lon="0.43902">
        <ele>1506.52</ele>
        <time>2014-03-19T06:48:56Z</time>
      </trkpt>
      <trkpt lat="42.76861" lon="0.43903">
        <ele>1506.52</ele>
        <time>2014-03-19T06:49:07Z</time>
      </trkpt>
      <trkpt lat="42.76855" lon="0.43912">
        <ele>1506.52</ele>
        <time>2014-03-19T06:49:20Z</time>
      </trkpt>
      <trkpt lat="42.76854" lon="0.43914">
        <ele>1506.04</ele>
        <time>2014-03-19T06:49:29Z</time>
      </trkpt>
      <trkpt lat="42.76852" lon="0.43915">
        <ele>1507</ele>
        <time>2014-03-19T06:49:32Z</time>
      </trkpt>
      <trkpt lat="42.76843" lon="0.4392">
        <ele>1507.97</ele>
        <time>2014-03-19T06:49:46Z</time>
      </trkpt>
      <trkpt lat="42.76838" lon="0.43921">
        <ele>1509.41</ele>
        <time>2014-03-19T06:49:59Z</time>
      </trkpt>
      <trkpt lat="42.76829" lon="0.43923">
        <ele>1511.81</ele>
        <time>2014-03-19T06:50:11Z</time>
      </trkpt>
      <trkpt lat="42.76819" lon="0.43925">
        <ele>1514.69</ele>
        <time>2014-03-19T06:50:25Z</time>
      </trkpt>
      <trkpt lat="42.76812" lon="0.4393">
        <ele>1516.62</ele>
        <time>2014-03-19T06:50:38Z</time>
      </trkpt>
      <trkpt lat="42.76804" lon="0.43936">
        <ele>1519.5</ele>
        <time>2014-03-19T06:50:50Z</time>
      </trkpt>
      <trkpt lat="42.76803" lon="0.43938">
        <ele>1519.98</ele>
        <time>2014-03-19T06:50:53Z</time>
      </trkpt>
      <trkpt lat="42.76797" lon="0.43951">
        <ele>1522.39</ele>
        <time>2014-03-19T06:51:08Z</time>
      </trkpt>
      <trkpt lat="42.76792" lon="0.43953">
        <ele>1523.35</ele>
        <time>2014-03-19T06:51:16Z</time>
      </trkpt>
      <trkpt lat="42.76785" lon="0.43954">
        <ele>1524.31</ele>
        <time>2014-03-19T06:51:26Z</time>
      </trkpt>
      <trkpt lat="42.76777" lon="0.43947">
        <ele>1526.71</ele>
        <time>2014-03-19T06:51:39Z</time>
      </trkpt>
      <trkpt lat="42.76772" lon="0.43944">
        <ele>1529.59</ele>
        <time>2014-03-19T06:51:50Z</time>
      </trkpt>
      <trkpt lat="42.76762" lon="0.4395">
        <ele>1532</ele>
        <time>2014-03-19T06:52:03Z</time>
      </trkpt>
      <trkpt lat="42.76754" lon="0.43955">
        <ele>1533.44</ele>
        <time>2014-03-19T06:52:16Z</time>
      </trkpt>
      <trkpt lat="42.7675" lon="0.43956">
        <ele>1534.4</ele>
        <time>2014-03-19T06:52:21Z</time>
      </trkpt>
      <trkpt lat="42.76742" lon="0.43957">
        <ele>1537.29</ele>
        <time>2014-03-19T06:52:35Z</time>
      </trkpt>
      <trkpt lat="42.76735" lon="0.43961">
        <ele>1539.69</ele>
        <time>2014-03-19T06:52:46Z</time>
      </trkpt>
      <trkpt lat="42.7673" lon="0.43966">
        <ele>1542.09</ele>
        <time>2014-03-19T06:52:58Z</time>
      </trkpt>
      <trkpt lat="42.76724" lon="0.43973">
        <ele>1544.98</ele>
        <time>2014-03-19T06:53:10Z</time>
      </trkpt>
      <trkpt lat="42.76721" lon="0.43979">
        <ele>1545.94</ele>
        <time>2014-03-19T06:53:17Z</time>
      </trkpt>
      <trkpt lat="42.76714" lon="0.43987">
        <ele>1547.86</ele>
        <time>2014-03-19T06:53:28Z</time>
      </trkpt>
      <trkpt lat="42.76706" lon="0.43997">
        <ele>1548.82</ele>
        <time>2014-03-19T06:53:41Z</time>
      </trkpt>
      <trkpt lat="42.76703" lon="0.43999">
        <ele>1549.3</ele>
        <time>2014-03-19T06:53:44Z</time>
      </trkpt>
      <trkpt lat="42.767" lon="0.44">
        <ele>1549.78</ele>
        <time>2014-03-19T06:53:48Z</time>
      </trkpt>
      <trkpt lat="42.76686" lon="0.44015">
        <ele>1550.26</ele>
        <time>2014-03-19T06:54:04Z</time>
      </trkpt>
      <trkpt lat="42.76683" lon="0.4402">
        <ele>1549.78</ele>
        <time>2014-03-19T06:54:18Z</time>
      </trkpt>
      <trkpt lat="42.7667" lon="0.44033">
        <ele>1549.78</ele>
        <time>2014-03-19T06:54:31Z</time>
      </trkpt>
      <trkpt lat="42.7666" lon="0.44042">
        <ele>1548.82</ele>
        <time>2014-03-19T06:54:43Z</time>
      </trkpt>
      <trkpt lat="42.76642" lon="0.44049">
        <ele>1545.94</ele>
        <time>2014-03-19T06:54:58Z</time>
      </trkpt>
      <trkpt lat="42.76639" lon="0.4405">
        <ele>1545.46</ele>
        <time>2014-03-19T06:55:00Z</time>
      </trkpt>
      <trkpt lat="42.76626" lon="0.4405">
        <ele>1545.94</ele>
        <time>2014-03-19T06:55:13Z</time>
      </trkpt>
      <trkpt lat="42.76622" lon="0.44049">
        <ele>1547.38</ele>
        <time>2014-03-19T06:55:26Z</time>
      </trkpt>
      <trkpt lat="42.76621" lon="0.44049">
        <ele>1547.38</ele>
        <time>2014-03-19T06:55:30Z</time>
      </trkpt>
      <trkpt lat="42.76612" lon="0.44047">
        <ele>1549.78</ele>
        <time>2014-03-19T06:55:42Z</time>
      </trkpt>
      <trkpt lat="42.7661" lon="0.44046">
        <ele>1550.26</ele>
        <time>2014-03-19T06:55:46Z</time>
      </trkpt>
      <trkpt lat="42.76603" lon="0.44043">
        <ele>1552.67</ele>
        <time>2014-03-19T06:55:59Z</time>
      </trkpt>
      <trkpt lat="42.76604" lon="0.44039">
        <ele>1553.63</ele>
        <time>2014-03-19T06:56:04Z</time>
      </trkpt>
      <trkpt lat="42.7661" lon="0.44031">
        <ele>1556.51</ele>
        <time>2014-03-19T06:56:19Z</time>
      </trkpt>
      <trkpt lat="42.76613" lon="0.44027">
        <ele>1558.92</ele>
        <time>2014-03-19T06:56:30Z</time>
      </trkpt>
      <trkpt lat="42.76606" lon="0.44024">
        <ele>1560.36</ele>
        <time>2014-03-19T06:56:40Z</time>
      </trkpt>
      <trkpt lat="42.76599" lon="0.44022">
        <ele>1562.76</ele>
        <time>2014-03-19T06:56:54Z</time>
      </trkpt>
      <trkpt lat="42.76596" lon="0.44022">
        <ele>1564.2</ele>
        <time>2014-03-19T06:57:04Z</time>
      </trkpt>
      <trkpt lat="42.76598" lon="0.44016">
        <ele>1565.64</ele>
        <time>2014-03-19T06:57:14Z</time>
      </trkpt>
      <trkpt lat="42.766" lon="0.44015">
        <ele>1566.12</ele>
        <time>2014-03-19T06:57:17Z</time>
      </trkpt>
      <trkpt lat="42.76601" lon="0.4401">
        <ele>1567.57</ele>
        <time>2014-03-19T06:57:27Z</time>
      </trkpt>
      <trkpt lat="42.76597" lon="0.44013">
        <ele>1569.01</ele>
        <time>2014-03-19T06:57:36Z</time>
      </trkpt>
      <trkpt lat="42.76588" lon="0.44016">
        <ele>1570.93</ele>
        <time>2014-03-19T06:57:52Z</time>
      </trkpt>
      <trkpt lat="42.76579" lon="0.44022">
        <ele>1572.37</ele>
        <time>2014-03-19T06:58:06Z</time>
      </trkpt>
      <trkpt lat="42.7657" lon="0.44025">
        <ele>1574.3</ele>
        <time>2014-03-19T06:58:21Z</time>
      </trkpt>
      <trkpt lat="42.76562" lon="0.44028">
        <ele>1576.7</ele>
        <time>2014-03-19T06:58:33Z</time>
      </trkpt>
      <trkpt lat="42.7656" lon="0.44029">
        <ele>1577.18</ele>
        <time>2014-03-19T06:58:48Z</time>
      </trkpt>
      <trkpt lat="42.76559" lon="0.44034">
        <ele>1577.66</ele>
        <time>2014-03-19T06:59:01Z</time>
      </trkpt>
      <trkpt lat="42.76558" lon="0.44033">
        <ele>1578.62</ele>
        <time>2014-03-19T06:59:07Z</time>
      </trkpt>
      <trkpt lat="42.76555" lon="0.44035">
        <ele>1579.1</ele>
        <time>2014-03-19T06:59:17Z</time>
      </trkpt>
      <trkpt lat="42.76554" lon="0.44038">
        <ele>1579.58</ele>
        <time>2014-03-19T06:59:27Z</time>
      </trkpt>
      <trkpt lat="42.76551" lon="0.44039">
        <ele>1580.54</ele>
        <time>2014-03-19T06:59:39Z</time>
      </trkpt>
      <trkpt lat="42.76548" lon="0.44041">
        <ele>1581.51</ele>
        <time>2014-03-19T06:59:50Z</time>
      </trkpt>
      <trkpt lat="42.76541" lon="0.44046">
        <ele>1582.47</ele>
        <time>2014-03-19T07:00:02Z</time>
      </trkpt>
      <trkpt lat="42.76538" lon="0.4405">
        <ele>1582.95</ele>
        <time>2014-03-19T07:00:07Z</time>
      </trkpt>
      <trkpt lat="42.76529" lon="0.44062">
        <ele>1584.39</ele>
        <time>2014-03-19T07:00:21Z</time>
      </trkpt>
      <trkpt lat="42.76522" lon="0.44072">
        <ele>1586.31</ele>
        <time>2014-03-19T07:00:34Z</time>
      </trkpt>
      <trkpt lat="42.76515" lon="0.44078">
        <ele>1587.75</ele>
        <time>2014-03-19T07:00:47Z</time>
      </trkpt>
      <trkpt lat="42.76507" lon="0.44082">
        <ele>1589.2</ele>
        <time>2014-03-19T07:01:01Z</time>
      </trkpt>
      <trkpt lat="42.76508" lon="0.44087">
        <ele>1588.24</ele>
        <time>2014-03-19T07:01:11Z</time>
      </trkpt>
      <trkpt lat="42.765" lon="0.44094">
        <ele>1587.75</ele>
        <time>2014-03-19T07:01:24Z</time>
      </trkpt>
      <trkpt lat="42.76489" lon="0.44099">
        <ele>1588.72</ele>
        <time>2014-03-19T07:01:38Z</time>
      </trkpt>
      <trkpt lat="42.76487" lon="0.44102">
        <ele>1588.72</ele>
        <time>2014-03-19T07:01:41Z</time>
      </trkpt>
      <trkpt lat="42.76476" lon="0.44108">
        <ele>1589.2</ele>
        <time>2014-03-19T07:01:55Z</time>
      </trkpt>
      <trkpt lat="42.76467" lon="0.44113">
        <ele>1591.12</ele>
        <time>2014-03-19T07:02:08Z</time>
      </trkpt>
      <trkpt lat="42.76465" lon="0.44114">
        <ele>1591.12</ele>
        <time>2014-03-19T07:02:10Z</time>
      </trkpt>
      <trkpt lat="42.7646" lon="0.44121">
        <ele>1592.08</ele>
        <time>2014-03-19T07:02:20Z</time>
      </trkpt>
      <trkpt lat="42.76452" lon="0.44129">
        <ele>1593.04</ele>
        <time>2014-03-19T07:02:33Z</time>
      </trkpt>
      <trkpt lat="42.76443" lon="0.44137">
        <ele>1594.48</ele>
        <time>2014-03-19T07:02:46Z</time>
      </trkpt>
      <trkpt lat="42.76435" lon="0.44143">
        <ele>1596.41</ele>
        <time>2014-03-19T07:02:57Z</time>
      </trkpt>
      <trkpt lat="42.76428" lon="0.44151">
        <ele>1597.85</ele>
        <time>2014-03-19T07:03:09Z</time>
      </trkpt>
      <trkpt lat="42.76422" lon="0.4416">
        <ele>1599.29</ele>
        <time>2014-03-19T07:03:22Z</time>
      </trkpt>
      <trkpt lat="42.76417" lon="0.44168">
        <ele>1600.25</ele>
        <time>2014-03-19T07:03:33Z</time>
      </trkpt>
      <trkpt lat="42.76412" lon="0.44178">
        <ele>1601.21</ele>
        <time>2014-03-19T07:03:44Z</time>
      </trkpt>
      <trkpt lat="42.76409" lon="0.44189">
        <ele>1602.66</ele>
        <time>2014-03-19T07:03:58Z</time>
      </trkpt>
      <trkpt lat="42.76408" lon="0.44194">
        <ele>1603.62</ele>
        <time>2014-03-19T07:04:05Z</time>
      </trkpt>
      <trkpt lat="42.764" lon="0.44198">
        <ele>1605.54</ele>
        <time>2014-03-19T07:04:18Z</time>
      </trkpt>
      <trkpt lat="42.76392" lon="0.442">
        <ele>1606.98</ele>
        <time>2014-03-19T07:04:31Z</time>
      </trkpt>
      <trkpt lat="42.76386" lon="0.44198">
        <ele>1607.94</ele>
        <time>2014-03-19T07:04:39Z</time>
      </trkpt>
      <trkpt lat="42.76376" lon="0.44197">
        <ele>1610.35</ele>
        <time>2014-03-19T07:04:53Z</time>
      </trkpt>
      <trkpt lat="42.76366" lon="0.44196">
        <ele>1611.31</ele>
        <time>2014-03-19T07:05:05Z</time>
      </trkpt>
      <trkpt lat="42.76354" lon="0.44196">
        <ele>1612.27</ele>
        <time>2014-03-19T07:05:19Z</time>
      </trkpt>
      <trkpt lat="42.76343" lon="0.44198">
        <ele>1614.19</ele>
        <time>2014-03-19T07:05:33Z</time>
      </trkpt>
      <trkpt lat="42.76331" lon="0.44202">
        <ele>1615.15</ele>
        <time>2014-03-19T07:05:47Z</time>
      </trkpt>
      <trkpt lat="42.76321" lon="0.44207">
        <ele>1616.59</ele>
        <time>2014-03-19T07:06:00Z</time>
      </trkpt>
      <trkpt lat="42.76311" lon="0.44211">
        <ele>1618.52</ele>
        <time>2014-03-19T07:06:14Z</time>
      </trkpt>
      <trkpt lat="42.76301" lon="0.44216">
        <ele>1619.96</ele>
        <time>2014-03-19T07:06:27Z</time>
      </trkpt>
      <trkpt lat="42.76294" lon="0.44223">
        <ele>1621.88</ele>
        <time>2014-03-19T07:06:41Z</time>
      </trkpt>
      <trkpt lat="42.76286" lon="0.4423">
        <ele>1623.32</ele>
        <time>2014-03-19T07:06:55Z</time>
      </trkpt>
      <trkpt lat="42.7628" lon="0.44238">
        <ele>1625.73</ele>
        <time>2014-03-19T07:07:07Z</time>
      </trkpt>
      <trkpt lat="42.76276" lon="0.44242">
        <ele>1626.69</ele>
        <time>2014-03-19T07:07:15Z</time>
      </trkpt>
      <trkpt lat="42.76269" lon="0.44252">
        <ele>1628.61</ele>
        <time>2014-03-19T07:07:29Z</time>
      </trkpt>
      <trkpt lat="42.76263" lon="0.44258">
        <ele>1631.01</ele>
        <time>2014-03-19T07:07:41Z</time>
      </trkpt>
      <trkpt lat="42.76255" lon="0.44265">
        <ele>1633.9</ele>
        <time>2014-03-19T07:07:55Z</time>
      </trkpt>
      <trkpt lat="42.76248" lon="0.44271">
        <ele>1635.82</ele>
        <time>2014-03-19T07:08:07Z</time>
      </trkpt>
      <trkpt lat="42.76245" lon="0.44276">
        <ele>1636.78</ele>
        <time>2014-03-19T07:08:21Z</time>
      </trkpt>
      <trkpt lat="42.76245" lon="0.44275">
        <ele>1636.78</ele>
        <time>2014-03-19T07:08:55Z</time>
      </trkpt>
      <trkpt lat="42.76242" lon="0.44274">
        <ele>1637.26</ele>
        <time>2014-03-19T07:09:19Z</time>
      </trkpt>
      <trkpt lat="42.76243" lon="0.44276">
        <ele>1637.26</ele>
        <time>2014-03-19T07:09:43Z</time>
      </trkpt>
      <trkpt lat="42.76238" lon="0.44274">
        <ele>1637.74</ele>
        <time>2014-03-19T07:10:01Z</time>
      </trkpt>
      <trkpt lat="42.76233" lon="0.44271">
        <ele>1639.19</ele>
        <time>2014-03-19T07:10:14Z</time>
      </trkpt>
      <trkpt lat="42.76227" lon="0.44267">
        <ele>1640.63</ele>
        <time>2014-03-19T07:10:30Z</time>
      </trkpt>
      <trkpt lat="42.76225" lon="0.44267">
        <ele>1641.11</ele>
        <time>2014-03-19T07:10:46Z</time>
      </trkpt>
      <trkpt lat="42.76217" lon="0.44265">
        <ele>1643.51</ele>
        <time>2014-03-19T07:11:04Z</time>
      </trkpt>
      <trkpt lat="42.76212" lon="0.44264">
        <ele>1644.95</ele>
        <time>2014-03-19T07:11:11Z</time>
      </trkpt>
      <trkpt lat="42.76203" lon="0.44264">
        <ele>1646.4</ele>
        <time>2014-03-19T07:11:24Z</time>
      </trkpt>
      <trkpt lat="42.76196" lon="0.4426">
        <ele>1648.8</ele>
        <time>2014-03-19T07:11:37Z</time>
      </trkpt>
      <trkpt lat="42.76187" lon="0.44254">
        <ele>1650.72</ele>
        <time>2014-03-19T07:11:52Z</time>
      </trkpt>
      <trkpt lat="42.76179" lon="0.44244">
        <ele>1651.68</ele>
        <time>2014-03-19T07:12:05Z</time>
      </trkpt>
      <trkpt lat="42.76168" lon="0.44229">
        <ele>1650.24</ele>
        <time>2014-03-19T07:12:20Z</time>
      </trkpt>
      <trkpt lat="42.76159" lon="0.44215">
        <ele>1651.2</ele>
        <time>2014-03-19T07:12:35Z</time>
      </trkpt>
      <trkpt lat="42.76152" lon="0.44206">
        <ele>1654.09</ele>
        <time>2014-03-19T07:12:49Z</time>
      </trkpt>
      <trkpt lat="42.76143" lon="0.44201">
        <ele>1656.49</ele>
        <time>2014-03-19T07:13:02Z</time>
      </trkpt>
      <trkpt lat="42.76136" lon="0.44197">
        <ele>1658.41</ele>
        <time>2014-03-19T07:13:15Z</time>
      </trkpt>
      <trkpt lat="42.76127" lon="0.44193">
        <ele>1661.3</ele>
        <time>2014-03-19T07:13:28Z</time>
      </trkpt>
      <trkpt lat="42.76124" lon="0.44187">
        <ele>1663.7</ele>
        <time>2014-03-19T07:13:39Z</time>
      </trkpt>
      <trkpt lat="42.76119" lon="0.44176">
        <ele>1666.58</ele>
        <time>2014-03-19T07:13:53Z</time>
      </trkpt>
      <trkpt lat="42.76117" lon="0.44164">
        <ele>1668.02</ele>
        <time>2014-03-19T07:14:06Z</time>
      </trkpt>
      <trkpt lat="42.76118" lon="0.44164">
        <ele>1668.02</ele>
        <time>2014-03-19T07:14:07Z</time>
      </trkpt>
      <trkpt lat="42.76113" lon="0.4415">
        <ele>1669.95</ele>
        <time>2014-03-19T07:14:21Z</time>
      </trkpt>
      <trkpt lat="42.76107" lon="0.4414">
        <ele>1672.35</ele>
        <time>2014-03-19T07:14:36Z</time>
      </trkpt>
      <trkpt lat="42.76101" lon="0.44134">
        <ele>1673.79</ele>
        <time>2014-03-19T07:14:46Z</time>
      </trkpt>
      <trkpt lat="42.76094" lon="0.44127">
        <ele>1676.2</ele>
        <time>2014-03-19T07:15:00Z</time>
      </trkpt>
      <trkpt lat="42.76092" lon="0.44126">
        <ele>1676.2</ele>
        <time>2014-03-19T07:15:02Z</time>
      </trkpt>
      <trkpt lat="42.76085" lon="0.44121">
        <ele>1678.12</ele>
        <time>2014-03-19T07:15:15Z</time>
      </trkpt>
      <trkpt lat="42.76077" lon="0.44115">
        <ele>1680.52</ele>
        <time>2014-03-19T07:15:30Z</time>
      </trkpt>
      <trkpt lat="42.76068" lon="0.44107">
        <ele>1683.41</ele>
        <time>2014-03-19T07:15:45Z</time>
      </trkpt>
      <trkpt lat="42.76062" lon="0.44097">
        <ele>1685.81</ele>
        <time>2014-03-19T07:16:00Z</time>
      </trkpt>
      <trkpt lat="42.76056" lon="0.44087">
        <ele>1687.73</ele>
        <time>2014-03-19T07:16:13Z</time>
      </trkpt>
      <trkpt lat="42.7605" lon="0.44079">
        <ele>1689.65</ele>
        <time>2014-03-19T07:16:27Z</time>
      </trkpt>
      <trkpt lat="42.76042" lon="0.44075">
        <ele>1692.06</ele>
        <time>2014-03-19T07:16:39Z</time>
      </trkpt>
      <trkpt lat="42.7604" lon="0.44074">
        <ele>1692.54</ele>
        <time>2014-03-19T07:16:42Z</time>
      </trkpt>
      <trkpt lat="42.76043" lon="0.44068">
        <ele>1693.98</ele>
        <time>2014-03-19T07:16:52Z</time>
      </trkpt>
      <trkpt lat="42.76049" lon="0.44059">
        <ele>1696.86</ele>
        <time>2014-03-19T07:17:07Z</time>
      </trkpt>
      <trkpt lat="42.76055" lon="0.4405">
        <ele>1699.27</ele>
        <time>2014-03-19T07:17:21Z</time>
      </trkpt>
      <trkpt lat="42.76061" lon="0.44038">
        <ele>1702.15</ele>
        <time>2014-03-19T07:17:36Z</time>
      </trkpt>
      <trkpt lat="42.76058" lon="0.44035">
        <ele>1702.63</ele>
        <time>2014-03-19T07:17:42Z</time>
      </trkpt>
      <trkpt lat="42.7605" lon="0.44032">
        <ele>1705.04</ele>
        <time>2014-03-19T07:17:55Z</time>
      </trkpt>
      <trkpt lat="42.76047" lon="0.44031">
        <ele>1707.44</ele>
        <time>2014-03-19T07:18:06Z</time>
      </trkpt>
      <trkpt lat="42.76038" lon="0.44027">
        <ele>1709.84</ele>
        <time>2014-03-19T07:18:19Z</time>
      </trkpt>
      <trkpt lat="42.76036" lon="0.44027">
        <ele>1710.32</ele>
        <time>2014-03-19T07:18:22Z</time>
      </trkpt>
      <trkpt lat="42.76029" lon="0.44023">
        <ele>1712.25</ele>
        <time>2014-03-19T07:18:35Z</time>
      </trkpt>
      <trkpt lat="42.76027" lon="0.44023">
        <ele>1712.25</ele>
        <time>2014-03-19T07:18:54Z</time>
      </trkpt>
      <trkpt lat="42.76028" lon="0.44019">
        <ele>1713.69</ele>
        <time>2014-03-19T07:19:03Z</time>
      </trkpt>
      <trkpt lat="42.76032" lon="0.4401">
        <ele>1715.13</ele>
        <time>2014-03-19T07:19:18Z</time>
      </trkpt>
      <trkpt lat="42.76036" lon="0.44008">
        <ele>1716.09</ele>
        <time>2014-03-19T07:19:32Z</time>
      </trkpt>
      <trkpt lat="42.76038" lon="0.43999">
        <ele>1718.01</ele>
        <time>2014-03-19T07:19:50Z</time>
      </trkpt>
      <trkpt lat="42.76039" lon="0.43995">
        <ele>1718.97</ele>
        <time>2014-03-19T07:20:05Z</time>
      </trkpt>
      <trkpt lat="42.76039" lon="0.43995">
        <ele>1718.97</ele>
        <time>2014-03-19T07:20:09Z</time>
      </trkpt>
      <trkpt lat="42.76041" lon="0.4399">
        <ele>1720.42</ele>
        <time>2014-03-19T07:20:14Z</time>
      </trkpt>
      <trkpt lat="42.76046" lon="0.43981">
        <ele>1722.82</ele>
        <time>2014-03-19T07:20:28Z</time>
      </trkpt>
      <trkpt lat="42.76044" lon="0.43983">
        <ele>1723.3</ele>
        <time>2014-03-19T07:20:36Z</time>
      </trkpt>
      <trkpt lat="42.76034" lon="0.43982">
        <ele>1726.18</ele>
        <time>2014-03-19T07:20:50Z</time>
      </trkpt>
      <trkpt lat="42.76026" lon="0.43981">
        <ele>1728.59</ele>
        <time>2014-03-19T07:21:03Z</time>
      </trkpt>
      <trkpt lat="42.76017" lon="0.4398">
        <ele>1730.99</ele>
        <time>2014-03-19T07:21:16Z</time>
      </trkpt>
      <trkpt lat="42.7601" lon="0.43981">
        <ele>1732.91</ele>
        <time>2014-03-19T07:21:31Z</time>
      </trkpt>
      <trkpt lat="42.76002" lon="0.43978">
        <ele>1735.32</ele>
        <time>2014-03-19T07:21:44Z</time>
      </trkpt>
      <trkpt lat="42.75993" lon="0.43973">
        <ele>1737.72</ele>
        <time>2014-03-19T07:21:58Z</time>
      </trkpt>
      <trkpt lat="42.75989" lon="0.43969">
        <ele>1739.16</ele>
        <time>2014-03-19T07:22:14Z</time>
      </trkpt>
      <trkpt lat="42.75988" lon="0.43967">
        <ele>1739.64</ele>
        <time>2014-03-19T07:22:17Z</time>
      </trkpt>
      <trkpt lat="42.75982" lon="0.43959">
        <ele>1741.08</ele>
        <time>2014-03-19T07:22:33Z</time>
      </trkpt>
      <trkpt lat="42.75979" lon="0.43954">
        <ele>1743.01</ele>
        <time>2014-03-19T07:22:41Z</time>
      </trkpt>
      <trkpt lat="42.75986" lon="0.43955">
        <ele>1744.93</ele>
        <time>2014-03-19T07:22:52Z</time>
      </trkpt>
      <trkpt lat="42.75994" lon="0.43948">
        <ele>1748.29</ele>
        <time>2014-03-19T07:23:06Z</time>
      </trkpt>
      <trkpt lat="42.76002" lon="0.43942">
        <ele>1751.18</ele>
        <time>2014-03-19T07:23:20Z</time>
      </trkpt>
      <trkpt lat="42.76003" lon="0.4394">
        <ele>1751.18</ele>
        <time>2014-03-19T07:23:21Z</time>
      </trkpt>
      <trkpt lat="42.76004" lon="0.43929">
        <ele>1753.58</ele>
        <time>2014-03-19T07:23:33Z</time>
      </trkpt>
      <trkpt lat="42.76005" lon="0.43915">
        <ele>1755.99</ele>
        <time>2014-03-19T07:23:47Z</time>
      </trkpt>
      <trkpt lat="42.76009" lon="0.43907">
        <ele>1757.43</ele>
        <time>2014-03-19T07:24:03Z</time>
      </trkpt>
      <trkpt lat="42.7601" lon="0.43899">
        <ele>1758.87</ele>
        <time>2014-03-19T07:24:17Z</time>
      </trkpt>
      <trkpt lat="42.76013" lon="0.43895">
        <ele>1758.87</ele>
        <time>2014-03-19T07:24:33Z</time>
      </trkpt>
      <trkpt lat="42.76014" lon="0.43893">
        <ele>1758.87</ele>
        <time>2014-03-19T07:24:51Z</time>
      </trkpt>
      <trkpt lat="42.76013" lon="0.43891">
        <ele>1758.87</ele>
        <time>2014-03-19T07:25:08Z</time>
      </trkpt>
      <trkpt lat="42.76012" lon="0.43893">
        <ele>1757.91</ele>
        <time>2014-03-19T07:25:20Z</time>
      </trkpt>
      <trkpt lat="42.7602" lon="0.4389">
        <ele>1757.43</ele>
        <time>2014-03-19T07:25:47Z</time>
      </trkpt>
      <trkpt lat="42.76012" lon="0.43891">
        <ele>1757.43</ele>
        <time>2014-03-19T07:26:08Z</time>
      </trkpt>
      <trkpt lat="42.7601" lon="0.43892">
        <ele>1757.43</ele>
        <time>2014-03-19T07:26:39Z</time>
      </trkpt>
      <trkpt lat="42.76011" lon="0.43893">
        <ele>1757.43</ele>
        <time>2014-03-19T07:26:57Z</time>
      </trkpt>
      <trkpt lat="42.76012" lon="0.43893">
        <ele>1757.43</ele>
        <time>2014-03-19T07:27:00Z</time>
      </trkpt>
      <trkpt lat="42.76011" lon="0.43894">
        <ele>1758.39</ele>
        <time>2014-03-19T07:27:15Z</time>
      </trkpt>
      <trkpt lat="42.76012" lon="0.43893">
        <ele>1758.39</ele>
        <time>2014-03-19T07:27:28Z</time>
      </trkpt>
      <trkpt lat="42.76014" lon="0.43894">
        <ele>1758.39</ele>
        <time>2014-03-19T07:27:51Z</time>
      </trkpt>
      <trkpt lat="42.76012" lon="0.43892">
        <ele>1758.87</ele>
        <time>2014-03-19T07:27:55Z</time>
      </trkpt>
      <trkpt lat="42.76" lon="0.4387">
        <ele>1757.43</ele>
        <time>2014-03-19T07:28:12Z</time>
      </trkpt>
      <trkpt lat="42.75995" lon="0.43852">
        <ele>1758.87</ele>
        <time>2014-03-19T07:28:26Z</time>
      </trkpt>
      <trkpt lat="42.75994" lon="0.43838">
        <ele>1759.83</ele>
        <time>2014-03-19T07:28:37Z</time>
      </trkpt>
      <trkpt lat="42.75993" lon="0.43828">
        <ele>1760.79</ele>
        <time>2014-03-19T07:28:45Z</time>
      </trkpt>
      <trkpt lat="42.76001" lon="0.4381">
        <ele>1763.2</ele>
        <time>2014-03-19T07:29:01Z</time>
      </trkpt>
      <trkpt lat="42.76001" lon="0.43797">
        <ele>1766.08</ele>
        <time>2014-03-19T07:29:14Z</time>
      </trkpt>
      <trkpt lat="42.76003" lon="0.43793">
        <ele>1766.56</ele>
        <time>2014-03-19T07:29:18Z</time>
      </trkpt>
      <trkpt lat="42.76004" lon="0.43784">
        <ele>1768.48</ele>
        <time>2014-03-19T07:29:26Z</time>
      </trkpt>
      <trkpt lat="42.75998" lon="0.43768">
        <ele>1769.92</ele>
        <time>2014-03-19T07:29:40Z</time>
      </trkpt>
      <trkpt lat="42.75986" lon="0.43758">
        <ele>1771.85</ele>
        <time>2014-03-19T07:29:55Z</time>
      </trkpt>
      <trkpt lat="42.75973" lon="0.43752">
        <ele>1773.77</ele>
        <time>2014-03-19T07:30:10Z</time>
      </trkpt>
      <trkpt lat="42.75965" lon="0.43749">
        <ele>1775.69</ele>
        <time>2014-03-19T07:30:23Z</time>
      </trkpt>
      <trkpt lat="42.75965" lon="0.4375">
        <ele>1775.69</ele>
        <time>2014-03-19T07:30:44Z</time>
      </trkpt>
      <trkpt lat="42.75964" lon="0.43749">
        <ele>1774.73</ele>
        <time>2014-03-19T07:31:00Z</time>
      </trkpt>
      <trkpt lat="42.75965" lon="0.43749">
        <ele>1774.73</ele>
        <time>2014-03-19T07:31:19Z</time>
      </trkpt>
      <trkpt lat="42.75963" lon="0.4375">
        <ele>1775.21</ele>
        <time>2014-03-19T07:31:33Z</time>
      </trkpt>
      <trkpt lat="42.75958" lon="0.43746">
        <ele>1777.13</ele>
        <time>2014-03-19T07:31:45Z</time>
      </trkpt>
      <trkpt lat="42.75947" lon="0.43739">
        <ele>1778.58</ele>
        <time>2014-03-19T07:31:59Z</time>
      </trkpt>
      <trkpt lat="42.75935" lon="0.43737">
        <ele>1780.02</ele>
        <time>2014-03-19T07:32:13Z</time>
      </trkpt>
      <trkpt lat="42.75928" lon="0.43741">
        <ele>1782.42</ele>
        <time>2014-03-19T07:32:25Z</time>
      </trkpt>
      <trkpt lat="42.75917" lon="0.43742">
        <ele>1785.31</ele>
        <time>2014-03-19T07:32:38Z</time>
      </trkpt>
      <trkpt lat="42.75908" lon="0.43743">
        <ele>1787.71</ele>
        <time>2014-03-19T07:32:50Z</time>
      </trkpt>
      <trkpt lat="42.75898" lon="0.43742">
        <ele>1790.11</ele>
        <time>2014-03-19T07:33:03Z</time>
      </trkpt>
      <trkpt lat="42.75889" lon="0.43741">
        <ele>1792.03</ele>
        <time>2014-03-19T07:33:16Z</time>
      </trkpt>
      <trkpt lat="42.75879" lon="0.4374">
        <ele>1794.44</ele>
        <time>2014-03-19T07:33:30Z</time>
      </trkpt>
      <trkpt lat="42.75868" lon="0.4374">
        <ele>1796.84</ele>
        <time>2014-03-19T07:33:44Z</time>
      </trkpt>
      <trkpt lat="42.75858" lon="0.43739">
        <ele>1799.24</ele>
        <time>2014-03-19T07:33:58Z</time>
      </trkpt>
      <trkpt lat="42.75849" lon="0.4374">
        <ele>1801.17</ele>
        <time>2014-03-19T07:34:11Z</time>
      </trkpt>
      <trkpt lat="42.7584" lon="0.43741">
        <ele>1804.05</ele>
        <time>2014-03-19T07:34:24Z</time>
      </trkpt>
      <trkpt lat="42.75832" lon="0.43742">
        <ele>1805.97</ele>
        <time>2014-03-19T07:34:36Z</time>
      </trkpt>
      <trkpt lat="42.75824" lon="0.43744">
        <ele>1807.9</ele>
        <time>2014-03-19T07:34:48Z</time>
      </trkpt>
      <trkpt lat="42.75816" lon="0.43751">
        <ele>1810.3</ele>
        <time>2014-03-19T07:35:02Z</time>
      </trkpt>
      <trkpt lat="42.75809" lon="0.43756">
        <ele>1812.22</ele>
        <time>2014-03-19T07:35:15Z</time>
      </trkpt>
      <trkpt lat="42.75801" lon="0.43762">
        <ele>1814.15</ele>
        <time>2014-03-19T07:35:28Z</time>
      </trkpt>
      <trkpt lat="42.75793" lon="0.43767">
        <ele>1816.55</ele>
        <time>2014-03-19T07:35:41Z</time>
      </trkpt>
      <trkpt lat="42.75784" lon="0.43773">
        <ele>1818.95</ele>
        <time>2014-03-19T07:35:55Z</time>
      </trkpt>
      <trkpt lat="42.75778" lon="0.43775">
        <ele>1821.35</ele>
        <time>2014-03-19T07:36:07Z</time>
      </trkpt>
      <trkpt lat="42.75771" lon="0.43777">
        <ele>1823.28</ele>
        <time>2014-03-19T07:36:19Z</time>
      </trkpt>
      <trkpt lat="42.75762" lon="0.43776">
        <ele>1825.68</ele>
        <time>2014-03-19T07:36:32Z</time>
      </trkpt>
      <trkpt lat="42.75754" lon="0.43776">
        <ele>1828.08</ele>
        <time>2014-03-19T07:36:45Z</time>
      </trkpt>
      <trkpt lat="42.75746" lon="0.43773">
        <ele>1830.49</ele>
        <time>2014-03-19T07:36:58Z</time>
      </trkpt>
      <trkpt lat="42.75738" lon="0.43768">
        <ele>1833.37</ele>
        <time>2014-03-19T07:37:10Z</time>
      </trkpt>
      <trkpt lat="42.75731" lon="0.43762">
        <ele>1835.29</ele>
        <time>2014-03-19T07:37:23Z</time>
      </trkpt>
      <trkpt lat="42.75724" lon="0.43753">
        <ele>1837.22</ele>
        <time>2014-03-19T07:37:37Z</time>
      </trkpt>
      <trkpt lat="42.75721" lon="0.43747">
        <ele>1839.14</ele>
        <time>2014-03-19T07:37:46Z</time>
      </trkpt>
      <trkpt lat="42.75715" lon="0.43736">
        <ele>1841.54</ele>
        <time>2014-03-19T07:38:00Z</time>
      </trkpt>
      <trkpt lat="42.75711" lon="0.43728">
        <ele>1843.95</ele>
        <time>2014-03-19T07:38:13Z</time>
      </trkpt>
      <trkpt lat="42.75715" lon="0.43722">
        <ele>1845.87</ele>
        <time>2014-03-19T07:38:22Z</time>
      </trkpt>
      <trkpt lat="42.75719" lon="0.43718">
        <ele>1847.31</ele>
        <time>2014-03-19T07:38:29Z</time>
      </trkpt>
      <trkpt lat="42.7572" lon="0.43704">
        <ele>1850.19</ele>
        <time>2014-03-19T07:38:43Z</time>
      </trkpt>
      <trkpt lat="42.75719" lon="0.43694">
        <ele>1852.6</ele>
        <time>2014-03-19T07:38:55Z</time>
      </trkpt>
      <trkpt lat="42.75719" lon="0.43682">
        <ele>1855</ele>
        <time>2014-03-19T07:39:09Z</time>
      </trkpt>
      <trkpt lat="42.75715" lon="0.4367">
        <ele>1857.89</ele>
        <time>2014-03-19T07:39:24Z</time>
      </trkpt>
      <trkpt lat="42.75711" lon="0.43659">
        <ele>1860.29</ele>
        <time>2014-03-19T07:39:37Z</time>
      </trkpt>
      <trkpt lat="42.75707" lon="0.43656">
        <ele>1861.25</ele>
        <time>2014-03-19T07:39:44Z</time>
      </trkpt>
      <trkpt lat="42.75699" lon="0.43652">
        <ele>1863.17</ele>
        <time>2014-03-19T07:39:57Z</time>
      </trkpt>
      <trkpt lat="42.7569" lon="0.43652">
        <ele>1865.58</ele>
        <time>2014-03-19T07:40:11Z</time>
      </trkpt>
      <trkpt lat="42.75682" lon="0.43652">
        <ele>1867.98</ele>
        <time>2014-03-19T07:40:24Z</time>
      </trkpt>
      <trkpt lat="42.75682" lon="0.43644">
        <ele>1869.42</ele>
        <time>2014-03-19T07:40:33Z</time>
      </trkpt>
      <trkpt lat="42.75684" lon="0.4363">
        <ele>1872.3</ele>
        <time>2014-03-19T07:40:48Z</time>
      </trkpt>
      <trkpt lat="42.75685" lon="0.43618">
        <ele>1875.19</ele>
        <time>2014-03-19T07:41:02Z</time>
      </trkpt>
      <trkpt lat="42.75685" lon="0.43606">
        <ele>1877.59</ele>
        <time>2014-03-19T07:41:16Z</time>
      </trkpt>
      <trkpt lat="42.75685" lon="0.43591">
        <ele>1880</ele>
        <time>2014-03-19T07:41:32Z</time>
      </trkpt>
      <trkpt lat="42.75686" lon="0.43578">
        <ele>1882.4</ele>
        <time>2014-03-19T07:41:47Z</time>
      </trkpt>
      <trkpt lat="42.75682" lon="0.43573">
        <ele>1884.8</ele>
        <time>2014-03-19T07:41:59Z</time>
      </trkpt>
      <trkpt lat="42.7568" lon="0.43575">
        <ele>1885.28</ele>
        <time>2014-03-19T07:42:03Z</time>
      </trkpt>
      <trkpt lat="42.75672" lon="0.43578">
        <ele>1887.69</ele>
        <time>2014-03-19T07:42:16Z</time>
      </trkpt>
      <trkpt lat="42.75664" lon="0.43584">
        <ele>1890.09</ele>
        <time>2014-03-19T07:42:30Z</time>
      </trkpt>
      <trkpt lat="42.75654" lon="0.43589">
        <ele>1892.49</ele>
        <time>2014-03-19T07:42:44Z</time>
      </trkpt>
      <trkpt lat="42.7565" lon="0.43593">
        <ele>1893.45</ele>
        <time>2014-03-19T07:42:53Z</time>
      </trkpt>
      <trkpt lat="42.75642" lon="0.43601">
        <ele>1895.86</ele>
        <time>2014-03-19T07:43:06Z</time>
      </trkpt>
      <trkpt lat="42.75638" lon="0.43609">
        <ele>1897.78</ele>
        <time>2014-03-19T07:43:17Z</time>
      </trkpt>
      <trkpt lat="42.75634" lon="0.4362">
        <ele>1900.66</ele>
        <time>2014-03-19T07:43:31Z</time>
      </trkpt>
      <trkpt lat="42.75632" lon="0.43635">
        <ele>1903.55</ele>
        <time>2014-03-19T07:43:46Z</time>
      </trkpt>
      <trkpt lat="42.75631" lon="0.43642">
        <ele>1905.95</ele>
        <time>2014-03-19T07:43:56Z</time>
      </trkpt>
      <trkpt lat="42.75626" lon="0.43645">
        <ele>1906.91</ele>
        <time>2014-03-19T07:44:03Z</time>
      </trkpt>
      <trkpt lat="42.75619" lon="0.43648">
        <ele>1909.32</ele>
        <time>2014-03-19T07:44:16Z</time>
      </trkpt>
      <trkpt lat="42.75609" lon="0.4365">
        <ele>1912.2</ele>
        <time>2014-03-19T07:44:32Z</time>
      </trkpt>
      <trkpt lat="42.756" lon="0.43653">
        <ele>1914.12</ele>
        <time>2014-03-19T07:44:47Z</time>
      </trkpt>
      <trkpt lat="42.75592" lon="0.43654">
        <ele>1916.53</ele>
        <time>2014-03-19T07:45:00Z</time>
      </trkpt>
      <trkpt lat="42.75581" lon="0.43655">
        <ele>1919.41</ele>
        <time>2014-03-19T07:45:17Z</time>
      </trkpt>
      <trkpt lat="42.75583" lon="0.43653">
        <ele>1919.89</ele>
        <time>2014-03-19T07:45:26Z</time>
      </trkpt>
      <trkpt lat="42.75583" lon="0.43654">
        <ele>1919.89</ele>
        <time>2014-03-19T07:45:55Z</time>
      </trkpt>
      <trkpt lat="42.75586" lon="0.43644">
        <ele>1921.33</ele>
        <time>2014-03-19T07:46:11Z</time>
      </trkpt>
      <trkpt lat="42.75587" lon="0.43641">
        <ele>1922.29</ele>
        <time>2014-03-19T07:46:15Z</time>
      </trkpt>
      <trkpt lat="42.75591" lon="0.43624">
        <ele>1924.7</ele>
        <time>2014-03-19T07:46:32Z</time>
      </trkpt>
      <trkpt lat="42.75592" lon="0.43608">
        <ele>1927.58</ele>
        <time>2014-03-19T07:46:48Z</time>
      </trkpt>
      <trkpt lat="42.75594" lon="0.43596">
        <ele>1929.5</ele>
        <time>2014-03-19T07:47:03Z</time>
      </trkpt>
      <trkpt lat="42.75593" lon="0.43596">
        <ele>1929.5</ele>
        <time>2014-03-19T07:47:18Z</time>
      </trkpt>
      <trkpt lat="42.75593" lon="0.43596">
        <ele>1929.5</ele>
        <time>2014-03-19T07:47:33Z</time>
      </trkpt>
      <trkpt lat="42.75584" lon="0.43602">
        <ele>1932.39</ele>
        <time>2014-03-19T07:47:47Z</time>
      </trkpt>
      <trkpt lat="42.75581" lon="0.43605">
        <ele>1933.83</ele>
        <time>2014-03-19T07:47:54Z</time>
      </trkpt>
      <trkpt lat="42.75572" lon="0.43612">
        <ele>1935.75</ele>
        <time>2014-03-19T07:48:09Z</time>
      </trkpt>
      <trkpt lat="42.7557" lon="0.43611">
        <ele>1937.19</ele>
        <time>2014-03-19T07:48:20Z</time>
      </trkpt>
      <trkpt lat="42.7557" lon="0.43611">
        <ele>1937.67</ele>
        <time>2014-03-19T07:48:21Z</time>
      </trkpt>
      <trkpt lat="42.75571" lon="0.43594">
        <ele>1940.56</ele>
        <time>2014-03-19T07:48:37Z</time>
      </trkpt>
      <trkpt lat="42.75572" lon="0.43584">
        <ele>1942.96</ele>
        <time>2014-03-19T07:48:51Z</time>
      </trkpt>
      <trkpt lat="42.75578" lon="0.4357">
        <ele>1945.85</ele>
        <time>2014-03-19T07:49:07Z</time>
      </trkpt>
      <trkpt lat="42.75581" lon="0.4356">
        <ele>1947.77</ele>
        <time>2014-03-19T07:49:20Z</time>
      </trkpt>
      <trkpt lat="42.75576" lon="0.43563">
        <ele>1949.21</ele>
        <time>2014-03-19T07:49:34Z</time>
      </trkpt>
      <trkpt lat="42.75569" lon="0.43564">
        <ele>1951.61</ele>
        <time>2014-03-19T07:49:47Z</time>
      </trkpt>
      <trkpt lat="42.75561" lon="0.43565">
        <ele>1953.54</ele>
        <time>2014-03-19T07:50:00Z</time>
      </trkpt>
      <trkpt lat="42.75556" lon="0.43569">
        <ele>1955.94</ele>
        <time>2014-03-19T07:50:12Z</time>
      </trkpt>
      <trkpt lat="42.75551" lon="0.43575">
        <ele>1958.34</ele>
        <time>2014-03-19T07:50:24Z</time>
      </trkpt>
      <trkpt lat="42.75545" lon="0.43579">
        <ele>1960.27</ele>
        <time>2014-03-19T07:50:36Z</time>
      </trkpt>
      <trkpt lat="42.75538" lon="0.43583">
        <ele>1962.67</ele>
        <time>2014-03-19T07:50:48Z</time>
      </trkpt>
      <trkpt lat="42.75536" lon="0.43584">
        <ele>1962.67</ele>
        <time>2014-03-19T07:50:50Z</time>
      </trkpt>
      <trkpt lat="42.75534" lon="0.43586">
        <ele>1963.63</ele>
        <time>2014-03-19T07:51:05Z</time>
      </trkpt>
      <trkpt lat="42.75533" lon="0.43586">
        <ele>1963.63</ele>
        <time>2014-03-19T07:51:36Z</time>
      </trkpt>
      <trkpt lat="42.75529" lon="0.43588">
        <ele>1965.07</ele>
        <time>2014-03-19T07:51:50Z</time>
      </trkpt>
      <trkpt lat="42.75523" lon="0.43593">
        <ele>1966.51</ele>
        <time>2014-03-19T07:52:10Z</time>
      </trkpt>
      <trkpt lat="42.75515" lon="0.43601">
        <ele>1968.44</ele>
        <time>2014-03-19T07:52:23Z</time>
      </trkpt>
      <trkpt lat="42.75509" lon="0.43609">
        <ele>1970.36</ele>
        <time>2014-03-19T07:52:36Z</time>
      </trkpt>
      <trkpt lat="42.75501" lon="0.43619">
        <ele>1972.28</ele>
        <time>2014-03-19T07:52:50Z</time>
      </trkpt>
      <trkpt lat="42.75495" lon="0.43628">
        <ele>1974.69</ele>
        <time>2014-03-19T07:53:03Z</time>
      </trkpt>
      <trkpt lat="42.75489" lon="0.43633">
        <ele>1976.61</ele>
        <time>2014-03-19T07:53:15Z</time>
      </trkpt>
      <trkpt lat="42.75483" lon="0.43638">
        <ele>1978.53</ele>
        <time>2014-03-19T07:53:26Z</time>
      </trkpt>
      <trkpt lat="42.75479" lon="0.43641">
        <ele>1979.97</ele>
        <time>2014-03-19T07:53:31Z</time>
      </trkpt>
      <trkpt lat="42.75478" lon="0.43641">
        <ele>1980.45</ele>
        <time>2014-03-19T07:53:44Z</time>
      </trkpt>
      <trkpt lat="42.75479" lon="0.4364">
        <ele>1980.93</ele>
        <time>2014-03-19T07:53:55Z</time>
      </trkpt>
      <trkpt lat="42.75483" lon="0.43632">
        <ele>1982.38</ele>
        <time>2014-03-19T07:54:08Z</time>
      </trkpt>
      <trkpt lat="42.75486" lon="0.43623">
        <ele>1984.78</ele>
        <time>2014-03-19T07:54:24Z</time>
      </trkpt>
      <trkpt lat="42.7549" lon="0.43613">
        <ele>1986.22</ele>
        <time>2014-03-19T07:54:40Z</time>
      </trkpt>
      <trkpt lat="42.75492" lon="0.43609">
        <ele>1987.18</ele>
        <time>2014-03-19T07:54:54Z</time>
      </trkpt>
      <trkpt lat="42.75494" lon="0.43605">
        <ele>1987.18</ele>
        <time>2014-03-19T07:55:07Z</time>
      </trkpt>
      <trkpt lat="42.75496" lon="0.436">
        <ele>1988.14</ele>
        <time>2014-03-19T07:55:22Z</time>
      </trkpt>
      <trkpt lat="42.75498" lon="0.43594">
        <ele>1989.1</ele>
        <time>2014-03-19T07:55:37Z</time>
      </trkpt>
      <trkpt lat="42.75499" lon="0.43589">
        <ele>1990.07</ele>
        <time>2014-03-19T07:55:51Z</time>
      </trkpt>
      <trkpt lat="42.755" lon="0.43585">
        <ele>1990.55</ele>
        <time>2014-03-19T07:56:02Z</time>
      </trkpt>
      <trkpt lat="42.75502" lon="0.43581">
        <ele>1991.51</ele>
        <time>2014-03-19T07:56:15Z</time>
      </trkpt>
      <trkpt lat="42.75504" lon="0.43576">
        <ele>1992.95</ele>
        <time>2014-03-19T07:56:29Z</time>
      </trkpt>
      <trkpt lat="42.75504" lon="0.43568">
        <ele>1994.39</ele>
        <time>2014-03-19T07:56:39Z</time>
      </trkpt>
      <trkpt lat="42.75503" lon="0.43555">
        <ele>1996.32</ele>
        <time>2014-03-19T07:56:53Z</time>
      </trkpt>
      <trkpt lat="42.75506" lon="0.43541">
        <ele>1999.2</ele>
        <time>2014-03-19T07:57:07Z</time>
      </trkpt>
      <trkpt lat="42.75507" lon="0.43533">
        <ele>2001.12</ele>
        <time>2014-03-19T07:57:20Z</time>
      </trkpt>
      <trkpt lat="42.7551" lon="0.4352">
        <ele>2003.04</ele>
        <time>2014-03-19T07:57:34Z</time>
      </trkpt>
      <trkpt lat="42.75514" lon="0.43507">
        <ele>2004.97</ele>
        <time>2014-03-19T07:57:48Z</time>
      </trkpt>
      <trkpt lat="42.75521" lon="0.43495">
        <ele>2006.41</ele>
        <time>2014-03-19T07:58:02Z</time>
      </trkpt>
      <trkpt lat="42.75526" lon="0.43484">
        <ele>2008.33</ele>
        <time>2014-03-19T07:58:17Z</time>
      </trkpt>
      <trkpt lat="42.75527" lon="0.43482">
        <ele>2008.81</ele>
        <time>2014-03-19T07:58:19Z</time>
      </trkpt>
      <trkpt lat="42.7553" lon="0.43467">
        <ele>2011.7</ele>
        <time>2014-03-19T07:58:34Z</time>
      </trkpt>
      <trkpt lat="42.75532" lon="0.43454">
        <ele>2014.58</ele>
        <time>2014-03-19T07:58:49Z</time>
      </trkpt>
      <trkpt lat="42.75537" lon="0.43445">
        <ele>2016.98</ele>
        <time>2014-03-19T07:59:03Z</time>
      </trkpt>
      <trkpt lat="42.75534" lon="0.43445">
        <ele>2016.5</ele>
        <time>2014-03-19T07:59:22Z</time>
      </trkpt>
      <trkpt lat="42.75535" lon="0.43445">
        <ele>2016.5</ele>
        <time>2014-03-19T07:59:51Z</time>
      </trkpt>
      <trkpt lat="42.75535" lon="0.43444">
        <ele>2016.5</ele>
        <time>2014-03-19T08:00:04Z</time>
      </trkpt>
      <trkpt lat="42.7553" lon="0.43447">
        <ele>2017.46</ele>
        <time>2014-03-19T08:00:14Z</time>
      </trkpt>
      <trkpt lat="42.75522" lon="0.43454">
        <ele>2019.39</ele>
        <time>2014-03-19T08:00:28Z</time>
      </trkpt>
      <trkpt lat="42.75515" lon="0.43456">
        <ele>2020.83</ele>
        <time>2014-03-19T08:00:39Z</time>
      </trkpt>
      <trkpt lat="42.75505" lon="0.43462">
        <ele>2023.23</ele>
        <time>2014-03-19T08:00:54Z</time>
      </trkpt>
      <trkpt lat="42.75497" lon="0.43468">
        <ele>2025.15</ele>
        <time>2014-03-19T08:01:08Z</time>
      </trkpt>
      <trkpt lat="42.75488" lon="0.43476">
        <ele>2027.56</ele>
        <time>2014-03-19T08:01:24Z</time>
      </trkpt>
      <trkpt lat="42.75482" lon="0.4348">
        <ele>2029.48</ele>
        <time>2014-03-19T08:01:36Z</time>
      </trkpt>
      <trkpt lat="42.75474" lon="0.43485">
        <ele>2031.4</ele>
        <time>2014-03-19T08:01:50Z</time>
      </trkpt>
      <trkpt lat="42.75463" lon="0.4349">
        <ele>2033.81</ele>
        <time>2014-03-19T08:02:03Z</time>
      </trkpt>
      <trkpt lat="42.75458" lon="0.4349">
        <ele>2036.21</ele>
        <time>2014-03-19T08:02:15Z</time>
      </trkpt>
      <trkpt lat="42.75451" lon="0.43491">
        <ele>2038.13</ele>
        <time>2014-03-19T08:02:26Z</time>
      </trkpt>
      <trkpt lat="42.75444" lon="0.43493">
        <ele>2039.57</ele>
        <time>2014-03-19T08:02:37Z</time>
      </trkpt>
      <trkpt lat="42.75435" lon="0.43494">
        <ele>2041.02</ele>
        <time>2014-03-19T08:02:51Z</time>
      </trkpt>
      <trkpt lat="42.75425" lon="0.43495">
        <ele>2042.94</ele>
        <time>2014-03-19T08:03:05Z</time>
      </trkpt>
      <trkpt lat="42.75417" lon="0.43499">
        <ele>2044.86</ele>
        <time>2014-03-19T08:03:17Z</time>
      </trkpt>
      <trkpt lat="42.75411" lon="0.43502">
        <ele>2046.78</ele>
        <time>2014-03-19T08:03:29Z</time>
      </trkpt>
      <trkpt lat="42.75404" lon="0.43506">
        <ele>2048.71</ele>
        <time>2014-03-19T08:03:40Z</time>
      </trkpt>
      <trkpt lat="42.75396" lon="0.43512">
        <ele>2051.11</ele>
        <time>2014-03-19T08:03:54Z</time>
      </trkpt>
      <trkpt lat="42.75388" lon="0.43516">
        <ele>2053.03</ele>
        <time>2014-03-19T08:04:07Z</time>
      </trkpt>
      <trkpt lat="42.75384" lon="0.43519">
        <ele>2053.99</ele>
        <time>2014-03-19T08:04:18Z</time>
      </trkpt>
      <trkpt lat="42.75377" lon="0.43522">
        <ele>2055.92</ele>
        <time>2014-03-19T08:04:29Z</time>
      </trkpt>
      <trkpt lat="42.75371" lon="0.43525">
        <ele>2057.36</ele>
        <time>2014-03-19T08:04:41Z</time>
      </trkpt>
      <trkpt lat="42.75365" lon="0.43528">
        <ele>2059.28</ele>
        <time>2014-03-19T08:04:53Z</time>
      </trkpt>
      <trkpt lat="42.75358" lon="0.43533">
        <ele>2061.2</ele>
        <time>2014-03-19T08:05:06Z</time>
      </trkpt>
      <trkpt lat="42.7535" lon="0.43538">
        <ele>2063.61</ele>
        <time>2014-03-19T08:05:21Z</time>
      </trkpt>
      <trkpt lat="42.75344" lon="0.43545">
        <ele>2065.53</ele>
        <time>2014-03-19T08:05:33Z</time>
      </trkpt>
      <trkpt lat="42.75337" lon="0.43553">
        <ele>2068.41</ele>
        <time>2014-03-19T08:05:51Z</time>
      </trkpt>
      <trkpt lat="42.75333" lon="0.43559">
        <ele>2070.34</ele>
        <time>2014-03-19T08:06:03Z</time>
      </trkpt>
      <trkpt lat="42.75329" lon="0.43569">
        <ele>2071.78</ele>
        <time>2014-03-19T08:06:15Z</time>
      </trkpt>
      <trkpt lat="42.75323" lon="0.43578">
        <ele>2073.7</ele>
        <time>2014-03-19T08:06:28Z</time>
      </trkpt>
      <trkpt lat="42.75318" lon="0.43588">
        <ele>2076.59</ele>
        <time>2014-03-19T08:06:46Z</time>
      </trkpt>
      <trkpt lat="42.75315" lon="0.43581">
        <ele>2078.51</ele>
        <time>2014-03-19T08:06:59Z</time>
      </trkpt>
      <trkpt lat="42.75314" lon="0.4357">
        <ele>2080.43</ele>
        <time>2014-03-19T08:07:12Z</time>
      </trkpt>
      <trkpt lat="42.7531" lon="0.43559">
        <ele>2082.83</ele>
        <time>2014-03-19T08:07:26Z</time>
      </trkpt>
      <trkpt lat="42.75306" lon="0.43551">
        <ele>2084.76</ele>
        <time>2014-03-19T08:07:40Z</time>
      </trkpt>
      <trkpt lat="42.75304" lon="0.43547">
        <ele>2085.72</ele>
        <time>2014-03-19T08:07:59Z</time>
      </trkpt>
      <trkpt lat="42.75302" lon="0.43545">
        <ele>2085.72</ele>
        <time>2014-03-19T08:08:16Z</time>
      </trkpt>
      <trkpt lat="42.753" lon="0.43541">
        <ele>2087.16</ele>
        <time>2014-03-19T08:08:44Z</time>
      </trkpt>
      <trkpt lat="42.75296" lon="0.43533">
        <ele>2089.08</ele>
        <time>2014-03-19T08:08:54Z</time>
      </trkpt>
      <trkpt lat="42.7529" lon="0.43525">
        <ele>2091.97</ele>
        <time>2014-03-19T08:09:08Z</time>
      </trkpt>
      <trkpt lat="42.75285" lon="0.43529">
        <ele>2093.41</ele>
        <time>2014-03-19T08:09:20Z</time>
      </trkpt>
      <trkpt lat="42.75276" lon="0.4354">
        <ele>2096.29</ele>
        <time>2014-03-19T08:09:40Z</time>
      </trkpt>
      <trkpt lat="42.7527" lon="0.43551">
        <ele>2099.66</ele>
        <time>2014-03-19T08:09:59Z</time>
      </trkpt>
      <trkpt lat="42.75268" lon="0.43552">
        <ele>2099.66</ele>
        <time>2014-03-19T08:10:01Z</time>
      </trkpt>
      <trkpt lat="42.75263" lon="0.43562">
        <ele>2102.06</ele>
        <time>2014-03-19T08:10:13Z</time>
      </trkpt>
      <trkpt lat="42.75257" lon="0.4357">
        <ele>2103.5</ele>
        <time>2014-03-19T08:10:25Z</time>
      </trkpt>
      <trkpt lat="42.75252" lon="0.43579">
        <ele>2105.91</ele>
        <time>2014-03-19T08:10:38Z</time>
      </trkpt>
      <trkpt lat="42.75248" lon="0.43582">
        <ele>2109.27</ele>
        <time>2014-03-19T08:10:52Z</time>
      </trkpt>
      <trkpt lat="42.75248" lon="0.43592">
        <ele>2111.19</ele>
        <time>2014-03-19T08:11:04Z</time>
      </trkpt>
      <trkpt lat="42.75244" lon="0.436">
        <ele>2113.6</ele>
        <time>2014-03-19T08:11:17Z</time>
      </trkpt>
      <trkpt lat="42.75239" lon="0.43605">
        <ele>2115.04</ele>
        <time>2014-03-19T08:11:27Z</time>
      </trkpt>
      <trkpt lat="42.75234" lon="0.43599">
        <ele>2116.96</ele>
        <time>2014-03-19T08:11:38Z</time>
      </trkpt>
      <trkpt lat="42.75228" lon="0.4359">
        <ele>2118.88</ele>
        <time>2014-03-19T08:11:50Z</time>
      </trkpt>
      <trkpt lat="42.75224" lon="0.43579">
        <ele>2121.29</ele>
        <time>2014-03-19T08:12:05Z</time>
      </trkpt>
      <trkpt lat="42.75223" lon="0.43574">
        <ele>2122.25</ele>
        <time>2014-03-19T08:12:14Z</time>
      </trkpt>
      <trkpt lat="42.75221" lon="0.43582">
        <ele>2123.69</ele>
        <time>2014-03-19T08:12:24Z</time>
      </trkpt>
      <trkpt lat="42.75216" lon="0.43592">
        <ele>2126.09</ele>
        <time>2014-03-19T08:12:42Z</time>
      </trkpt>
      <trkpt lat="42.75211" lon="0.43597">
        <ele>2127.53</ele>
        <time>2014-03-19T08:12:50Z</time>
      </trkpt>
      <trkpt lat="42.75205" lon="0.43603">
        <ele>2129.46</ele>
        <time>2014-03-19T08:13:04Z</time>
      </trkpt>
      <trkpt lat="42.75201" lon="0.43609">
        <ele>2131.86</ele>
        <time>2014-03-19T08:13:16Z</time>
      </trkpt>
      <trkpt lat="42.75196" lon="0.43616">
        <ele>2133.3</ele>
        <time>2014-03-19T08:13:28Z</time>
      </trkpt>
      <trkpt lat="42.7519" lon="0.43621">
        <ele>2135.71</ele>
        <time>2014-03-19T08:13:41Z</time>
      </trkpt>
      <trkpt lat="42.75184" lon="0.43628">
        <ele>2137.15</ele>
        <time>2014-03-19T08:13:53Z</time>
      </trkpt>
      <trkpt lat="42.75178" lon="0.43632">
        <ele>2139.07</ele>
        <time>2014-03-19T08:14:06Z</time>
      </trkpt>
      <trkpt lat="42.75174" lon="0.43638">
        <ele>2140.99</ele>
        <time>2014-03-19T08:14:18Z</time>
      </trkpt>
      <trkpt lat="42.75169" lon="0.43644">
        <ele>2142.92</ele>
        <time>2014-03-19T08:14:31Z</time>
      </trkpt>
      <trkpt lat="42.75166" lon="0.43646">
        <ele>2143.88</ele>
        <time>2014-03-19T08:14:37Z</time>
      </trkpt>
      <trkpt lat="42.75164" lon="0.43639">
        <ele>2145.32</ele>
        <time>2014-03-19T08:14:48Z</time>
      </trkpt>
      <trkpt lat="42.7516" lon="0.43631">
        <ele>2147.72</ele>
        <time>2014-03-19T08:15:01Z</time>
      </trkpt>
      <trkpt lat="42.75155" lon="0.43625">
        <ele>2150.13</ele>
        <time>2014-03-19T08:15:13Z</time>
      </trkpt>
      <trkpt lat="42.7515" lon="0.43621">
        <ele>2151.57</ele>
        <time>2014-03-19T08:15:27Z</time>
      </trkpt>
      <trkpt lat="42.75147" lon="0.43613">
        <ele>2153.49</ele>
        <time>2014-03-19T08:15:40Z</time>
      </trkpt>
      <trkpt lat="42.75142" lon="0.4361">
        <ele>2155.89</ele>
        <time>2014-03-19T08:15:53Z</time>
      </trkpt>
      <trkpt lat="42.7514" lon="0.4361">
        <ele>2156.86</ele>
        <time>2014-03-19T08:16:10Z</time>
      </trkpt>
      <trkpt lat="42.75135" lon="0.43618">
        <ele>2158.3</ele>
        <time>2014-03-19T08:16:25Z</time>
      </trkpt>
      <trkpt lat="42.7513" lon="0.43625">
        <ele>2161.18</ele>
        <time>2014-03-19T08:16:38Z</time>
      </trkpt>
      <trkpt lat="42.75125" lon="0.43633">
        <ele>2164.55</ele>
        <time>2014-03-19T08:16:53Z</time>
      </trkpt>
      <trkpt lat="42.75118" lon="0.43641">
        <ele>2166.95</ele>
        <time>2014-03-19T08:17:08Z</time>
      </trkpt>
      <trkpt lat="42.7511" lon="0.43642">
        <ele>2169.35</ele>
        <time>2014-03-19T08:17:19Z</time>
      </trkpt>
      <trkpt lat="42.75102" lon="0.43641">
        <ele>2172.24</ele>
        <time>2014-03-19T08:17:35Z</time>
      </trkpt>
      <trkpt lat="42.75094" lon="0.43641">
        <ele>2174.64</ele>
        <time>2014-03-19T08:17:48Z</time>
      </trkpt>
      <trkpt lat="42.75093" lon="0.4364">
        <ele>2175.6</ele>
        <time>2014-03-19T08:17:53Z</time>
      </trkpt>
      <trkpt lat="42.75094" lon="0.43645">
        <ele>2176.56</ele>
        <time>2014-03-19T08:18:03Z</time>
      </trkpt>
      <trkpt lat="42.75093" lon="0.43654">
        <ele>2178.48</ele>
        <time>2014-03-19T08:18:14Z</time>
      </trkpt>
      <trkpt lat="42.75092" lon="0.43655">
        <ele>2177.04</ele>
        <time>2014-03-19T08:18:33Z</time>
      </trkpt>
      <trkpt lat="42.75089" lon="0.43655">
        <ele>2177.04</ele>
        <time>2014-03-19T08:18:57Z</time>
      </trkpt>
      <trkpt lat="42.75086" lon="0.43654">
        <ele>2177.04</ele>
        <time>2014-03-19T08:19:30Z</time>
      </trkpt>
      <trkpt lat="42.75089" lon="0.43656">
        <ele>2177.04</ele>
        <time>2014-03-19T08:19:55Z</time>
      </trkpt>
      <trkpt lat="42.7509" lon="0.43655">
        <ele>2177.52</ele>
        <time>2014-03-19T08:20:22Z</time>
      </trkpt>
      <trkpt lat="42.75091" lon="0.43656">
        <ele>2177.04</ele>
        <time>2014-03-19T08:20:59Z</time>
      </trkpt>
      <trkpt lat="42.75095" lon="0.43655">
        <ele>2178</ele>
        <time>2014-03-19T08:21:21Z</time>
      </trkpt>
      <trkpt lat="42.75092" lon="0.43654">
        <ele>2178.48</ele>
        <time>2014-03-19T08:21:42Z</time>
      </trkpt>
      <trkpt lat="42.75084" lon="0.43655">
        <ele>2181.37</ele>
        <time>2014-03-19T08:21:55Z</time>
      </trkpt>
      <trkpt lat="42.75076" lon="0.4366">
        <ele>2183.77</ele>
        <time>2014-03-19T08:22:07Z</time>
      </trkpt>
      <trkpt lat="42.75069" lon="0.4367">
        <ele>2186.18</ele>
        <time>2014-03-19T08:22:21Z</time>
      </trkpt>
      <trkpt lat="42.75065" lon="0.43677">
        <ele>2188.1</ele>
        <time>2014-03-19T08:22:33Z</time>
      </trkpt>
      <trkpt lat="42.75062" lon="0.43684">
        <ele>2190.02</ele>
        <time>2014-03-19T08:22:46Z</time>
      </trkpt>
      <trkpt lat="42.75059" lon="0.43694">
        <ele>2191.94</ele>
        <time>2014-03-19T08:23:00Z</time>
      </trkpt>
      <trkpt lat="42.75058" lon="0.43694">
        <ele>2193.39</ele>
        <time>2014-03-19T08:23:12Z</time>
      </trkpt>
      <trkpt lat="42.75054" lon="0.43687">
        <ele>2195.79</ele>
        <time>2014-03-19T08:23:25Z</time>
      </trkpt>
      <trkpt lat="42.75048" lon="0.43677">
        <ele>2198.19</ele>
        <time>2014-03-19T08:23:40Z</time>
      </trkpt>
      <trkpt lat="42.75045" lon="0.43671">
        <ele>2200.59</ele>
        <time>2014-03-19T08:23:52Z</time>
      </trkpt>
      <trkpt lat="42.75042" lon="0.43661">
        <ele>2202.52</ele>
        <time>2014-03-19T08:24:05Z</time>
      </trkpt>
      <trkpt lat="42.7504" lon="0.4366">
        <ele>2203.96</ele>
        <time>2014-03-19T08:24:18Z</time>
      </trkpt>
      <trkpt lat="42.75035" lon="0.4367">
        <ele>2206.36</ele>
        <time>2014-03-19T08:24:32Z</time>
      </trkpt>
      <trkpt lat="42.75033" lon="0.43677">
        <ele>2208.77</ele>
        <time>2014-03-19T08:24:46Z</time>
      </trkpt>
      <trkpt lat="42.75033" lon="0.43685">
        <ele>2210.21</ele>
        <time>2014-03-19T08:25:01Z</time>
      </trkpt>
      <trkpt lat="42.75032" lon="0.43695">
        <ele>2212.61</ele>
        <time>2014-03-19T08:25:13Z</time>
      </trkpt>
      <trkpt lat="42.75032" lon="0.43702">
        <ele>2214.05</ele>
        <time>2014-03-19T08:25:26Z</time>
      </trkpt>
      <trkpt lat="42.75031" lon="0.43703">
        <ele>2214.53</ele>
        <time>2014-03-19T08:25:34Z</time>
      </trkpt>
      <trkpt lat="42.75028" lon="0.43698">
        <ele>2215.01</ele>
        <time>2014-03-19T08:25:44Z</time>
      </trkpt>
      <trkpt lat="42.75026" lon="0.43694">
        <ele>2216.46</ele>
        <time>2014-03-19T08:25:55Z</time>
      </trkpt>
      <trkpt lat="42.75021" lon="0.43687">
        <ele>2218.86</ele>
        <time>2014-03-19T08:26:09Z</time>
      </trkpt>
      <trkpt lat="42.75015" lon="0.43679">
        <ele>2220.78</ele>
        <time>2014-03-19T08:26:22Z</time>
      </trkpt>
      <trkpt lat="42.75009" lon="0.43672">
        <ele>2222.71</ele>
        <time>2014-03-19T08:26:38Z</time>
      </trkpt>
      <trkpt lat="42.75009" lon="0.43671">
        <ele>2223.19</ele>
        <time>2014-03-19T08:26:39Z</time>
      </trkpt>
      <trkpt lat="42.75" lon="0.43662">
        <ele>2226.55</ele>
        <time>2014-03-19T08:26:56Z</time>
      </trkpt>
      <trkpt lat="42.74997" lon="0.43656">
        <ele>2228.47</ele>
        <time>2014-03-19T08:27:09Z</time>
      </trkpt>
      <trkpt lat="42.74998" lon="0.4365">
        <ele>2230.4</ele>
        <time>2014-03-19T08:27:21Z</time>
      </trkpt>
      <trkpt lat="42.74999" lon="0.43637">
        <ele>2232.8</ele>
        <time>2014-03-19T08:27:34Z</time>
      </trkpt>
      <trkpt lat="42.75" lon="0.43634">
        <ele>2234.24</ele>
        <time>2014-03-19T08:27:50Z</time>
      </trkpt>
      <trkpt lat="42.75001" lon="0.43626">
        <ele>2236.16</ele>
        <time>2014-03-19T08:28:01Z</time>
      </trkpt>
      <trkpt lat="42.75002" lon="0.43619">
        <ele>2238.57</ele>
        <time>2014-03-19T08:28:15Z</time>
      </trkpt>
      <trkpt lat="42.75001" lon="0.43613">
        <ele>2239.53</ele>
        <time>2014-03-19T08:28:20Z</time>
      </trkpt>
      <trkpt lat="42.75" lon="0.43606">
        <ele>2240.97</ele>
        <time>2014-03-19T08:28:34Z</time>
      </trkpt>
      <trkpt lat="42.74997" lon="0.43599">
        <ele>2242.89</ele>
        <time>2014-03-19T08:28:43Z</time>
      </trkpt>
      <trkpt lat="42.74993" lon="0.43595">
        <ele>2244.33</ele>
        <time>2014-03-19T08:28:58Z</time>
      </trkpt>
      <trkpt lat="42.74987" lon="0.43584">
        <ele>2246.74</ele>
        <time>2014-03-19T08:29:12Z</time>
      </trkpt>
      <trkpt lat="42.74983" lon="0.43572">
        <ele>2250.1</ele>
        <time>2014-03-19T08:29:28Z</time>
      </trkpt>
      <trkpt lat="42.74975" lon="0.43568">
        <ele>2252.99</ele>
        <time>2014-03-19T08:29:41Z</time>
      </trkpt>
      <trkpt lat="42.7497" lon="0.43566">
        <ele>2255.87</ele>
        <time>2014-03-19T08:29:56Z</time>
      </trkpt>
      <trkpt lat="42.74968" lon="0.43558">
        <ele>2258.27</ele>
        <time>2014-03-19T08:30:14Z</time>
      </trkpt>
      <trkpt lat="42.74963" lon="0.43547">
        <ele>2261.16</ele>
        <time>2014-03-19T08:30:29Z</time>
      </trkpt>
      <trkpt lat="42.74958" lon="0.43534">
        <ele>2263.56</ele>
        <time>2014-03-19T08:30:44Z</time>
      </trkpt>
      <trkpt lat="42.74956" lon="0.43531">
        <ele>2264.04</ele>
        <time>2014-03-19T08:30:48Z</time>
      </trkpt>
      <trkpt lat="42.74948" lon="0.43529">
        <ele>2266.45</ele>
        <time>2014-03-19T08:31:01Z</time>
      </trkpt>
      <trkpt lat="42.74942" lon="0.4353">
        <ele>2268.37</ele>
        <time>2014-03-19T08:31:12Z</time>
      </trkpt>
      <trkpt lat="42.74937" lon="0.43534">
        <ele>2270.77</ele>
        <time>2014-03-19T08:31:24Z</time>
      </trkpt>
      <trkpt lat="42.74932" lon="0.4354">
        <ele>2272.69</ele>
        <time>2014-03-19T08:31:36Z</time>
      </trkpt>
      <trkpt lat="42.74926" lon="0.43553">
        <ele>2276.06</ele>
        <time>2014-03-19T08:31:52Z</time>
      </trkpt>
      <trkpt lat="42.74924" lon="0.43558">
        <ele>2277.02</ele>
        <time>2014-03-19T08:31:57Z</time>
      </trkpt>
      <trkpt lat="42.74924" lon="0.43561">
        <ele>2277.98</ele>
        <time>2014-03-19T08:32:12Z</time>
      </trkpt>
      <trkpt lat="42.74924" lon="0.43561">
        <ele>2277.98</ele>
        <time>2014-03-19T08:32:13Z</time>
      </trkpt>
      <trkpt lat="42.74919" lon="0.43555">
        <ele>2279.9</ele>
        <time>2014-03-19T08:32:24Z</time>
      </trkpt>
      <trkpt lat="42.74915" lon="0.43549">
        <ele>2282.31</ele>
        <time>2014-03-19T08:32:36Z</time>
      </trkpt>
      <trkpt lat="42.74911" lon="0.43536">
        <ele>2285.19</ele>
        <time>2014-03-19T08:32:53Z</time>
      </trkpt>
      <trkpt lat="42.74907" lon="0.43527">
        <ele>2287.11</ele>
        <time>2014-03-19T08:33:04Z</time>
      </trkpt>
      <trkpt lat="42.74901" lon="0.43522">
        <ele>2289.04</ele>
        <time>2014-03-19T08:33:17Z</time>
      </trkpt>
      <trkpt lat="42.74896" lon="0.43516">
        <ele>2291.44</ele>
        <time>2014-03-19T08:33:30Z</time>
      </trkpt>
      <trkpt lat="42.74886" lon="0.43509">
        <ele>2294.32</ele>
        <time>2014-03-19T08:33:44Z</time>
      </trkpt>
      <trkpt lat="42.74882" lon="0.43503">
        <ele>2296.73</ele>
        <time>2014-03-19T08:33:57Z</time>
      </trkpt>
      <trkpt lat="42.74874" lon="0.43499">
        <ele>2299.61</ele>
        <time>2014-03-19T08:34:11Z</time>
      </trkpt>
      <trkpt lat="42.74866" lon="0.43495">
        <ele>2302.01</ele>
        <time>2014-03-19T08:34:26Z</time>
      </trkpt>
      <trkpt lat="42.74858" lon="0.43491">
        <ele>2304.42</ele>
        <time>2014-03-19T08:34:38Z</time>
      </trkpt>
      <trkpt lat="42.74851" lon="0.43486">
        <ele>2306.34</ele>
        <time>2014-03-19T08:34:50Z</time>
      </trkpt>
      <trkpt lat="42.74845" lon="0.4348">
        <ele>2308.74</ele>
        <time>2014-03-19T08:35:04Z</time>
      </trkpt>
      <trkpt lat="42.74837" lon="0.43471">
        <ele>2312.11</ele>
        <time>2014-03-19T08:35:21Z</time>
      </trkpt>
      <trkpt lat="42.74831" lon="0.43463">
        <ele>2314.51</ele>
        <time>2014-03-19T08:35:37Z</time>
      </trkpt>
      <trkpt lat="42.74829" lon="0.43456">
        <ele>2316.91</ele>
        <time>2014-03-19T08:35:51Z</time>
      </trkpt>
      <trkpt lat="42.74825" lon="0.43448">
        <ele>2319.32</ele>
        <time>2014-03-19T08:36:04Z</time>
      </trkpt>
      <trkpt lat="42.74824" lon="0.43436">
        <ele>2321.24</ele>
        <time>2014-03-19T08:36:19Z</time>
      </trkpt>
      <trkpt lat="42.74824" lon="0.43435">
        <ele>2321.24</ele>
        <time>2014-03-19T08:36:20Z</time>
      </trkpt>
      <trkpt lat="42.74826" lon="0.43432">
        <ele>2322.2</ele>
        <time>2014-03-19T08:36:33Z</time>
      </trkpt>
      <trkpt lat="42.74822" lon="0.43433">
        <ele>2323.16</ele>
        <time>2014-03-19T08:36:52Z</time>
      </trkpt>
      <trkpt lat="42.74817" lon="0.43437">
        <ele>2325.09</ele>
        <time>2014-03-19T08:37:09Z</time>
      </trkpt>
      <trkpt lat="42.74811" lon="0.43444">
        <ele>2327.49</ele>
        <time>2014-03-19T08:37:23Z</time>
      </trkpt>
      <trkpt lat="42.74807" lon="0.43456">
        <ele>2330.37</ele>
        <time>2014-03-19T08:37:40Z</time>
      </trkpt>
      <trkpt lat="42.74805" lon="0.43465">
        <ele>2332.3</ele>
        <time>2014-03-19T08:37:52Z</time>
      </trkpt>
      <trkpt lat="42.74805" lon="0.43474">
        <ele>2334.22</ele>
        <time>2014-03-19T08:38:05Z</time>
      </trkpt>
      <trkpt lat="42.74804" lon="0.43483">
        <ele>2336.62</ele>
        <time>2014-03-19T08:38:18Z</time>
      </trkpt>
      <trkpt lat="42.74803" lon="0.43486">
        <ele>2337.1</ele>
        <time>2014-03-19T08:38:29Z</time>
      </trkpt>
      <trkpt lat="42.74801" lon="0.43482">
        <ele>2338.54</ele>
        <time>2014-03-19T08:38:46Z</time>
      </trkpt>
      <trkpt lat="42.74797" lon="0.43476">
        <ele>2340.47</ele>
        <time>2014-03-19T08:39:00Z</time>
      </trkpt>
      <trkpt lat="42.74793" lon="0.43468">
        <ele>2341.91</ele>
        <time>2014-03-19T08:39:11Z</time>
      </trkpt>
      <trkpt lat="42.74788" lon="0.43462">
        <ele>2344.31</ele>
        <time>2014-03-19T08:39:24Z</time>
      </trkpt>
      <trkpt lat="42.74784" lon="0.43456">
        <ele>2346.23</ele>
        <time>2014-03-19T08:39:38Z</time>
      </trkpt>
      <trkpt lat="42.74781" lon="0.43448">
        <ele>2348.16</ele>
        <time>2014-03-19T08:39:51Z</time>
      </trkpt>
      <trkpt lat="42.74777" lon="0.43441">
        <ele>2350.08</ele>
        <time>2014-03-19T08:40:04Z</time>
      </trkpt>
      <trkpt lat="42.74772" lon="0.4343">
        <ele>2352</ele>
        <time>2014-03-19T08:40:17Z</time>
      </trkpt>
      <trkpt lat="42.74771" lon="0.43425">
        <ele>2353.93</ele>
        <time>2014-03-19T08:40:32Z</time>
      </trkpt>
      <trkpt lat="42.74769" lon="0.4342">
        <ele>2356.33</ele>
        <time>2014-03-19T08:40:44Z</time>
      </trkpt>
      <trkpt lat="42.74767" lon="0.43409">
        <ele>2358.73</ele>
        <time>2014-03-19T08:40:57Z</time>
      </trkpt>
      <trkpt lat="42.74765" lon="0.43398">
        <ele>2360.65</ele>
        <time>2014-03-19T08:41:08Z</time>
      </trkpt>
      <trkpt lat="42.74765" lon="0.43396">
        <ele>2361.62</ele>
        <time>2014-03-19T08:41:18Z</time>
      </trkpt>
      <trkpt lat="42.74766" lon="0.43393">
        <ele>2363.54</ele>
        <time>2014-03-19T08:41:34Z</time>
      </trkpt>
      <trkpt lat="42.74768" lon="0.43386">
        <ele>2364.98</ele>
        <time>2014-03-19T08:41:45Z</time>
      </trkpt>
      <trkpt lat="42.74768" lon="0.43384">
        <ele>2365.46</ele>
        <time>2014-03-19T08:42:04Z</time>
      </trkpt>
      <trkpt lat="42.74769" lon="0.43382">
        <ele>2365.46</ele>
        <time>2014-03-19T08:42:24Z</time>
      </trkpt>
      <trkpt lat="42.74771" lon="0.43379">
        <ele>2367.38</ele>
        <time>2014-03-19T08:42:44Z</time>
      </trkpt>
      <trkpt lat="42.74772" lon="0.43377">
        <ele>2367.86</ele>
        <time>2014-03-19T08:42:46Z</time>
      </trkpt>
      <trkpt lat="42.74774" lon="0.43369">
        <ele>2370.27</ele>
        <time>2014-03-19T08:42:59Z</time>
      </trkpt>
      <trkpt lat="42.74778" lon="0.43363">
        <ele>2370.75</ele>
        <time>2014-03-19T08:43:13Z</time>
      </trkpt>
      <trkpt lat="42.74781" lon="0.43355">
        <ele>2373.15</ele>
        <time>2014-03-19T08:43:25Z</time>
      </trkpt>
      <trkpt lat="42.74783" lon="0.4335">
        <ele>2375.07</ele>
        <time>2014-03-19T08:43:36Z</time>
      </trkpt>
      <trkpt lat="42.74786" lon="0.43344">
        <ele>2376.52</ele>
        <time>2014-03-19T08:43:47Z</time>
      </trkpt>
      <trkpt lat="42.74786" lon="0.43342">
        <ele>2377</ele>
        <time>2014-03-19T08:44:02Z</time>
      </trkpt>
      <trkpt lat="42.74787" lon="0.43343">
        <ele>2377</ele>
        <time>2014-03-19T08:44:18Z</time>
      </trkpt>
      <trkpt lat="42.74785" lon="0.43344">
        <ele>2377</ele>
        <time>2014-03-19T08:44:26Z</time>
      </trkpt>
      <trkpt lat="42.74775" lon="0.43344">
        <ele>2379.88</ele>
        <time>2014-03-19T08:44:39Z</time>
      </trkpt>
      <trkpt lat="42.74769" lon="0.43345">
        <ele>2381.8</ele>
        <time>2014-03-19T08:44:50Z</time>
      </trkpt>
      <trkpt lat="42.74761" lon="0.43346">
        <ele>2384.21</ele>
        <time>2014-03-19T08:45:02Z</time>
      </trkpt>
      <trkpt lat="42.74757" lon="0.43347">
        <ele>2386.61</ele>
        <time>2014-03-19T08:45:15Z</time>
      </trkpt>
      <trkpt lat="42.74751" lon="0.43347">
        <ele>2388.53</ele>
        <time>2014-03-19T08:45:27Z</time>
      </trkpt>
      <trkpt lat="42.74745" lon="0.43349">
        <ele>2390.46</ele>
        <time>2014-03-19T08:45:38Z</time>
      </trkpt>
      <trkpt lat="42.74739" lon="0.4335">
        <ele>2392.38</ele>
        <time>2014-03-19T08:45:51Z</time>
      </trkpt>
      <trkpt lat="42.74733" lon="0.43351">
        <ele>2394.3</ele>
        <time>2014-03-19T08:46:02Z</time>
      </trkpt>
      <trkpt lat="42.74727" lon="0.43352">
        <ele>2396.22</ele>
        <time>2014-03-19T08:46:14Z</time>
      </trkpt>
      <trkpt lat="42.74722" lon="0.43354">
        <ele>2398.15</ele>
        <time>2014-03-19T08:46:26Z</time>
      </trkpt>
      <trkpt lat="42.74717" lon="0.43356">
        <ele>2399.59</ele>
        <time>2014-03-19T08:46:38Z</time>
      </trkpt>
      <trkpt lat="42.74714" lon="0.43358">
        <ele>2400.55</ele>
        <time>2014-03-19T08:46:50Z</time>
      </trkpt>
      <trkpt lat="42.74711" lon="0.43356">
        <ele>2400.55</ele>
        <time>2014-03-19T08:46:59Z</time>
      </trkpt>
      <trkpt lat="42.74714" lon="0.43352">
        <ele>2401.99</ele>
        <time>2014-03-19T08:47:08Z</time>
      </trkpt>
      <trkpt lat="42.74718" lon="0.43343">
        <ele>2404.39</ele>
        <time>2014-03-19T08:47:22Z</time>
      </trkpt>
      <trkpt lat="42.7472" lon="0.43337">
        <ele>2405.84</ele>
        <time>2014-03-19T08:47:36Z</time>
      </trkpt>
      <trkpt lat="42.74718" lon="0.43337">
        <ele>2405.84</ele>
        <time>2014-03-19T08:47:52Z</time>
      </trkpt>
      <trkpt lat="42.74716" lon="0.43338">
        <ele>2407.28</ele>
        <time>2014-03-19T08:48:06Z</time>
      </trkpt>
      <trkpt lat="42.7471" lon="0.43341">
        <ele>2409.68</ele>
        <time>2014-03-19T08:48:20Z</time>
      </trkpt>
      <trkpt lat="42.74709" lon="0.43341">
        <ele>2410.64</ele>
        <time>2014-03-19T08:48:34Z</time>
      </trkpt>
      <trkpt lat="42.74707" lon="0.43343">
        <ele>2411.12</ele>
        <time>2014-03-19T08:48:50Z</time>
      </trkpt>
      <trkpt lat="42.74707" lon="0.43344">
        <ele>2412.09</ele>
        <time>2014-03-19T08:49:06Z</time>
      </trkpt>
      <trkpt lat="42.74707" lon="0.43344">
        <ele>2412.09</ele>
        <time>2014-03-19T08:49:23Z</time>
      </trkpt>
      <trkpt lat="42.74707" lon="0.43342">
        <ele>2412.09</ele>
        <time>2014-03-19T08:49:33Z</time>
      </trkpt>
      <trkpt lat="42.74708" lon="0.4334">
        <ele>2413.05</ele>
        <time>2014-03-19T08:49:43Z</time>
      </trkpt>
      <trkpt lat="42.7471" lon="0.43335">
        <ele>2414.49</ele>
        <time>2014-03-19T08:49:57Z</time>
      </trkpt>
      <trkpt lat="42.74713" lon="0.43331">
        <ele>2415.45</ele>
        <time>2014-03-19T08:50:10Z</time>
      </trkpt>
      <trkpt lat="42.74714" lon="0.4333">
        <ele>2415.93</ele>
        <time>2014-03-19T08:50:25Z</time>
      </trkpt>
      <trkpt lat="42.74711" lon="0.43332">
        <ele>2416.41</ele>
        <time>2014-03-19T08:50:30Z</time>
      </trkpt>
      <trkpt lat="42.747" lon="0.43336">
        <ele>2418.81</ele>
        <time>2014-03-19T08:50:43Z</time>
      </trkpt>
      <trkpt lat="42.747" lon="0.43341">
        <ele>2419.78</ele>
        <time>2014-03-19T08:50:56Z</time>
      </trkpt>
      <trkpt lat="42.74699" lon="0.43338">
        <ele>2419.78</ele>
        <time>2014-03-19T08:51:09Z</time>
      </trkpt>
      <trkpt lat="42.74701" lon="0.43332">
        <ele>2421.7</ele>
        <time>2014-03-19T08:51:20Z</time>
      </trkpt>
      <trkpt lat="42.74706" lon="0.43327">
        <ele>2422.66</ele>
        <time>2014-03-19T08:51:33Z</time>
      </trkpt>
      <trkpt lat="42.74707" lon="0.43325">
        <ele>2423.62</ele>
        <time>2014-03-19T08:51:44Z</time>
      </trkpt>
      <trkpt lat="42.7471" lon="0.43319">
        <ele>2425.06</ele>
        <time>2014-03-19T08:51:56Z</time>
      </trkpt>
      <trkpt lat="42.74712" lon="0.43316">
        <ele>2426.99</ele>
        <time>2014-03-19T08:52:09Z</time>
      </trkpt>
      <trkpt lat="42.7471" lon="0.43315">
        <ele>2426.99</ele>
        <time>2014-03-19T08:52:26Z</time>
      </trkpt>
      <trkpt lat="42.7471" lon="0.43316">
        <ele>2426.99</ele>
        <time>2014-03-19T08:52:32Z</time>
      </trkpt>
      <trkpt lat="42.74706" lon="0.43316">
        <ele>2427.95</ele>
        <time>2014-03-19T08:52:38Z</time>
      </trkpt>
      <trkpt lat="42.74698" lon="0.43318">
        <ele>2429.87</ele>
        <time>2014-03-19T08:52:50Z</time>
      </trkpt>
      <trkpt lat="42.74692" lon="0.43321">
        <ele>2431.79</ele>
        <time>2014-03-19T08:53:04Z</time>
      </trkpt>
      <trkpt lat="42.74687" lon="0.43325">
        <ele>2432.75</ele>
        <time>2014-03-19T08:53:16Z</time>
      </trkpt>
      <trkpt lat="42.74683" lon="0.4333">
        <ele>2434.68</ele>
        <time>2014-03-19T08:53:27Z</time>
      </trkpt>
      <trkpt lat="42.74681" lon="0.43332">
        <ele>2435.16</ele>
        <time>2014-03-19T08:53:33Z</time>
      </trkpt>
      <trkpt lat="42.74673" lon="0.43338">
        <ele>2437.56</ele>
        <time>2014-03-19T08:53:46Z</time>
      </trkpt>
      <trkpt lat="42.74671" lon="0.43341">
        <ele>2438.04</ele>
        <time>2014-03-19T08:53:53Z</time>
      </trkpt>
      <trkpt lat="42.74668" lon="0.43344">
        <ele>2439</ele>
        <time>2014-03-19T08:54:05Z</time>
      </trkpt>
      <trkpt lat="42.7467" lon="0.43341">
        <ele>2439.48</ele>
        <time>2014-03-19T08:54:17Z</time>
      </trkpt>
      <trkpt lat="42.74674" lon="0.4334">
        <ele>2439.96</ele>
        <time>2014-03-19T08:54:43Z</time>
      </trkpt>
      <trkpt lat="42.74673" lon="0.43337">
        <ele>2439.48</ele>
        <time>2014-03-19T08:55:00Z</time>
      </trkpt>
      <trkpt lat="42.74674" lon="0.4334">
        <ele>2439.96</ele>
        <time>2014-03-19T08:55:30Z</time>
      </trkpt>
      <trkpt lat="42.74673" lon="0.43336">
        <ele>2439.96</ele>
        <time>2014-03-19T08:55:44Z</time>
      </trkpt>
      <trkpt lat="42.74674" lon="0.43333">
        <ele>2440.44</ele>
        <time>2014-03-19T08:55:57Z</time>
      </trkpt>
      <trkpt lat="42.74678" lon="0.43318">
        <ele>2443.33</ele>
        <time>2014-03-19T08:56:12Z</time>
      </trkpt>
      <trkpt lat="42.74683" lon="0.43306">
        <ele>2445.25</ele>
        <time>2014-03-19T08:56:25Z</time>
      </trkpt>
      <trkpt lat="42.74684" lon="0.43301">
        <ele>2446.69</ele>
        <time>2014-03-19T08:56:31Z</time>
      </trkpt>
      <trkpt lat="42.74689" lon="0.43291">
        <ele>2448.62</ele>
        <time>2014-03-19T08:56:42Z</time>
      </trkpt>
      <trkpt lat="42.74693" lon="0.43284">
        <ele>2450.54</ele>
        <time>2014-03-19T08:56:55Z</time>
      </trkpt>
      <trkpt lat="42.74697" lon="0.43279">
        <ele>2452.94</ele>
        <time>2014-03-19T08:57:07Z</time>
      </trkpt>
      <trkpt lat="42.74703" lon="0.43272">
        <ele>2454.86</ele>
        <time>2014-03-19T08:57:19Z</time>
      </trkpt>
      <trkpt lat="42.7471" lon="0.43265">
        <ele>2457.27</ele>
        <time>2014-03-19T08:57:34Z</time>
      </trkpt>
      <trkpt lat="42.74717" lon="0.43256">
        <ele>2458.71</ele>
        <time>2014-03-19T08:57:47Z</time>
      </trkpt>
      <trkpt lat="42.74724" lon="0.43248">
        <ele>2460.63</ele>
        <time>2014-03-19T08:58:04Z</time>
      </trkpt>
      <trkpt lat="42.74724" lon="0.43248">
        <ele>2461.11</ele>
        <time>2014-03-19T08:58:05Z</time>
      </trkpt>
      <trkpt lat="42.7472" lon="0.43248">
        <ele>2462.07</ele>
        <time>2014-03-19T08:58:16Z</time>
      </trkpt>
      <trkpt lat="42.74715" lon="0.43244">
        <ele>2464.96</ele>
        <time>2014-03-19T08:58:28Z</time>
      </trkpt>
      <trkpt lat="42.74717" lon="0.43241">
        <ele>2465.44</ele>
        <time>2014-03-19T08:58:31Z</time>
      </trkpt>
      <trkpt lat="42.74725" lon="0.43232">
        <ele>2467.84</ele>
        <time>2014-03-19T08:58:49Z</time>
      </trkpt>
      <trkpt lat="42.7473" lon="0.43223">
        <ele>2469.76</ele>
        <time>2014-03-19T08:59:02Z</time>
      </trkpt>
      <trkpt lat="42.74736" lon="0.43213">
        <ele>2472.17</ele>
        <time>2014-03-19T08:59:16Z</time>
      </trkpt>
      <trkpt lat="42.7474" lon="0.43206">
        <ele>2473.13</ele>
        <time>2014-03-19T08:59:27Z</time>
      </trkpt>
      <trkpt lat="42.74743" lon="0.43203">
        <ele>2474.09</ele>
        <time>2014-03-19T08:59:37Z</time>
      </trkpt>
      <trkpt lat="42.74745" lon="0.43199">
        <ele>2475.05</ele>
        <time>2014-03-19T08:59:41Z</time>
      </trkpt>
      <trkpt lat="42.74741" lon="0.43197">
        <ele>2476.97</ele>
        <time>2014-03-19T08:59:49Z</time>
      </trkpt>
      <trkpt lat="42.74734" lon="0.43197">
        <ele>2478.9</ele>
        <time>2014-03-19T09:00:00Z</time>
      </trkpt>
      <trkpt lat="42.74727" lon="0.43194">
        <ele>2480.82</ele>
        <time>2014-03-19T09:00:11Z</time>
      </trkpt>
      <trkpt lat="42.7473" lon="0.43189">
        <ele>2481.3</ele>
        <time>2014-03-19T09:00:23Z</time>
      </trkpt>
      <trkpt lat="42.74736" lon="0.43181">
        <ele>2482.26</ele>
        <time>2014-03-19T09:00:34Z</time>
      </trkpt>
      <trkpt lat="42.74737" lon="0.4318">
        <ele>2482.74</ele>
        <time>2014-03-19T09:00:36Z</time>
      </trkpt>
      <trkpt lat="42.74743" lon="0.43174">
        <ele>2484.66</ele>
        <time>2014-03-19T09:00:49Z</time>
      </trkpt>
      <trkpt lat="42.74746" lon="0.43168">
        <ele>2487.07</ele>
        <time>2014-03-19T09:01:02Z</time>
      </trkpt>
      <trkpt lat="42.74747" lon="0.43164">
        <ele>2487.55</ele>
        <time>2014-03-19T09:01:10Z</time>
      </trkpt>
      <trkpt lat="42.7475" lon="0.43156">
        <ele>2489.95</ele>
        <time>2014-03-19T09:01:22Z</time>
      </trkpt>
      <trkpt lat="42.74755" lon="0.43149">
        <ele>2491.39</ele>
        <time>2014-03-19T09:01:35Z</time>
      </trkpt>
      <trkpt lat="42.74754" lon="0.43148">
        <ele>2493.32</ele>
        <time>2014-03-19T09:01:47Z</time>
      </trkpt>
      <trkpt lat="42.7475" lon="0.43147">
        <ele>2494.28</ele>
        <time>2014-03-19T09:01:59Z</time>
      </trkpt>
      <trkpt lat="42.74745" lon="0.43144">
        <ele>2496.2</ele>
        <time>2014-03-19T09:02:09Z</time>
      </trkpt>
      <trkpt lat="42.74744" lon="0.43144">
        <ele>2496.2</ele>
        <time>2014-03-19T09:02:11Z</time>
      </trkpt>
      <trkpt lat="42.74742" lon="0.43141">
        <ele>2497.64</ele>
        <time>2014-03-19T09:02:26Z</time>
      </trkpt>
      <trkpt lat="42.74745" lon="0.43137">
        <ele>2499.08</ele>
        <time>2014-03-19T09:02:35Z</time>
      </trkpt>
      <trkpt lat="42.74749" lon="0.43134">
        <ele>2500.05</ele>
        <time>2014-03-19T09:02:41Z</time>
      </trkpt>
      <trkpt lat="42.74756" lon="0.43129">
        <ele>2501.97</ele>
        <time>2014-03-19T09:02:54Z</time>
      </trkpt>
      <trkpt lat="42.74759" lon="0.43128">
        <ele>2503.41</ele>
        <time>2014-03-19T09:03:06Z</time>
      </trkpt>
      <trkpt lat="42.7476" lon="0.43128">
        <ele>2503.41</ele>
        <time>2014-03-19T09:03:19Z</time>
      </trkpt>
      <trkpt lat="42.74758" lon="0.43127">
        <ele>2504.37</ele>
        <time>2014-03-19T09:03:28Z</time>
      </trkpt>
      <trkpt lat="42.74755" lon="0.43126">
        <ele>2504.85</ele>
        <time>2014-03-19T09:03:31Z</time>
      </trkpt>
      <trkpt lat="42.74753" lon="0.4312">
        <ele>2506.29</ele>
        <time>2014-03-19T09:03:43Z</time>
      </trkpt>
      <trkpt lat="42.74754" lon="0.43121">
        <ele>2507.74</ele>
        <time>2014-03-19T09:03:58Z</time>
      </trkpt>
      <trkpt lat="42.7476" lon="0.43121">
        <ele>2508.7</ele>
        <time>2014-03-19T09:04:11Z</time>
      </trkpt>
      <trkpt lat="42.74762" lon="0.43119">
        <ele>2509.66</ele>
        <time>2014-03-19T09:04:24Z</time>
      </trkpt>
      <trkpt lat="42.74763" lon="0.43116">
        <ele>2510.14</ele>
        <time>2014-03-19T09:04:38Z</time>
      </trkpt>
      <trkpt lat="42.74759" lon="0.43114">
        <ele>2511.58</ele>
        <time>2014-03-19T09:04:51Z</time>
      </trkpt>
      <trkpt lat="42.74755" lon="0.43102">
        <ele>2512.54</ele>
        <time>2014-03-19T09:05:05Z</time>
      </trkpt>
      <trkpt lat="42.74754" lon="0.43094">
        <ele>2513.5</ele>
        <time>2014-03-19T09:05:19Z</time>
      </trkpt>
      <trkpt lat="42.74756" lon="0.43085">
        <ele>2512.54</ele>
        <time>2014-03-19T09:05:30Z</time>
      </trkpt>
      <trkpt lat="42.74758" lon="0.43081">
        <ele>2512.54</ele>
        <time>2014-03-19T09:05:40Z</time>
      </trkpt>
      <trkpt lat="42.74758" lon="0.43081">
        <ele>2512.54</ele>
        <time>2014-03-19T09:06:01Z</time>
      </trkpt>
      <trkpt lat="42.74754" lon="0.43082">
        <ele>2511.58</ele>
        <time>2014-03-19T09:06:17Z</time>
      </trkpt>
      <trkpt lat="42.74755" lon="0.43082">
        <ele>2511.1</ele>
        <time>2014-03-19T09:06:18Z</time>
      </trkpt>
      <trkpt lat="42.74755" lon="0.43083">
        <ele>2511.58</ele>
        <time>2014-03-19T09:06:32Z</time>
      </trkpt>
      <trkpt lat="42.74758" lon="0.43082">
        <ele>2511.58</ele>
        <time>2014-03-19T09:07:04Z</time>
      </trkpt>
      <trkpt lat="42.74759" lon="0.43082">
        <ele>2511.58</ele>
        <time>2014-03-19T09:07:30Z</time>
      </trkpt>
      <trkpt lat="42.74755" lon="0.43082">
        <ele>2511.58</ele>
        <time>2014-03-19T09:08:01Z</time>
      </trkpt>
      <trkpt lat="42.74756" lon="0.43082">
        <ele>2511.1</ele>
        <time>2014-03-19T09:08:47Z</time>
      </trkpt>
      <trkpt lat="42.74757" lon="0.43078">
        <ele>2511.58</ele>
        <time>2014-03-19T09:09:26Z</time>
      </trkpt>
      <trkpt lat="42.74757" lon="0.43078">
        <ele>2511.58</ele>
        <time>2014-03-19T09:10:00Z</time>
      </trkpt>
      <trkpt lat="42.74757" lon="0.43077">
        <ele>2511.58</ele>
        <time>2014-03-19T09:10:29Z</time>
      </trkpt>
      <trkpt lat="42.74756" lon="0.43079">
        <ele>2511.1</ele>
        <time>2014-03-19T09:11:07Z</time>
      </trkpt>
      <trkpt lat="42.74756" lon="0.43077">
        <ele>2511.1</ele>
        <time>2014-03-19T09:12:08Z</time>
      </trkpt>
      <trkpt lat="42.74756" lon="0.43079">
        <ele>2511.58</ele>
        <time>2014-03-19T09:13:00Z</time>
      </trkpt>
      <trkpt lat="42.74756" lon="0.43078">
        <ele>2511.58</ele>
        <time>2014-03-19T09:13:37Z</time>
      </trkpt>
      <trkpt lat="42.74757" lon="0.43078">
        <ele>2511.1</ele>
        <time>2014-03-19T09:14:30Z</time>
      </trkpt>
      <trkpt lat="42.74758" lon="0.43076">
        <ele>2511.1</ele>
        <time>2014-03-19T09:15:17Z</time>
      </trkpt>
      <trkpt lat="42.74757" lon="0.43077">
        <ele>2510.62</ele>
        <time>2014-03-19T09:16:03Z</time>
      </trkpt>
      <trkpt lat="42.74756" lon="0.43077">
        <ele>2510.62</ele>
        <time>2014-03-19T09:16:51Z</time>
      </trkpt>
      <trkpt lat="42.74757" lon="0.43077">
        <ele>2510.62</ele>
        <time>2014-03-19T09:17:30Z</time>
      </trkpt>
      <trkpt lat="42.74757" lon="0.43075">
        <ele>2510.62</ele>
        <time>2014-03-19T09:18:17Z</time>
      </trkpt>
      <trkpt lat="42.74756" lon="0.43076">
        <ele>2510.62</ele>
        <time>2014-03-19T09:18:57Z</time>
      </trkpt>
      <trkpt lat="42.74755" lon="0.43079">
        <ele>2510.62</ele>
        <time>2014-03-19T09:19:32Z</time>
      </trkpt>
      <trkpt lat="42.74756" lon="0.43079">
        <ele>2510.62</ele>
        <time>2014-03-19T09:20:14Z</time>
      </trkpt>
      <trkpt lat="42.74756" lon="0.43078">
        <ele>2510.62</ele>
        <time>2014-03-19T09:20:57Z</time>
      </trkpt>
      <trkpt lat="42.74754" lon="0.4308">
        <ele>2510.62</ele>
        <time>2014-03-19T09:21:37Z</time>
      </trkpt>
      <trkpt lat="42.74754" lon="0.4308">
        <ele>2510.62</ele>
        <time>2014-03-19T09:22:12Z</time>
      </trkpt>
      <trkpt lat="42.74754" lon="0.4308">
        <ele>2510.62</ele>
        <time>2014-03-19T09:22:58Z</time>
      </trkpt>
      <trkpt lat="42.74754" lon="0.43083">
        <ele>2510.62</ele>
        <time>2014-03-19T09:23:38Z</time>
      </trkpt>
      <trkpt lat="42.74757" lon="0.4308">
        <ele>2510.62</ele>
        <time>2014-03-19T09:24:26Z</time>
      </trkpt>
      <trkpt lat="42.74756" lon="0.43082">
        <ele>2510.62</ele>
        <time>2014-03-19T09:25:08Z</time>
      </trkpt>
      <trkpt lat="42.74756" lon="0.4308">
        <ele>2511.1</ele>
        <time>2014-03-19T09:25:48Z</time>
      </trkpt>
      <trkpt lat="42.74756" lon="0.43081">
        <ele>2510.62</ele>
        <time>2014-03-19T09:26:22Z</time>
      </trkpt>
      <trkpt lat="42.74756" lon="0.4308">
        <ele>2511.1</ele>
        <time>2014-03-19T09:26:54Z</time>
      </trkpt>
      <trkpt lat="42.74756" lon="0.43081">
        <ele>2511.1</ele>
        <time>2014-03-19T09:27:24Z</time>
      </trkpt>
      <trkpt lat="42.74757" lon="0.43081">
        <ele>2511.1</ele>
        <time>2014-03-19T09:27:48Z</time>
      </trkpt>
      <trkpt lat="42.74756" lon="0.43081">
        <ele>2511.1</ele>
        <time>2014-03-19T09:28:13Z</time>
      </trkpt>
      <trkpt lat="42.74757" lon="0.43082">
        <ele>2510.62</ele>
        <time>2014-03-19T09:28:50Z</time>
      </trkpt>
      <trkpt lat="42.74759" lon="0.43079">
        <ele>2510.62</ele>
        <time>2014-03-19T09:29:32Z</time>
      </trkpt>
      <trkpt lat="42.74758" lon="0.4308">
        <ele>2510.62</ele>
        <time>2014-03-19T09:30:06Z</time>
      </trkpt>
      <trkpt lat="42.74757" lon="0.4308">
        <ele>2510.62</ele>
        <time>2014-03-19T09:30:43Z</time>
      </trkpt>
      <trkpt lat="42.74758" lon="0.43078">
        <ele>2510.62</ele>
        <time>2014-03-19T09:31:27Z</time>
      </trkpt>
      <trkpt lat="42.74758" lon="0.4308">
        <ele>2511.1</ele>
        <time>2014-03-19T09:32:00Z</time>
      </trkpt>
      <trkpt lat="42.74757" lon="0.4308">
        <ele>2511.1</ele>
        <time>2014-03-19T09:32:39Z</time>
      </trkpt>
      <trkpt lat="42.74756" lon="0.43083">
        <ele>2511.1</ele>
        <time>2014-03-19T09:33:16Z</time>
      </trkpt>
      <trkpt lat="42.74757" lon="0.4308">
        <ele>2510.62</ele>
        <time>2014-03-19T09:33:43Z</time>
      </trkpt>
      <trkpt lat="42.7476" lon="0.43077">
        <ele>2512.54</ele>
        <time>2014-03-19T09:34:12Z</time>
      </trkpt>
      <trkpt lat="42.74758" lon="0.4308">
        <ele>2512.54</ele>
        <time>2014-03-19T09:34:27Z</time>
      </trkpt>
      <trkpt lat="42.74757" lon="0.43081">
        <ele>2512.54</ele>
        <time>2014-03-19T09:34:43Z</time>
      </trkpt>
      <trkpt lat="42.74756" lon="0.43081">
        <ele>2512.06</ele>
        <time>2014-03-19T09:34:57Z</time>
      </trkpt>
      <trkpt lat="42.74754" lon="0.43084">
        <ele>2512.54</ele>
        <time>2014-03-19T09:35:09Z</time>
      </trkpt>
      <trkpt lat="42.74753" lon="0.43093">
        <ele>2512.06</ele>
        <time>2014-03-19T09:35:14Z</time>
      </trkpt>
      <trkpt lat="42.74752" lon="0.43099">
        <ele>2511.58</ele>
        <time>2014-03-19T09:35:23Z</time>
      </trkpt>
      <trkpt lat="42.74753" lon="0.43103">
        <ele>2511.1</ele>
        <time>2014-03-19T09:35:27Z</time>
      </trkpt>
      <trkpt lat="42.74754" lon="0.43108">
        <ele>2511.1</ele>
        <time>2014-03-19T09:35:40Z</time>
      </trkpt>
      <trkpt lat="42.74755" lon="0.43109">
        <ele>2510.62</ele>
        <time>2014-03-19T09:35:48Z</time>
      </trkpt>
      <trkpt lat="42.74758" lon="0.43111">
        <ele>2510.62</ele>
        <time>2014-03-19T09:35:58Z</time>
      </trkpt>
      <trkpt lat="42.74755" lon="0.43116">
        <ele>2508.22</ele>
        <time>2014-03-19T09:36:02Z</time>
      </trkpt>
      <trkpt lat="42.74755" lon="0.43124">
        <ele>2502.93</ele>
        <time>2014-03-19T09:36:06Z</time>
      </trkpt>
      <trkpt lat="42.74749" lon="0.43133">
        <ele>2499.57</ele>
        <time>2014-03-19T09:36:11Z</time>
      </trkpt>
      <trkpt lat="42.74758" lon="0.43135">
        <ele>2496.68</ele>
        <time>2014-03-19T09:36:23Z</time>
      </trkpt>
      <trkpt lat="42.74758" lon="0.43136">
        <ele>2496.2</ele>
        <time>2014-03-19T09:36:25Z</time>
      </trkpt>
      <trkpt lat="42.74755" lon="0.43144">
        <ele>2492.84</ele>
        <time>2014-03-19T09:36:29Z</time>
      </trkpt>
      <trkpt lat="42.74746" lon="0.43153">
        <ele>2490.91</ele>
        <time>2014-03-19T09:36:33Z</time>
      </trkpt>
      <trkpt lat="42.7474" lon="0.43159">
        <ele>2489.47</ele>
        <time>2014-03-19T09:36:36Z</time>
      </trkpt>
      <trkpt lat="42.74737" lon="0.43167">
        <ele>2488.51</ele>
        <time>2014-03-19T09:36:39Z</time>
      </trkpt>
      <trkpt lat="42.74747" lon="0.43165">
        <ele>2486.11</ele>
        <time>2014-03-19T09:36:44Z</time>
      </trkpt>
      <trkpt lat="42.74775" lon="0.43156">
        <ele>2481.78</ele>
        <time>2014-03-19T09:36:56Z</time>
      </trkpt>
      <trkpt lat="42.74781" lon="0.43156">
        <ele>2480.34</ele>
        <time>2014-03-19T09:37:04Z</time>
      </trkpt>
      <trkpt lat="42.7479" lon="0.43156">
        <ele>2476.49</ele>
        <time>2014-03-19T09:37:10Z</time>
      </trkpt>
      <trkpt lat="42.74794" lon="0.43162">
        <ele>2473.61</ele>
        <time>2014-03-19T09:37:15Z</time>
      </trkpt>
      <trkpt lat="42.74798" lon="0.43165">
        <ele>2470.73</ele>
        <time>2014-03-19T09:37:19Z</time>
      </trkpt>
      <trkpt lat="42.74801" lon="0.43171">
        <ele>2467.84</ele>
        <time>2014-03-19T09:37:23Z</time>
      </trkpt>
      <trkpt lat="42.74803" lon="0.4317">
        <ele>2466.88</ele>
        <time>2014-03-19T09:37:25Z</time>
      </trkpt>
      <trkpt lat="42.74806" lon="0.43169">
        <ele>2466.4</ele>
        <time>2014-03-19T09:37:27Z</time>
      </trkpt>
      <trkpt lat="42.74809" lon="0.43173">
        <ele>2464</ele>
        <time>2014-03-19T09:37:30Z</time>
      </trkpt>
      <trkpt lat="42.74808" lon="0.43175">
        <ele>2463.52</ele>
        <time>2014-03-19T09:37:36Z</time>
      </trkpt>
      <trkpt lat="42.74807" lon="0.43182">
        <ele>2462.55</ele>
        <time>2014-03-19T09:37:41Z</time>
      </trkpt>
      <trkpt lat="42.7481" lon="0.43184">
        <ele>2460.63</ele>
        <time>2014-03-19T09:37:45Z</time>
      </trkpt>
      <trkpt lat="42.74811" lon="0.43183">
        <ele>2460.15</ele>
        <time>2014-03-19T09:37:46Z</time>
      </trkpt>
      <trkpt lat="42.74816" lon="0.43177">
        <ele>2459.19</ele>
        <time>2014-03-19T09:37:50Z</time>
      </trkpt>
      <trkpt lat="42.74818" lon="0.43181">
        <ele>2457.27</ele>
        <time>2014-03-19T09:37:53Z</time>
      </trkpt>
      <trkpt lat="42.74818" lon="0.43185">
        <ele>2456.79</ele>
        <time>2014-03-19T09:37:55Z</time>
      </trkpt>
      <trkpt lat="42.74821" lon="0.43186">
        <ele>2455.34</ele>
        <time>2014-03-19T09:37:58Z</time>
      </trkpt>
      <trkpt lat="42.74823" lon="0.43184">
        <ele>2455.34</ele>
        <time>2014-03-19T09:38:10Z</time>
      </trkpt>
      <trkpt lat="42.74826" lon="0.43186">
        <ele>2452.94</ele>
        <time>2014-03-19T09:38:16Z</time>
      </trkpt>
      <trkpt lat="42.74829" lon="0.43189">
        <ele>2450.54</ele>
        <time>2014-03-19T09:38:21Z</time>
      </trkpt>
      <trkpt lat="42.74837" lon="0.43172">
        <ele>2447.17</ele>
        <time>2014-03-19T09:38:34Z</time>
      </trkpt>
      <trkpt lat="42.74839" lon="0.43173">
        <ele>2446.21</ele>
        <time>2014-03-19T09:38:36Z</time>
      </trkpt>
      <trkpt lat="42.7484" lon="0.43178">
        <ele>2444.77</ele>
        <time>2014-03-19T09:38:39Z</time>
      </trkpt>
      <trkpt lat="42.74847" lon="0.43171">
        <ele>2439.96</ele>
        <time>2014-03-19T09:38:47Z</time>
      </trkpt>
      <trkpt lat="42.74847" lon="0.43182">
        <ele>2437.56</ele>
        <time>2014-03-19T09:38:53Z</time>
      </trkpt>
      <trkpt lat="42.74851" lon="0.43181">
        <ele>2434.2</ele>
        <time>2014-03-19T09:38:57Z</time>
      </trkpt>
      <trkpt lat="42.74852" lon="0.4318">
        <ele>2433.71</ele>
        <time>2014-03-19T09:38:58Z</time>
      </trkpt>
      <trkpt lat="42.74857" lon="0.43182">
        <ele>2430.35</ele>
        <time>2014-03-19T09:39:03Z</time>
      </trkpt>
      <trkpt lat="42.7486" lon="0.43184">
        <ele>2427.47</ele>
        <time>2014-03-19T09:39:06Z</time>
      </trkpt>
      <trkpt lat="42.7486" lon="0.43182">
        <ele>2427.47</ele>
        <time>2014-03-19T09:39:07Z</time>
      </trkpt>
      <trkpt lat="42.74864" lon="0.43185">
        <ele>2424.1</ele>
        <time>2014-03-19T09:39:11Z</time>
      </trkpt>
      <trkpt lat="42.74866" lon="0.43184">
        <ele>2421.22</ele>
        <time>2014-03-19T09:39:17Z</time>
      </trkpt>
      <trkpt lat="42.74866" lon="0.43183">
        <ele>2421.7</ele>
        <time>2014-03-19T09:39:23Z</time>
      </trkpt>
      <trkpt lat="42.7487" lon="0.4319">
        <ele>2417.37</ele>
        <time>2014-03-19T09:39:28Z</time>
      </trkpt>
      <trkpt lat="42.74872" lon="0.43189">
        <ele>2415.93</ele>
        <time>2014-03-19T09:39:29Z</time>
      </trkpt>
      <trkpt lat="42.74874" lon="0.43185">
        <ele>2414.97</ele>
        <time>2014-03-19T09:39:31Z</time>
      </trkpt>
      <trkpt lat="42.74878" lon="0.43191">
        <ele>2411.6</ele>
        <time>2014-03-19T09:39:35Z</time>
      </trkpt>
      <trkpt lat="42.7488" lon="0.4319">
        <ele>2408.72</ele>
        <time>2014-03-19T09:39:37Z</time>
      </trkpt>
      <trkpt lat="42.74884" lon="0.43182">
        <ele>2406.32</ele>
        <time>2014-03-19T09:39:41Z</time>
      </trkpt>
      <trkpt lat="42.74883" lon="0.43182">
        <ele>2406.8</ele>
        <time>2014-03-19T09:39:46Z</time>
      </trkpt>
      <trkpt lat="42.74885" lon="0.43195">
        <ele>2402.95</ele>
        <time>2014-03-19T09:39:51Z</time>
      </trkpt>
      <trkpt lat="42.74886" lon="0.43198">
        <ele>2401.99</ele>
        <time>2014-03-19T09:39:52Z</time>
      </trkpt>
      <trkpt lat="42.74892" lon="0.432">
        <ele>2396.7</ele>
        <time>2014-03-19T09:39:56Z</time>
      </trkpt>
      <trkpt lat="42.74896" lon="0.43201">
        <ele>2393.34</ele>
        <time>2014-03-19T09:39:59Z</time>
      </trkpt>
      <trkpt lat="42.74901" lon="0.43197">
        <ele>2389.49</ele>
        <time>2014-03-19T09:40:02Z</time>
      </trkpt>
      <trkpt lat="42.74902" lon="0.43199">
        <ele>2388.05</ele>
        <time>2014-03-19T09:40:03Z</time>
      </trkpt>
      <trkpt lat="42.7491" lon="0.43198">
        <ele>2381.8</ele>
        <time>2014-03-19T09:40:08Z</time>
      </trkpt>
      <trkpt lat="42.74916" lon="0.43201">
        <ele>2377.48</ele>
        <time>2014-03-19T09:40:12Z</time>
      </trkpt>
      <trkpt lat="42.74917" lon="0.43196">
        <ele>2376.04</ele>
        <time>2014-03-19T09:40:13Z</time>
      </trkpt>
      <trkpt lat="42.74919" lon="0.43177">
        <ele>2373.63</ele>
        <time>2014-03-19T09:40:16Z</time>
      </trkpt>
      <trkpt lat="42.74923" lon="0.43158">
        <ele>2372.19</ele>
        <time>2014-03-19T09:40:19Z</time>
      </trkpt>
      <trkpt lat="42.74931" lon="0.43143">
        <ele>2370.27</ele>
        <time>2014-03-19T09:40:22Z</time>
      </trkpt>
      <trkpt lat="42.74938" lon="0.43131">
        <ele>2369.31</ele>
        <time>2014-03-19T09:40:24Z</time>
      </trkpt>
      <trkpt lat="42.74945" lon="0.4312">
        <ele>2367.86</ele>
        <time>2014-03-19T09:40:26Z</time>
      </trkpt>
      <trkpt lat="42.74958" lon="0.4311">
        <ele>2365.46</ele>
        <time>2014-03-19T09:40:30Z</time>
      </trkpt>
      <trkpt lat="42.74964" lon="0.43119">
        <ele>2359.21</ele>
        <time>2014-03-19T09:40:34Z</time>
      </trkpt>
      <trkpt lat="42.74969" lon="0.43123">
        <ele>2356.33</ele>
        <time>2014-03-19T09:40:36Z</time>
      </trkpt>
      <trkpt lat="42.74973" lon="0.43129">
        <ele>2352</ele>
        <time>2014-03-19T09:40:38Z</time>
      </trkpt>
      <trkpt lat="42.74978" lon="0.43133">
        <ele>2348.64</ele>
        <time>2014-03-19T09:40:40Z</time>
      </trkpt>
      <trkpt lat="42.74983" lon="0.43138">
        <ele>2345.27</ele>
        <time>2014-03-19T09:40:42Z</time>
      </trkpt>
      <trkpt lat="42.74987" lon="0.43137">
        <ele>2344.31</ele>
        <time>2014-03-19T09:40:43Z</time>
      </trkpt>
      <trkpt lat="42.74996" lon="0.43142">
        <ele>2338.06</ele>
        <time>2014-03-19T09:40:48Z</time>
      </trkpt>
      <trkpt lat="42.75001" lon="0.43146">
        <ele>2334.7</ele>
        <time>2014-03-19T09:40:50Z</time>
      </trkpt>
      <trkpt lat="42.75007" lon="0.4315">
        <ele>2330.37</ele>
        <time>2014-03-19T09:40:52Z</time>
      </trkpt>
      <trkpt lat="42.75012" lon="0.43146">
        <ele>2327.49</ele>
        <time>2014-03-19T09:40:55Z</time>
      </trkpt>
      <trkpt lat="42.75013" lon="0.43146">
        <ele>2327.97</ele>
        <time>2014-03-19T09:41:04Z</time>
      </trkpt>
      <trkpt lat="42.75022" lon="0.43138">
        <ele>2325.57</ele>
        <time>2014-03-19T09:41:08Z</time>
      </trkpt>
      <trkpt lat="42.75033" lon="0.4312">
        <ele>2322.68</ele>
        <time>2014-03-19T09:41:13Z</time>
      </trkpt>
      <trkpt lat="42.75039" lon="0.43122">
        <ele>2318.36</ele>
        <time>2014-03-19T09:41:16Z</time>
      </trkpt>
      <trkpt lat="42.75047" lon="0.43119">
        <ele>2314.51</ele>
        <time>2014-03-19T09:41:18Z</time>
      </trkpt>
      <trkpt lat="42.75059" lon="0.43106">
        <ele>2311.15</ele>
        <time>2014-03-19T09:41:21Z</time>
      </trkpt>
      <trkpt lat="42.75084" lon="0.43087">
        <ele>2306.34</ele>
        <time>2014-03-19T09:41:27Z</time>
      </trkpt>
      <trkpt lat="42.75095" lon="0.43081">
        <ele>2302.49</ele>
        <time>2014-03-19T09:41:31Z</time>
      </trkpt>
      <trkpt lat="42.75108" lon="0.43071">
        <ele>2298.65</ele>
        <time>2014-03-19T09:41:35Z</time>
      </trkpt>
      <trkpt lat="42.75125" lon="0.43057">
        <ele>2294.8</ele>
        <time>2014-03-19T09:41:38Z</time>
      </trkpt>
      <trkpt lat="42.75145" lon="0.4304">
        <ele>2291.44</ele>
        <time>2014-03-19T09:41:42Z</time>
      </trkpt>
      <trkpt lat="42.75164" lon="0.43022">
        <ele>2288.08</ele>
        <time>2014-03-19T09:41:46Z</time>
      </trkpt>
      <trkpt lat="42.75168" lon="0.43018">
        <ele>2288.08</ele>
        <time>2014-03-19T09:41:47Z</time>
      </trkpt>
      <trkpt lat="42.7518" lon="0.43016">
        <ele>2283.27</ele>
        <time>2014-03-19T09:41:51Z</time>
      </trkpt>
      <trkpt lat="42.75185" lon="0.4302">
        <ele>2277.5</ele>
        <time>2014-03-19T09:41:53Z</time>
      </trkpt>
      <trkpt lat="42.75188" lon="0.43026">
        <ele>2274.14</ele>
        <time>2014-03-19T09:41:55Z</time>
      </trkpt>
      <trkpt lat="42.75191" lon="0.43029">
        <ele>2271.25</ele>
        <time>2014-03-19T09:41:56Z</time>
      </trkpt>
      <trkpt lat="42.75194" lon="0.43036">
        <ele>2266.93</ele>
        <time>2014-03-19T09:41:58Z</time>
      </trkpt>
      <trkpt lat="42.75198" lon="0.43041">
        <ele>2263.08</ele>
        <time>2014-03-19T09:42:00Z</time>
      </trkpt>
      <trkpt lat="42.75202" lon="0.43047">
        <ele>2259.72</ele>
        <time>2014-03-19T09:42:02Z</time>
      </trkpt>
      <trkpt lat="42.75205" lon="0.43051">
        <ele>2256.35</ele>
        <time>2014-03-19T09:42:03Z</time>
      </trkpt>
      <trkpt lat="42.75208" lon="0.43059">
        <ele>2251.06</ele>
        <time>2014-03-19T09:42:05Z</time>
      </trkpt>
      <trkpt lat="42.7521" lon="0.43069">
        <ele>2247.22</ele>
        <time>2014-03-19T09:42:07Z</time>
      </trkpt>
      <trkpt lat="42.75212" lon="0.43074">
        <ele>2243.37</ele>
        <time>2014-03-19T09:42:08Z</time>
      </trkpt>
      <trkpt lat="42.75217" lon="0.43078">
        <ele>2239.53</ele>
        <time>2014-03-19T09:42:10Z</time>
      </trkpt>
      <trkpt lat="42.75221" lon="0.43086">
        <ele>2235.2</ele>
        <time>2014-03-19T09:42:12Z</time>
      </trkpt>
      <trkpt lat="42.75225" lon="0.43089">
        <ele>2231.84</ele>
        <time>2014-03-19T09:42:13Z</time>
      </trkpt>
      <trkpt lat="42.7523" lon="0.43097">
        <ele>2227.51</ele>
        <time>2014-03-19T09:42:15Z</time>
      </trkpt>
      <trkpt lat="42.75233" lon="0.43109">
        <ele>2221.26</ele>
        <time>2014-03-19T09:42:17Z</time>
      </trkpt>
      <trkpt lat="42.75237" lon="0.43117">
        <ele>2216.94</ele>
        <time>2014-03-19T09:42:19Z</time>
      </trkpt>
      <trkpt lat="42.75244" lon="0.43125">
        <ele>2212.13</ele>
        <time>2014-03-19T09:42:21Z</time>
      </trkpt>
      <trkpt lat="42.75251" lon="0.43134">
        <ele>2206.36</ele>
        <time>2014-03-19T09:42:23Z</time>
      </trkpt>
      <trkpt lat="42.75257" lon="0.43144">
        <ele>2200.59</ele>
        <time>2014-03-19T09:42:25Z</time>
      </trkpt>
      <trkpt lat="42.75251" lon="0.43169">
        <ele>2196.27</ele>
        <time>2014-03-19T09:42:28Z</time>
      </trkpt>
      <trkpt lat="42.75249" lon="0.43177">
        <ele>2195.79</ele>
        <time>2014-03-19T09:42:29Z</time>
      </trkpt>
      <trkpt lat="42.75247" lon="0.43189">
        <ele>2195.31</ele>
        <time>2014-03-19T09:42:37Z</time>
      </trkpt>
      <trkpt lat="42.75249" lon="0.43191">
        <ele>2194.83</ele>
        <time>2014-03-19T09:42:57Z</time>
      </trkpt>
      <trkpt lat="42.75249" lon="0.4319">
        <ele>2194.83</ele>
        <time>2014-03-19T09:43:21Z</time>
      </trkpt>
      <trkpt lat="42.75247" lon="0.43189">
        <ele>2194.83</ele>
        <time>2014-03-19T09:43:45Z</time>
      </trkpt>
      <trkpt lat="42.75248" lon="0.43188">
        <ele>2194.35</ele>
        <time>2014-03-19T09:44:15Z</time>
      </trkpt>
      <trkpt lat="42.75247" lon="0.43189">
        <ele>2194.35</ele>
        <time>2014-03-19T09:44:20Z</time>
      </trkpt>
      <trkpt lat="42.75256" lon="0.43213">
        <ele>2189.54</ele>
        <time>2014-03-19T09:44:29Z</time>
      </trkpt>
      <trkpt lat="42.7526" lon="0.43213">
        <ele>2188.1</ele>
        <time>2014-03-19T09:44:30Z</time>
      </trkpt>
      <trkpt lat="42.75274" lon="0.4322">
        <ele>2182.81</ele>
        <time>2014-03-19T09:44:34Z</time>
      </trkpt>
      <trkpt lat="42.75279" lon="0.43229">
        <ele>2178</ele>
        <time>2014-03-19T09:44:36Z</time>
      </trkpt>
      <trkpt lat="42.75284" lon="0.43241">
        <ele>2173.2</ele>
        <time>2014-03-19T09:44:38Z</time>
      </trkpt>
      <trkpt lat="42.75291" lon="0.4325">
        <ele>2167.43</ele>
        <time>2014-03-19T09:44:40Z</time>
      </trkpt>
      <trkpt lat="42.75298" lon="0.43259">
        <ele>2162.62</ele>
        <time>2014-03-19T09:44:42Z</time>
      </trkpt>
      <trkpt lat="42.75304" lon="0.43258">
        <ele>2161.18</ele>
        <time>2014-03-19T09:44:43Z</time>
      </trkpt>
      <trkpt lat="42.75326" lon="0.4325">
        <ele>2158.78</ele>
        <time>2014-03-19T09:44:46Z</time>
      </trkpt>
      <trkpt lat="42.75342" lon="0.43257">
        <ele>2152.53</ele>
        <time>2014-03-19T09:44:49Z</time>
      </trkpt>
      <trkpt lat="42.7535" lon="0.43267">
        <ele>2148.2</ele>
        <time>2014-03-19T09:44:51Z</time>
      </trkpt>
      <trkpt lat="42.75356" lon="0.43278">
        <ele>2142.92</ele>
        <time>2014-03-19T09:44:53Z</time>
      </trkpt>
      <trkpt lat="42.7536" lon="0.43292">
        <ele>2137.15</ele>
        <time>2014-03-19T09:44:55Z</time>
      </trkpt>
      <trkpt lat="42.75366" lon="0.43304">
        <ele>2130.9</ele>
        <time>2014-03-19T09:44:57Z</time>
      </trkpt>
      <trkpt lat="42.75375" lon="0.4331">
        <ele>2126.09</ele>
        <time>2014-03-19T09:44:59Z</time>
      </trkpt>
      <trkpt lat="42.75382" lon="0.4332">
        <ele>2121.29</ele>
        <time>2014-03-19T09:45:01Z</time>
      </trkpt>
      <trkpt lat="42.75389" lon="0.4333">
        <ele>2116</ele>
        <time>2014-03-19T09:45:03Z</time>
      </trkpt>
      <trkpt lat="42.75396" lon="0.4334">
        <ele>2110.71</ele>
        <time>2014-03-19T09:45:05Z</time>
      </trkpt>
      <trkpt lat="42.75399" lon="0.43345">
        <ele>2107.35</ele>
        <time>2014-03-19T09:45:06Z</time>
      </trkpt>
      <trkpt lat="42.75401" lon="0.43349">
        <ele>2104.94</ele>
        <time>2014-03-19T09:45:07Z</time>
      </trkpt>
      <trkpt lat="42.7541" lon="0.43362">
        <ele>2097.25</ele>
        <time>2014-03-19T09:45:11Z</time>
      </trkpt>
      <trkpt lat="42.75417" lon="0.43359">
        <ele>2095.81</ele>
        <time>2014-03-19T09:45:13Z</time>
      </trkpt>
      <trkpt lat="42.75431" lon="0.43357">
        <ele>2091.97</ele>
        <time>2014-03-19T09:45:17Z</time>
      </trkpt>
      <trkpt lat="42.75432" lon="0.43362">
        <ele>2090.52</ele>
        <time>2014-03-19T09:45:18Z</time>
      </trkpt>
      <trkpt lat="42.75441" lon="0.43367">
        <ele>2085.24</ele>
        <time>2014-03-19T09:45:21Z</time>
      </trkpt>
      <trkpt lat="42.75439" lon="0.43384">
        <ele>2080.43</ele>
        <time>2014-03-19T09:45:24Z</time>
      </trkpt>
      <trkpt lat="42.75437" lon="0.43388">
        <ele>2080.43</ele>
        <time>2014-03-19T09:45:25Z</time>
      </trkpt>
      <trkpt lat="42.75432" lon="0.43389">
        <ele>2080.91</ele>
        <time>2014-03-19T09:45:34Z</time>
      </trkpt>
      <trkpt lat="42.75432" lon="0.43389">
        <ele>2080.43</ele>
        <time>2014-03-19T09:45:41Z</time>
      </trkpt>
      <trkpt lat="42.75433" lon="0.43403">
        <ele>2077.55</ele>
        <time>2014-03-19T09:45:45Z</time>
      </trkpt>
      <trkpt lat="42.75443" lon="0.4341">
        <ele>2073.7</ele>
        <time>2014-03-19T09:45:48Z</time>
      </trkpt>
      <trkpt lat="42.75451" lon="0.43411">
        <ele>2070.82</ele>
        <time>2014-03-19T09:45:50Z</time>
      </trkpt>
      <trkpt lat="42.75457" lon="0.43416">
        <ele>2067.45</ele>
        <time>2014-03-19T09:45:52Z</time>
      </trkpt>
      <trkpt lat="42.75464" lon="0.43422">
        <ele>2063.61</ele>
        <time>2014-03-19T09:45:54Z</time>
      </trkpt>
      <trkpt lat="42.75469" lon="0.4343">
        <ele>2058.32</ele>
        <time>2014-03-19T09:45:56Z</time>
      </trkpt>
      <trkpt lat="42.75472" lon="0.4344">
        <ele>2053.51</ele>
        <time>2014-03-19T09:45:58Z</time>
      </trkpt>
      <trkpt lat="42.75464" lon="0.43461">
        <ele>2049.67</ele>
        <time>2014-03-19T09:46:02Z</time>
      </trkpt>
      <trkpt lat="42.75466" lon="0.43473">
        <ele>2045.34</ele>
        <time>2014-03-19T09:46:05Z</time>
      </trkpt>
      <trkpt lat="42.75471" lon="0.43482">
        <ele>2040.54</ele>
        <time>2014-03-19T09:46:07Z</time>
      </trkpt>
      <trkpt lat="42.75477" lon="0.43491">
        <ele>2036.69</ele>
        <time>2014-03-19T09:46:09Z</time>
      </trkpt>
      <trkpt lat="42.75484" lon="0.43495">
        <ele>2031.88</ele>
        <time>2014-03-19T09:46:11Z</time>
      </trkpt>
      <trkpt lat="42.75495" lon="0.43505">
        <ele>2023.71</ele>
        <time>2014-03-19T09:46:15Z</time>
      </trkpt>
      <trkpt lat="42.7551" lon="0.43495">
        <ele>2019.39</ele>
        <time>2014-03-19T09:46:19Z</time>
      </trkpt>
      <trkpt lat="42.75529" lon="0.43476">
        <ele>2016.02</ele>
        <time>2014-03-19T09:46:23Z</time>
      </trkpt>
      <trkpt lat="42.75546" lon="0.43479">
        <ele>2008.33</ele>
        <time>2014-03-19T09:46:28Z</time>
      </trkpt>
      <trkpt lat="42.75548" lon="0.43482">
        <ele>2006.41</ele>
        <time>2014-03-19T09:46:29Z</time>
      </trkpt>
      <trkpt lat="42.75555" lon="0.43494">
        <ele>2000.64</ele>
        <time>2014-03-19T09:46:33Z</time>
      </trkpt>
      <trkpt lat="42.75558" lon="0.435">
        <ele>1996.32</ele>
        <time>2014-03-19T09:46:35Z</time>
      </trkpt>
      <trkpt lat="42.75561" lon="0.43506">
        <ele>1992.47</ele>
        <time>2014-03-19T09:46:37Z</time>
      </trkpt>
      <trkpt lat="42.75565" lon="0.43509">
        <ele>1989.1</ele>
        <time>2014-03-19T09:46:39Z</time>
      </trkpt>
      <trkpt lat="42.75568" lon="0.43514">
        <ele>1985.74</ele>
        <time>2014-03-19T09:46:41Z</time>
      </trkpt>
      <trkpt lat="42.75571" lon="0.43519">
        <ele>1981.41</ele>
        <time>2014-03-19T09:46:43Z</time>
      </trkpt>
      <trkpt lat="42.75571" lon="0.43527">
        <ele>1977.09</ele>
        <time>2014-03-19T09:46:45Z</time>
      </trkpt>
      <trkpt lat="42.75574" lon="0.43528">
        <ele>1974.2</ele>
        <time>2014-03-19T09:46:46Z</time>
      </trkpt>
      <trkpt lat="42.75575" lon="0.43535">
        <ele>1969.88</ele>
        <time>2014-03-19T09:46:48Z</time>
      </trkpt>
      <trkpt lat="42.75572" lon="0.43539">
        <ele>1968.92</ele>
        <time>2014-03-19T09:46:49Z</time>
      </trkpt>
      <trkpt lat="42.75568" lon="0.43547">
        <ele>1967.96</ele>
        <time>2014-03-19T09:46:51Z</time>
      </trkpt>
      <trkpt lat="42.75572" lon="0.4356">
        <ele>1961.23</ele>
        <time>2014-03-19T09:46:54Z</time>
      </trkpt>
      <trkpt lat="42.75574" lon="0.43564">
        <ele>1958.34</ele>
        <time>2014-03-19T09:46:55Z</time>
      </trkpt>
      <trkpt lat="42.7558" lon="0.43572">
        <ele>1953.54</ele>
        <time>2014-03-19T09:46:57Z</time>
      </trkpt>
      <trkpt lat="42.75583" lon="0.43577">
        <ele>1950.17</ele>
        <time>2014-03-19T09:46:58Z</time>
      </trkpt>
      <trkpt lat="42.75586" lon="0.43582">
        <ele>1947.29</ele>
        <time>2014-03-19T09:46:59Z</time>
      </trkpt>
      <trkpt lat="42.75598" lon="0.43602">
        <ele>1936.23</ele>
        <time>2014-03-19T09:47:03Z</time>
      </trkpt>
      <trkpt lat="42.75605" lon="0.43613">
        <ele>1931.91</ele>
        <time>2014-03-19T09:47:05Z</time>
      </trkpt>
      <trkpt lat="42.75611" lon="0.43624">
        <ele>1927.1</ele>
        <time>2014-03-19T09:47:07Z</time>
      </trkpt>
      <trkpt lat="42.7562" lon="0.43626">
        <ele>1923.25</ele>
        <time>2014-03-19T09:47:09Z</time>
      </trkpt>
      <trkpt lat="42.75623" lon="0.43632">
        <ele>1919.89</ele>
        <time>2014-03-19T09:47:10Z</time>
      </trkpt>
      <trkpt lat="42.75631" lon="0.43638">
        <ele>1916.53</ele>
        <time>2014-03-19T09:47:12Z</time>
      </trkpt>
      <trkpt lat="42.75634" lon="0.43644">
        <ele>1913.16</ele>
        <time>2014-03-19T09:47:13Z</time>
      </trkpt>
      <trkpt lat="42.7564" lon="0.43648">
        <ele>1908.83</ele>
        <time>2014-03-19T09:47:16Z</time>
      </trkpt>
      <trkpt lat="42.75641" lon="0.43647">
        <ele>1908.35</ele>
        <time>2014-03-19T09:47:18Z</time>
      </trkpt>
      <trkpt lat="42.75641" lon="0.43645">
        <ele>1910.28</ele>
        <time>2014-03-19T09:47:20Z</time>
      </trkpt>
      <trkpt lat="42.75641" lon="0.43637">
        <ele>1910.28</ele>
        <time>2014-03-19T09:47:37Z</time>
      </trkpt>
      <trkpt lat="42.75641" lon="0.43635">
        <ele>1910.76</ele>
        <time>2014-03-19T09:47:41Z</time>
      </trkpt>
      <trkpt lat="42.75641" lon="0.43633">
        <ele>1910.28</ele>
        <time>2014-03-19T09:47:43Z</time>
      </trkpt>
      <trkpt lat="42.75648" lon="0.43614">
        <ele>1905.95</ele>
        <time>2014-03-19T09:47:46Z</time>
      </trkpt>
      <trkpt lat="42.75669" lon="0.43573">
        <ele>1901.63</ele>
        <time>2014-03-19T09:47:50Z</time>
      </trkpt>
      <trkpt lat="42.75694" lon="0.43545">
        <ele>1896.82</ele>
        <time>2014-03-19T09:47:56Z</time>
      </trkpt>
      <trkpt lat="42.75703" lon="0.43556">
        <ele>1892.49</ele>
        <time>2014-03-19T09:47:58Z</time>
      </trkpt>
      <trkpt lat="42.75714" lon="0.4357">
        <ele>1887.21</ele>
        <time>2014-03-19T09:48:00Z</time>
      </trkpt>
      <trkpt lat="42.75721" lon="0.43586">
        <ele>1880.96</ele>
        <time>2014-03-19T09:48:02Z</time>
      </trkpt>
      <trkpt lat="42.75728" lon="0.43602">
        <ele>1875.67</ele>
        <time>2014-03-19T09:48:04Z</time>
      </trkpt>
      <trkpt lat="42.75741" lon="0.43639">
        <ele>1867.98</ele>
        <time>2014-03-19T09:48:08Z</time>
      </trkpt>
      <trkpt lat="42.75756" lon="0.43655">
        <ele>1862.21</ele>
        <time>2014-03-19T09:48:11Z</time>
      </trkpt>
      <trkpt lat="42.75755" lon="0.43662">
        <ele>1860.77</ele>
        <time>2014-03-19T09:48:13Z</time>
      </trkpt>
      <trkpt lat="42.75754" lon="0.43663">
        <ele>1860.77</ele>
        <time>2014-03-19T09:48:14Z</time>
      </trkpt>
      <trkpt lat="42.75754" lon="0.43668">
        <ele>1859.81</ele>
        <time>2014-03-19T09:48:16Z</time>
      </trkpt>
      <trkpt lat="42.7576" lon="0.43676">
        <ele>1858.37</ele>
        <time>2014-03-19T09:48:18Z</time>
      </trkpt>
      <trkpt lat="42.75771" lon="0.43691">
        <ele>1851.16</ele>
        <time>2014-03-19T09:48:21Z</time>
      </trkpt>
      <trkpt lat="42.75776" lon="0.43694">
        <ele>1848.75</ele>
        <time>2014-03-19T09:48:22Z</time>
      </trkpt>
      <trkpt lat="42.75798" lon="0.43711">
        <ele>1837.22</ele>
        <time>2014-03-19T09:48:26Z</time>
      </trkpt>
      <trkpt lat="42.75806" lon="0.43713">
        <ele>1833.85</ele>
        <time>2014-03-19T09:48:27Z</time>
      </trkpt>
      <trkpt lat="42.75813" lon="0.43714">
        <ele>1830.97</ele>
        <time>2014-03-19T09:48:28Z</time>
      </trkpt>
      <trkpt lat="42.75837" lon="0.4372">
        <ele>1819.43</ele>
        <time>2014-03-19T09:48:31Z</time>
      </trkpt>
      <trkpt lat="42.75852" lon="0.43724">
        <ele>1816.07</ele>
        <time>2014-03-19T09:48:33Z</time>
      </trkpt>
      <trkpt lat="42.75866" lon="0.43731">
        <ele>1810.78</ele>
        <time>2014-03-19T09:48:35Z</time>
      </trkpt>
      <trkpt lat="42.75875" lon="0.43744">
        <ele>1805.97</ele>
        <time>2014-03-19T09:48:37Z</time>
      </trkpt>
      <trkpt lat="42.7588" lon="0.43752">
        <ele>1802.61</ele>
        <time>2014-03-19T09:48:38Z</time>
      </trkpt>
      <trkpt lat="42.75882" lon="0.43761">
        <ele>1798.28</ele>
        <time>2014-03-19T09:48:39Z</time>
      </trkpt>
      <trkpt lat="42.75883" lon="0.43772">
        <ele>1794.92</ele>
        <time>2014-03-19T09:48:40Z</time>
      </trkpt>
      <trkpt lat="42.75886" lon="0.43782">
        <ele>1790.11</ele>
        <time>2014-03-19T09:48:41Z</time>
      </trkpt>
      <trkpt lat="42.75889" lon="0.43794">
        <ele>1785.31</ele>
        <time>2014-03-19T09:48:42Z</time>
      </trkpt>
      <trkpt lat="42.75891" lon="0.43806">
        <ele>1781.46</ele>
        <time>2014-03-19T09:48:43Z</time>
      </trkpt>
      <trkpt lat="42.75896" lon="0.43817">
        <ele>1777.61</ele>
        <time>2014-03-19T09:48:44Z</time>
      </trkpt>
      <trkpt lat="42.75899" lon="0.43828">
        <ele>1773.29</ele>
        <time>2014-03-19T09:48:45Z</time>
      </trkpt>
      <trkpt lat="42.75905" lon="0.43848">
        <ele>1768.96</ele>
        <time>2014-03-19T09:48:47Z</time>
      </trkpt>
      <trkpt lat="42.75923" lon="0.43867">
        <ele>1765.6</ele>
        <time>2014-03-19T09:48:50Z</time>
      </trkpt>
      <trkpt lat="42.75936" lon="0.43876">
        <ele>1764.16</ele>
        <time>2014-03-19T09:48:52Z</time>
      </trkpt>
      <trkpt lat="42.75977" lon="0.43918">
        <ele>1763.2</ele>
        <time>2014-03-19T09:49:02Z</time>
      </trkpt>
      <trkpt lat="42.75978" lon="0.43916">
        <ele>1762.71</ele>
        <time>2014-03-19T09:49:16Z</time>
      </trkpt>
      <trkpt lat="42.75981" lon="0.43916">
        <ele>1762.71</ele>
        <time>2014-03-19T09:49:36Z</time>
      </trkpt>
      <trkpt lat="42.75983" lon="0.43915">
        <ele>1763.2</ele>
        <time>2014-03-19T09:49:53Z</time>
      </trkpt>
      <trkpt lat="42.75973" lon="0.43929">
        <ele>1759.35</ele>
        <time>2014-03-19T09:49:58Z</time>
      </trkpt>
      <trkpt lat="42.75969" lon="0.43942">
        <ele>1755.99</ele>
        <time>2014-03-19T09:50:00Z</time>
      </trkpt>
      <trkpt lat="42.75972" lon="0.43949">
        <ele>1752.62</ele>
        <time>2014-03-19T09:50:01Z</time>
      </trkpt>
      <trkpt lat="42.75986" lon="0.43965">
        <ele>1748.78</ele>
        <time>2014-03-19T09:50:04Z</time>
      </trkpt>
      <trkpt lat="42.75981" lon="0.43977">
        <ele>1745.41</ele>
        <time>2014-03-19T09:50:06Z</time>
      </trkpt>
      <trkpt lat="42.75969" lon="0.43987">
        <ele>1743.01</ele>
        <time>2014-03-19T09:50:08Z</time>
      </trkpt>
      <trkpt lat="42.75967" lon="0.43998">
        <ele>1739.64</ele>
        <time>2014-03-19T09:50:10Z</time>
      </trkpt>
      <trkpt lat="42.75967" lon="0.44017">
        <ele>1733.39</ele>
        <time>2014-03-19T09:50:13Z</time>
      </trkpt>
      <trkpt lat="42.75967" lon="0.44034">
        <ele>1728.11</ele>
        <time>2014-03-19T09:50:15Z</time>
      </trkpt>
      <trkpt lat="42.75967" lon="0.44042">
        <ele>1724.74</ele>
        <time>2014-03-19T09:50:16Z</time>
      </trkpt>
      <trkpt lat="42.75973" lon="0.44056">
        <ele>1719.46</ele>
        <time>2014-03-19T09:50:18Z</time>
      </trkpt>
      <trkpt lat="42.75978" lon="0.44076">
        <ele>1714.65</ele>
        <time>2014-03-19T09:50:21Z</time>
      </trkpt>
      <trkpt lat="42.75984" lon="0.44091">
        <ele>1709.84</ele>
        <time>2014-03-19T09:50:23Z</time>
      </trkpt>
      <trkpt lat="42.75987" lon="0.44099">
        <ele>1707.44</ele>
        <time>2014-03-19T09:50:24Z</time>
      </trkpt>
      <trkpt lat="42.75997" lon="0.44123">
        <ele>1700.71</ele>
        <time>2014-03-19T09:50:27Z</time>
      </trkpt>
      <trkpt lat="42.76003" lon="0.4415">
        <ele>1691.58</ele>
        <time>2014-03-19T09:50:30Z</time>
      </trkpt>
      <trkpt lat="42.76008" lon="0.44173">
        <ele>1686.29</ele>
        <time>2014-03-19T09:50:32Z</time>
      </trkpt>
      <trkpt lat="42.7601" lon="0.44197">
        <ele>1681</ele>
        <time>2014-03-19T09:50:34Z</time>
      </trkpt>
      <trkpt lat="42.76022" lon="0.44197">
        <ele>1679.08</ele>
        <time>2014-03-19T09:50:37Z</time>
      </trkpt>
      <trkpt lat="42.76038" lon="0.44198">
        <ele>1675.72</ele>
        <time>2014-03-19T09:50:42Z</time>
      </trkpt>
      <trkpt lat="42.76045" lon="0.44198">
        <ele>1672.35</ele>
        <time>2014-03-19T09:50:45Z</time>
      </trkpt>
      <trkpt lat="42.76054" lon="0.4419">
        <ele>1670.43</ele>
        <time>2014-03-19T09:50:52Z</time>
      </trkpt>
      <trkpt lat="42.76071" lon="0.44194">
        <ele>1668.51</ele>
        <time>2014-03-19T09:51:01Z</time>
      </trkpt>
      <trkpt lat="42.76087" lon="0.44222">
        <ele>1663.22</ele>
        <time>2014-03-19T09:51:05Z</time>
      </trkpt>
      <trkpt lat="42.76095" lon="0.44258">
        <ele>1660.33</ele>
        <time>2014-03-19T09:51:10Z</time>
      </trkpt>
      <trkpt lat="42.76099" lon="0.44261">
        <ele>1659.85</ele>
        <time>2014-03-19T09:51:11Z</time>
      </trkpt>
      <trkpt lat="42.76133" lon="0.44277">
        <ele>1656.49</ele>
        <time>2014-03-19T09:51:18Z</time>
      </trkpt>
      <trkpt lat="42.76158" lon="0.44282">
        <ele>1653.12</ele>
        <time>2014-03-19T09:51:22Z</time>
      </trkpt>
      <trkpt lat="42.76173" lon="0.44286">
        <ele>1651.2</ele>
        <time>2014-03-19T09:51:24Z</time>
      </trkpt>
      <trkpt lat="42.76191" lon="0.44289">
        <ele>1649.28</ele>
        <time>2014-03-19T09:51:27Z</time>
      </trkpt>
      <trkpt lat="42.76206" lon="0.4429">
        <ele>1648.32</ele>
        <time>2014-03-19T09:51:30Z</time>
      </trkpt>
      <trkpt lat="42.76231" lon="0.44283">
        <ele>1645.43</ele>
        <time>2014-03-19T09:51:35Z</time>
      </trkpt>
      <trkpt lat="42.76245" lon="0.44273">
        <ele>1643.99</ele>
        <time>2014-03-19T09:51:38Z</time>
      </trkpt>
      <trkpt lat="42.7626" lon="0.44251">
        <ele>1640.63</ele>
        <time>2014-03-19T09:51:42Z</time>
      </trkpt>
      <trkpt lat="42.76279" lon="0.44238">
        <ele>1635.34</ele>
        <time>2014-03-19T09:51:46Z</time>
      </trkpt>
      <trkpt lat="42.7629" lon="0.44232">
        <ele>1630.05</ele>
        <time>2014-03-19T09:51:48Z</time>
      </trkpt>
      <trkpt lat="42.76314" lon="0.44219">
        <ele>1624.28</ele>
        <time>2014-03-19T09:51:51Z</time>
      </trkpt>
      <trkpt lat="42.76323" lon="0.44216">
        <ele>1622.36</ele>
        <time>2014-03-19T09:51:52Z</time>
      </trkpt>
      <trkpt lat="42.7636" lon="0.44214">
        <ele>1616.11</ele>
        <time>2014-03-19T09:51:56Z</time>
      </trkpt>
      <trkpt lat="42.76368" lon="0.44213">
        <ele>1614.19</ele>
        <time>2014-03-19T09:51:57Z</time>
      </trkpt>
      <trkpt lat="42.76383" lon="0.44213">
        <ele>1612.75</ele>
        <time>2014-03-19T09:51:59Z</time>
      </trkpt>
      <trkpt lat="42.76408" lon="0.44206">
        <ele>1607.94</ele>
        <time>2014-03-19T09:52:03Z</time>
      </trkpt>
      <trkpt lat="42.76411" lon="0.44203">
        <ele>1607.46</ele>
        <time>2014-03-19T09:52:04Z</time>
      </trkpt>
      <trkpt lat="42.76417" lon="0.44196">
        <ele>1606.98</ele>
        <time>2014-03-19T09:52:17Z</time>
      </trkpt>
      <trkpt lat="42.76419" lon="0.44192">
        <ele>1607.46</ele>
        <time>2014-03-19T09:52:24Z</time>
      </trkpt>
      <trkpt lat="42.7642" lon="0.44185">
        <ele>1607.46</ele>
        <time>2014-03-19T09:52:31Z</time>
      </trkpt>
      <trkpt lat="42.76426" lon="0.44171">
        <ele>1606.02</ele>
        <time>2014-03-19T09:52:36Z</time>
      </trkpt>
      <trkpt lat="42.76443" lon="0.44147">
        <ele>1601.69</ele>
        <time>2014-03-19T09:52:41Z</time>
      </trkpt>
      <trkpt lat="42.76453" lon="0.44137">
        <ele>1599.77</ele>
        <time>2014-03-19T09:52:43Z</time>
      </trkpt>
      <trkpt lat="42.7647" lon="0.44121">
        <ele>1596.89</ele>
        <time>2014-03-19T09:52:47Z</time>
      </trkpt>
      <trkpt lat="42.76489" lon="0.44103">
        <ele>1593.52</ele>
        <time>2014-03-19T09:52:53Z</time>
      </trkpt>
      <trkpt lat="42.76507" lon="0.44093">
        <ele>1592.56</ele>
        <time>2014-03-19T09:53:05Z</time>
      </trkpt>
      <trkpt lat="42.76518" lon="0.44083">
        <ele>1592.56</ele>
        <time>2014-03-19T09:53:16Z</time>
      </trkpt>
      <trkpt lat="42.76528" lon="0.44074">
        <ele>1592.08</ele>
        <time>2014-03-19T09:53:28Z</time>
      </trkpt>
      <trkpt lat="42.7654" lon="0.44061">
        <ele>1589.2</ele>
        <time>2014-03-19T09:53:31Z</time>
      </trkpt>
      <trkpt lat="42.76554" lon="0.44042">
        <ele>1585.83</ele>
        <time>2014-03-19T09:53:35Z</time>
      </trkpt>
      <trkpt lat="42.76562" lon="0.44034">
        <ele>1584.87</ele>
        <time>2014-03-19T09:53:47Z</time>
      </trkpt>
      <trkpt lat="42.76563" lon="0.44034">
        <ele>1584.87</ele>
        <time>2014-03-19T09:53:49Z</time>
      </trkpt>
      <trkpt lat="42.76569" lon="0.44027">
        <ele>1583.43</ele>
        <time>2014-03-19T09:54:02Z</time>
      </trkpt>
      <trkpt lat="42.76574" lon="0.44022">
        <ele>1581.51</ele>
        <time>2014-03-19T09:54:08Z</time>
      </trkpt>
      <trkpt lat="42.76574" lon="0.44023">
        <ele>1581.51</ele>
        <time>2014-03-19T09:54:10Z</time>
      </trkpt>
      <trkpt lat="42.76587" lon="0.44019">
        <ele>1577.66</ele>
        <time>2014-03-19T09:54:15Z</time>
      </trkpt>
      <trkpt lat="42.76594" lon="0.44016">
        <ele>1575.26</ele>
        <time>2014-03-19T09:54:17Z</time>
      </trkpt>
      <trkpt lat="42.76606" lon="0.44009">
        <ele>1572.85</ele>
        <time>2014-03-19T09:54:22Z</time>
      </trkpt>
      <trkpt lat="42.76606" lon="0.44008">
        <ele>1572.85</ele>
        <time>2014-03-19T09:54:30Z</time>
      </trkpt>
      <trkpt lat="42.76604" lon="0.44019">
        <ele>1568.53</ele>
        <time>2014-03-19T09:54:34Z</time>
      </trkpt>
      <trkpt lat="42.76603" lon="0.4402">
        <ele>1568.53</ele>
        <time>2014-03-19T09:54:35Z</time>
      </trkpt>
      <trkpt lat="42.76603" lon="0.4402">
        <ele>1568.53</ele>
        <time>2014-03-19T09:54:37Z</time>
      </trkpt>
      <trkpt lat="42.76616" lon="0.44016">
        <ele>1565.16</ele>
        <time>2014-03-19T09:54:42Z</time>
      </trkpt>
      <trkpt lat="42.7662" lon="0.44015">
        <ele>1564.68</ele>
        <time>2014-03-19T09:54:44Z</time>
      </trkpt>
      <trkpt lat="42.76622" lon="0.44016">
        <ele>1564.2</ele>
        <time>2014-03-19T09:54:45Z</time>
      </trkpt>
      <trkpt lat="42.7664" lon="0.44022">
        <ele>1561.32</ele>
        <time>2014-03-19T09:54:54Z</time>
      </trkpt>
      <trkpt lat="42.76645" lon="0.44021">
        <ele>1560.36</ele>
        <time>2014-03-19T09:54:59Z</time>
      </trkpt>
      <trkpt lat="42.76666" lon="0.44018">
        <ele>1556.03</ele>
        <time>2014-03-19T09:55:06Z</time>
      </trkpt>
      <trkpt lat="42.76704" lon="0.43999">
        <ele>1553.15</ele>
        <time>2014-03-19T09:55:18Z</time>
      </trkpt>
      <trkpt lat="42.76723" lon="0.43983">
        <ele>1551.71</ele>
        <time>2014-03-19T09:55:25Z</time>
      </trkpt>
      <trkpt lat="42.76728" lon="0.4397">
        <ele>1550.26</ele>
        <time>2014-03-19T09:55:28Z</time>
      </trkpt>
      <trkpt lat="42.76739" lon="0.43958">
        <ele>1545.46</ele>
        <time>2014-03-19T09:55:32Z</time>
      </trkpt>
      <trkpt lat="42.76743" lon="0.43955">
        <ele>1545.46</ele>
        <time>2014-03-19T09:55:33Z</time>
      </trkpt>
      <trkpt lat="42.76746" lon="0.43953">
        <ele>1542.09</ele>
        <time>2014-03-19T09:55:35Z</time>
      </trkpt>
      <trkpt lat="42.76747" lon="0.43953">
        <ele>1542.09</ele>
        <time>2014-03-19T09:55:36Z</time>
      </trkpt>
      <trkpt lat="42.7676" lon="0.43949">
        <ele>1538.25</ele>
        <time>2014-03-19T09:55:40Z</time>
      </trkpt>
      <trkpt lat="42.76763" lon="0.43946">
        <ele>1537.29</ele>
        <time>2014-03-19T09:55:41Z</time>
      </trkpt>
      <trkpt lat="42.76779" lon="0.43945">
        <ele>1532.48</ele>
        <time>2014-03-19T09:55:46Z</time>
      </trkpt>
      <trkpt lat="42.768" lon="0.43955">
        <ele>1528.63</ele>
        <time>2014-03-19T09:55:51Z</time>
      </trkpt>
      <trkpt lat="42.76811" lon="0.43943">
        <ele>1525.27</ele>
        <time>2014-03-19T09:55:54Z</time>
      </trkpt>
      <trkpt lat="42.76823" lon="0.43927">
        <ele>1521.42</ele>
        <time>2014-03-19T09:55:57Z</time>
      </trkpt>
      <trkpt lat="42.76842" lon="0.43917">
        <ele>1518.06</ele>
        <time>2014-03-19T09:56:00Z</time>
      </trkpt>
      <trkpt lat="42.76847" lon="0.43912">
        <ele>1517.1</ele>
        <time>2014-03-19T09:56:06Z</time>
      </trkpt>
      <trkpt lat="42.76843" lon="0.43924">
        <ele>1515.18</ele>
        <time>2014-03-19T09:56:15Z</time>
      </trkpt>
      <trkpt lat="42.76853" lon="0.4392">
        <ele>1511.81</ele>
        <time>2014-03-19T09:56:19Z</time>
      </trkpt>
      <trkpt lat="42.76862" lon="0.43916">
        <ele>1510.37</ele>
        <time>2014-03-19T09:56:29Z</time>
      </trkpt>
      <trkpt lat="42.76863" lon="0.43913">
        <ele>1510.37</ele>
        <time>2014-03-19T09:56:43Z</time>
      </trkpt>
      <trkpt lat="42.76862" lon="0.43912">
        <ele>1508.93</ele>
        <time>2014-03-19T09:56:56Z</time>
      </trkpt>
      <trkpt lat="42.76862" lon="0.43912">
        <ele>1508.93</ele>
        <time>2014-03-19T09:57:01Z</time>
      </trkpt>
      <trkpt lat="42.76859" lon="0.43915">
        <ele>1508.45</ele>
        <time>2014-03-19T09:57:09Z</time>
      </trkpt>
      <trkpt lat="42.7686" lon="0.43912">
        <ele>1508.45</ele>
        <time>2014-03-19T09:57:34Z</time>
      </trkpt>
      <trkpt lat="42.76857" lon="0.43911">
        <ele>1508.45</ele>
        <time>2014-03-19T09:57:52Z</time>
      </trkpt>
      <trkpt lat="42.76858" lon="0.43912">
        <ele>1508.45</ele>
        <time>2014-03-19T09:58:10Z</time>
      </trkpt>
      <trkpt lat="42.76859" lon="0.43913">
        <ele>1507.97</ele>
        <time>2014-03-19T09:58:24Z</time>
      </trkpt>
      <trkpt lat="42.76858" lon="0.43913">
        <ele>1508.45</ele>
        <time>2014-03-19T09:58:43Z</time>
      </trkpt>
      <trkpt lat="42.76858" lon="0.43913">
        <ele>1508.45</ele>
        <time>2014-03-19T09:59:01Z</time>
      </trkpt>
      <trkpt lat="42.76859" lon="0.43914">
        <ele>1507.97</ele>
        <time>2014-03-19T09:59:23Z</time>
      </trkpt>
      <trkpt lat="42.76861" lon="0.43917">
        <ele>1507.97</ele>
        <time>2014-03-19T09:59:55Z</time>
      </trkpt>
      <trkpt lat="42.76862" lon="0.43916">
        <ele>1508.45</ele>
        <time>2014-03-19T09:59:59Z</time>
      </trkpt>
      <trkpt lat="42.7686" lon="0.43915">
        <ele>1508.93</ele>
        <time>2014-03-19T10:00:10Z</time>
      </trkpt>
      <trkpt lat="42.7686" lon="0.43914">
        <ele>1508.93</ele>
        <time>2014-03-19T10:00:12Z</time>
      </trkpt>
      <trkpt lat="42.76864" lon="0.43909">
        <ele>1508.93</ele>
        <time>2014-03-19T10:00:16Z</time>
      </trkpt>
      <trkpt lat="42.76869" lon="0.43901">
        <ele>1508.93</ele>
        <time>2014-03-19T10:00:23Z</time>
      </trkpt>
      <trkpt lat="42.7688" lon="0.43888">
        <ele>1508.93</ele>
        <time>2014-03-19T10:00:33Z</time>
      </trkpt>
      <trkpt lat="42.76884" lon="0.43883">
        <ele>1508.45</ele>
        <time>2014-03-19T10:00:46Z</time>
      </trkpt>
      <trkpt lat="42.76884" lon="0.43881">
        <ele>1508.93</ele>
        <time>2014-03-19T10:00:56Z</time>
      </trkpt>
      <trkpt lat="42.76888" lon="0.43877">
        <ele>1508.93</ele>
        <time>2014-03-19T10:01:10Z</time>
      </trkpt>
      <trkpt lat="42.76908" lon="0.43866">
        <ele>1505.56</ele>
        <time>2014-03-19T10:01:25Z</time>
      </trkpt>
      <trkpt lat="42.76914" lon="0.43866">
        <ele>1504.12</ele>
        <time>2014-03-19T10:01:29Z</time>
      </trkpt>
      <trkpt lat="42.76918" lon="0.43867">
        <ele>1503.16</ele>
        <time>2014-03-19T10:01:32Z</time>
      </trkpt>
      <trkpt lat="42.76924" lon="0.43879">
        <ele>1503.64</ele>
        <time>2014-03-19T10:01:39Z</time>
      </trkpt>
      <trkpt lat="42.76929" lon="0.43881">
        <ele>1503.16</ele>
        <time>2014-03-19T10:01:53Z</time>
      </trkpt>
      <trkpt lat="42.76929" lon="0.43882">
        <ele>1503.16</ele>
        <time>2014-03-19T10:01:55Z</time>
      </trkpt>
      <trkpt lat="42.76953" lon="0.43863">
        <ele>1501.24</ele>
        <time>2014-03-19T10:02:11Z</time>
      </trkpt>
      <trkpt lat="42.76968" lon="0.43844">
        <ele>1497.87</ele>
        <time>2014-03-19T10:02:22Z</time>
      </trkpt>
      <trkpt lat="42.76978" lon="0.43822">
        <ele>1494.99</ele>
        <time>2014-03-19T10:02:32Z</time>
      </trkpt>
      <trkpt lat="42.76981" lon="0.43802">
        <ele>1491.14</ele>
        <time>2014-03-19T10:02:40Z</time>
      </trkpt>
      <trkpt lat="42.76982" lon="0.43789">
        <ele>1488.26</ele>
        <time>2014-03-19T10:02:51Z</time>
      </trkpt>
      <trkpt lat="42.76982" lon="0.43788">
        <ele>1488.26</ele>
        <time>2014-03-19T10:02:53Z</time>
      </trkpt>
      <trkpt lat="42.76984" lon="0.43779">
        <ele>1487.78</ele>
        <time>2014-03-19T10:02:58Z</time>
      </trkpt>
      <trkpt lat="42.76987" lon="0.43775">
        <ele>1486.34</ele>
        <time>2014-03-19T10:03:09Z</time>
      </trkpt>
      <trkpt lat="42.76988" lon="0.4377">
        <ele>1486.34</ele>
        <time>2014-03-19T10:03:18Z</time>
      </trkpt>
      <trkpt lat="42.76992" lon="0.43755">
        <ele>1483.93</ele>
        <time>2014-03-19T10:03:25Z</time>
      </trkpt>
      <trkpt lat="42.76996" lon="0.4374">
        <ele>1481.05</ele>
        <time>2014-03-19T10:03:31Z</time>
      </trkpt>
      <trkpt lat="42.77" lon="0.43723">
        <ele>1478.16</ele>
        <time>2014-03-19T10:03:38Z</time>
      </trkpt>
      <trkpt lat="42.77002" lon="0.43706">
        <ele>1475.28</ele>
        <time>2014-03-19T10:03:45Z</time>
      </trkpt>
      <trkpt lat="42.77002" lon="0.43701">
        <ele>1474.32</ele>
        <time>2014-03-19T10:03:47Z</time>
      </trkpt>
      <trkpt lat="42.77004" lon="0.43681">
        <ele>1470.95</ele>
        <time>2014-03-19T10:03:55Z</time>
      </trkpt>
      <trkpt lat="42.77009" lon="0.4366">
        <ele>1468.07</ele>
        <time>2014-03-19T10:04:04Z</time>
      </trkpt>
      <trkpt lat="42.77011" lon="0.43642">
        <ele>1464.71</ele>
        <time>2014-03-19T10:04:11Z</time>
      </trkpt>
      <trkpt lat="42.77009" lon="0.43615">
        <ele>1461.82</ele>
        <time>2014-03-19T10:04:23Z</time>
      </trkpt>
      <trkpt lat="42.7701" lon="0.43602">
        <ele>1459.42</ele>
        <time>2014-03-19T10:04:28Z</time>
      </trkpt>
      <trkpt lat="42.7701" lon="0.436">
        <ele>1459.42</ele>
        <time>2014-03-19T10:04:29Z</time>
      </trkpt>
      <trkpt lat="42.7701" lon="0.43597">
        <ele>1458.94</ele>
        <time>2014-03-19T10:04:30Z</time>
      </trkpt>
      <trkpt lat="42.77011" lon="0.43581">
        <ele>1456.05</ele>
        <time>2014-03-19T10:04:37Z</time>
      </trkpt>
      <trkpt lat="42.77014" lon="0.4356">
        <ele>1452.69</ele>
        <time>2014-03-19T10:04:46Z</time>
      </trkpt>
      <trkpt lat="42.77015" lon="0.43553">
        <ele>1451.25</ele>
        <time>2014-03-19T10:04:49Z</time>
      </trkpt>
      <trkpt lat="42.77017" lon="0.43541">
        <ele>1449.32</ele>
        <time>2014-03-19T10:04:54Z</time>
      </trkpt>
      <trkpt lat="42.77019" lon="0.43534">
        <ele>1447.88</ele>
        <time>2014-03-19T10:04:57Z</time>
      </trkpt>
      <trkpt lat="42.77028" lon="0.4351">
        <ele>1444.52</ele>
        <time>2014-03-19T10:05:08Z</time>
      </trkpt>
      <trkpt lat="42.77037" lon="0.43483">
        <ele>1441.63</ele>
        <time>2014-03-19T10:05:20Z</time>
      </trkpt>
      <trkpt lat="42.77044" lon="0.43459">
        <ele>1438.27</ele>
        <time>2014-03-19T10:05:30Z</time>
      </trkpt>
      <trkpt lat="42.77054" lon="0.43431">
        <ele>1434.91</ele>
        <time>2014-03-19T10:05:43Z</time>
      </trkpt>
      <trkpt lat="42.77059" lon="0.43404">
        <ele>1431.54</ele>
        <time>2014-03-19T10:05:55Z</time>
      </trkpt>
      <trkpt lat="42.77061" lon="0.43399">
        <ele>1431.06</ele>
        <time>2014-03-19T10:05:57Z</time>
      </trkpt>
      <trkpt lat="42.77066" lon="0.43392">
        <ele>1429.62</ele>
        <time>2014-03-19T10:06:01Z</time>
      </trkpt>
      <trkpt lat="42.77075" lon="0.43385">
        <ele>1426.73</ele>
        <time>2014-03-19T10:06:07Z</time>
      </trkpt>
      <trkpt lat="42.77088" lon="0.43373">
        <ele>1423.85</ele>
        <time>2014-03-19T10:06:16Z</time>
      </trkpt>
      <trkpt lat="42.77096" lon="0.43358">
        <ele>1420.49</ele>
        <time>2014-03-19T10:06:24Z</time>
      </trkpt>
      <trkpt lat="42.77097" lon="0.43342">
        <ele>1417.6</ele>
        <time>2014-03-19T10:06:31Z</time>
      </trkpt>
      <trkpt lat="42.77096" lon="0.43321">
        <ele>1414.24</ele>
        <time>2014-03-19T10:06:41Z</time>
      </trkpt>
      <trkpt lat="42.77102" lon="0.43291">
        <ele>1411.35</ele>
        <time>2014-03-19T10:06:54Z</time>
      </trkpt>
      <trkpt lat="42.77111" lon="0.43266">
        <ele>1408.47</ele>
        <time>2014-03-19T10:07:05Z</time>
      </trkpt>
      <trkpt lat="42.77123" lon="0.43242">
        <ele>1405.58</ele>
        <time>2014-03-19T10:07:18Z</time>
      </trkpt>
      <trkpt lat="42.77126" lon="0.43235">
        <ele>1405.1</ele>
        <time>2014-03-19T10:07:22Z</time>
      </trkpt>
      <trkpt lat="42.7713" lon="0.43235">
        <ele>1404.62</ele>
        <time>2014-03-19T10:07:28Z</time>
      </trkpt>
      <trkpt lat="42.77134" lon="0.43226">
        <ele>1403.66</ele>
        <time>2014-03-19T10:07:34Z</time>
      </trkpt>
      <trkpt lat="42.77136" lon="0.43199">
        <ele>1400.78</ele>
        <time>2014-03-19T10:07:46Z</time>
      </trkpt>
      <trkpt lat="42.77134" lon="0.43191">
        <ele>1399.34</ele>
        <time>2014-03-19T10:07:50Z</time>
      </trkpt>
      <trkpt lat="42.77126" lon="0.43156">
        <ele>1395.97</ele>
        <time>2014-03-19T10:08:06Z</time>
      </trkpt>
      <trkpt lat="42.77126" lon="0.43131">
        <ele>1392.61</ele>
        <time>2014-03-19T10:08:17Z</time>
      </trkpt>
      <trkpt lat="42.77127" lon="0.43118">
        <ele>1389.72</ele>
        <time>2014-03-19T10:08:22Z</time>
      </trkpt>
      <trkpt lat="42.77126" lon="0.43113">
        <ele>1389.24</ele>
        <time>2014-03-19T10:08:24Z</time>
      </trkpt>
      <trkpt lat="42.77125" lon="0.431">
        <ele>1386.84</ele>
        <time>2014-03-19T10:08:30Z</time>
      </trkpt>
      <trkpt lat="42.77122" lon="0.43079">
        <ele>1383.47</ele>
        <time>2014-03-19T10:08:39Z</time>
      </trkpt>
      <trkpt lat="42.77115" lon="0.43051">
        <ele>1380.59</ele>
        <time>2014-03-19T10:08:51Z</time>
      </trkpt>
      <trkpt lat="42.77116" lon="0.43025">
        <ele>1377.23</ele>
        <time>2014-03-19T10:09:01Z</time>
      </trkpt>
      <trkpt lat="42.77115" lon="0.42999">
        <ele>1373.86</ele>
        <time>2014-03-19T10:09:12Z</time>
      </trkpt>
      <trkpt lat="42.77112" lon="0.42976">
        <ele>1370.5</ele>
        <time>2014-03-19T10:09:23Z</time>
      </trkpt>
      <trkpt lat="42.77109" lon="0.42953">
        <ele>1367.13</ele>
        <time>2014-03-19T10:09:33Z</time>
      </trkpt>
      <trkpt lat="42.77111" lon="0.42929">
        <ele>1363.77</ele>
        <time>2014-03-19T10:09:43Z</time>
      </trkpt>
      <trkpt lat="42.77114" lon="0.42906">
        <ele>1360.4</ele>
        <time>2014-03-19T10:09:53Z</time>
      </trkpt>
      <trkpt lat="42.77116" lon="0.42873">
        <ele>1356.56</ele>
        <time>2014-03-19T10:10:08Z</time>
      </trkpt>
      <trkpt lat="42.77117" lon="0.42871">
        <ele>1356.56</ele>
        <time>2014-03-19T10:10:09Z</time>
      </trkpt>
      <trkpt lat="42.77121" lon="0.42849">
        <ele>1353.19</ele>
        <time>2014-03-19T10:10:19Z</time>
      </trkpt>
      <trkpt lat="42.77123" lon="0.42828">
        <ele>1349.83</ele>
        <time>2014-03-19T10:10:28Z</time>
      </trkpt>
      <trkpt lat="42.77124" lon="0.42803">
        <ele>1346.94</ele>
        <time>2014-03-19T10:10:38Z</time>
      </trkpt>
      <trkpt lat="42.77129" lon="0.4278">
        <ele>1343.58</ele>
        <time>2014-03-19T10:10:49Z</time>
      </trkpt>
      <trkpt lat="42.77133" lon="0.4276">
        <ele>1340.7</ele>
        <time>2014-03-19T10:10:58Z</time>
      </trkpt>
      <trkpt lat="42.77139" lon="0.42737">
        <ele>1337.33</ele>
        <time>2014-03-19T10:11:08Z</time>
      </trkpt>
      <trkpt lat="42.77145" lon="0.42712">
        <ele>1334.45</ele>
        <time>2014-03-19T10:11:19Z</time>
      </trkpt>
      <trkpt lat="42.77147" lon="0.42683">
        <ele>1331.08</ele>
        <time>2014-03-19T10:11:32Z</time>
      </trkpt>
      <trkpt lat="42.77156" lon="0.42653">
        <ele>1328.2</ele>
        <time>2014-03-19T10:11:45Z</time>
      </trkpt>
      <trkpt lat="42.77166" lon="0.4263">
        <ele>1324.83</ele>
        <time>2014-03-19T10:11:57Z</time>
      </trkpt>
      <trkpt lat="42.77175" lon="0.42611">
        <ele>1321.95</ele>
        <time>2014-03-19T10:12:07Z</time>
      </trkpt>
      <trkpt lat="42.77176" lon="0.42607">
        <ele>1320.99</ele>
        <time>2014-03-19T10:12:09Z</time>
      </trkpt>
      <trkpt lat="42.77183" lon="0.42578">
        <ele>1318.1</ele>
        <time>2014-03-19T10:12:22Z</time>
      </trkpt>
      <trkpt lat="42.77191" lon="0.42543">
        <ele>1314.74</ele>
        <time>2014-03-19T10:12:37Z</time>
      </trkpt>
      <trkpt lat="42.772" lon="0.42515">
        <ele>1312.82</ele>
        <time>2014-03-19T10:12:49Z</time>
      </trkpt>
      <trkpt lat="42.77212" lon="0.42475">
        <ele>1309.93</ele>
        <time>2014-03-19T10:13:07Z</time>
      </trkpt>
      <trkpt lat="42.77219" lon="0.42444">
        <ele>1308.01</ele>
        <time>2014-03-19T10:13:21Z</time>
      </trkpt>
      <trkpt lat="42.77236" lon="0.42414">
        <ele>1305.13</ele>
        <time>2014-03-19T10:13:37Z</time>
      </trkpt>
      <trkpt lat="42.77251" lon="0.42379">
        <ele>1302.24</ele>
        <time>2014-03-19T10:13:54Z</time>
      </trkpt>
      <trkpt lat="42.77261" lon="0.42344">
        <ele>1298.88</ele>
        <time>2014-03-19T10:14:09Z</time>
      </trkpt>
      <trkpt lat="42.77275" lon="0.42307">
        <ele>1295.99</ele>
        <time>2014-03-19T10:14:26Z</time>
      </trkpt>
      <trkpt lat="42.77282" lon="0.42273">
        <ele>1293.59</ele>
        <time>2014-03-19T10:14:42Z</time>
      </trkpt>
      <trkpt lat="42.77286" lon="0.42239">
        <ele>1290.71</ele>
        <time>2014-03-19T10:14:58Z</time>
      </trkpt>
      <trkpt lat="42.7729" lon="0.42207">
        <ele>1287.34</ele>
        <time>2014-03-19T10:15:12Z</time>
      </trkpt>
      <trkpt lat="42.77288" lon="0.42178">
        <ele>1284.46</ele>
        <time>2014-03-19T10:15:26Z</time>
      </trkpt>
      <trkpt lat="42.77288" lon="0.42171">
        <ele>1283.02</ele>
        <time>2014-03-19T10:15:36Z</time>
      </trkpt>
      <trkpt lat="42.77288" lon="0.42171">
        <ele>1283.02</ele>
        <time>2014-03-19T10:15:38Z</time>
      </trkpt>
      <trkpt lat="42.77287" lon="0.42162">
        <ele>1282.54</ele>
        <time>2014-03-19T10:15:45Z</time>
      </trkpt>
      <trkpt lat="42.77285" lon="0.42152">
        <ele>1281.09</ele>
        <time>2014-03-19T10:15:51Z</time>
      </trkpt>
      <trkpt lat="42.77285" lon="0.42148">
        <ele>1280.13</ele>
        <time>2014-03-19T10:15:59Z</time>
      </trkpt>
      <trkpt lat="42.77289" lon="0.4214">
        <ele>1279.65</ele>
        <time>2014-03-19T10:16:04Z</time>
      </trkpt>
      <trkpt lat="42.77294" lon="0.42124">
        <ele>1278.69</ele>
        <time>2014-03-19T10:16:13Z</time>
      </trkpt>
      <trkpt lat="42.77301" lon="0.42114">
        <ele>1278.21</ele>
        <time>2014-03-19T10:16:25Z</time>
      </trkpt>
      <trkpt lat="42.77303" lon="0.42115">
        <ele>1277.73</ele>
        <time>2014-03-19T10:16:41Z</time>
      </trkpt>
      <trkpt lat="42.77304" lon="0.42115">
        <ele>1277.73</ele>
        <time>2014-03-19T10:16:51Z</time>
      </trkpt>
      <trkpt lat="42.77306" lon="0.42114">
        <ele>1277.25</ele>
        <time>2014-03-19T10:17:00Z</time>
      </trkpt>
      <trkpt lat="42.77306" lon="0.42114">
        <ele>1276.29</ele>
        <time>2014-03-19T10:17:06Z</time>
      </trkpt>
    </trkseg>
  </trk>
</gpx>